<?xml version="1.0" encoding="UTF-8" standalone="no" ?>
<gpx xmlns="http://www.topografix.com/GPX/1/1" xmlns:xsi="http://www.w3.org/2001/XMLSchema-instance" xsi:schemaLocation="http://www.topografix.com/GPX/1/1 http://www.topografix.com/GPX/1/1/gpx.xsd" version="1.1" creator="VisuGPX - https://www.visugpx.com">
  <metadata>
    <name>VerTe Teilletoise 2019</name>
  </metadata>
  <trk>
    <name><![CDATA[VerTe Teilletoise 2019 sur TraceDeTrail.fr]]></name>
    <trkseg>
      <trkpt lat="43.83493" lon="2.34154">
        <ele>483</ele>
        <time>2019-07-14T06:30:00.000Z</time>
      </trkpt>
      <trkpt lat="43.83475" lon="2.34213">
        <ele>484</ele>
        <time>2019-07-14T06:30:20.553Z</time>
      </trkpt>
      <trkpt lat="43.83472" lon="2.34218">
        <ele>491</ele>
        <time>2019-07-14T06:30:22.640Z</time>
      </trkpt>
      <trkpt lat="43.83467" lon="2.3422">
        <ele>490.7</ele>
        <time>2019-07-14T06:30:24.955Z</time>
      </trkpt>
      <trkpt lat="43.83435" lon="2.34199">
        <ele>483</ele>
        <time>2019-07-14T06:30:40.702Z</time>
      </trkpt>
      <trkpt lat="43.83413" lon="2.34182">
        <ele>483</ele>
        <time>2019-07-14T06:30:51.905Z</time>
      </trkpt>
      <trkpt lat="43.83389" lon="2.34164">
        <ele>485</ele>
        <time>2019-07-14T06:31:04.042Z</time>
      </trkpt>
      <trkpt lat="43.83366" lon="2.34149">
        <ele>485</ele>
        <time>2019-07-14T06:31:15.347Z</time>
      </trkpt>
      <trkpt lat="43.83342" lon="2.34133">
        <ele>486</ele>
        <time>2019-07-14T06:31:27.192Z</time>
      </trkpt>
      <trkpt lat="43.83321" lon="2.3412">
        <ele>486</ele>
        <time>2019-07-14T06:31:37.421Z</time>
      </trkpt>
      <trkpt lat="43.83316" lon="2.34114">
        <ele>491.8</ele>
        <time>2019-07-14T06:31:40.362Z</time>
      </trkpt>
      <trkpt lat="43.83306" lon="2.341">
        <ele>487</ele>
        <time>2019-07-14T06:31:46.683Z</time>
      </trkpt>
      <trkpt lat="43.83301" lon="2.34095">
        <ele>492</ele>
        <time>2019-07-14T06:31:49.425Z</time>
      </trkpt>
      <trkpt lat="43.83295" lon="2.34094">
        <ele>492</ele>
        <time>2019-07-14T06:31:52.113Z</time>
      </trkpt>
      <trkpt lat="43.83286" lon="2.34096">
        <ele>487</ele>
        <time>2019-07-14T06:31:56.167Z</time>
      </trkpt>
      <trkpt lat="43.83252" lon="2.34107">
        <ele>487</ele>
        <time>2019-07-14T06:32:11.696Z</time>
      </trkpt>
      <trkpt lat="43.83225" lon="2.34115">
        <ele>483</ele>
        <time>2019-07-14T06:32:23.976Z</time>
      </trkpt>
      <trkpt lat="43.83188" lon="2.34125">
        <ele>482</ele>
        <time>2019-07-14T06:32:40.743Z</time>
      </trkpt>
      <trkpt lat="43.8316" lon="2.34134">
        <ele>482</ele>
        <time>2019-07-14T06:32:53.527Z</time>
      </trkpt>
      <trkpt lat="43.83122" lon="2.34146">
        <ele>482</ele>
        <time>2019-07-14T06:33:10.862Z</time>
      </trkpt>
      <trkpt lat="43.83106" lon="2.34158">
        <ele>488.3</ele>
        <time>2019-07-14T06:33:18.953Z</time>
      </trkpt>
      <trkpt lat="43.8306" lon="2.34185">
        <ele>481</ele>
        <time>2019-07-14T06:33:41.171Z</time>
      </trkpt>
      <trkpt lat="43.83034" lon="2.34197">
        <ele>481</ele>
        <time>2019-07-14T06:33:53.359Z</time>
      </trkpt>
      <trkpt lat="43.83" lon="2.34212">
        <ele>479</ele>
        <time>2019-07-14T06:34:09.229Z</time>
      </trkpt>
      <trkpt lat="43.82989" lon="2.34215">
        <ele>487.2</ele>
        <time>2019-07-14T06:34:14.215Z</time>
      </trkpt>
      <trkpt lat="43.82983" lon="2.34215">
        <ele>487.1</ele>
        <time>2019-07-14T06:34:16.884Z</time>
      </trkpt>
      <trkpt lat="43.82981" lon="2.3421">
        <ele>477</ele>
        <time>2019-07-14T06:34:18.718Z</time>
      </trkpt>
      <trkpt lat="43.82978" lon="2.34166">
        <ele>476</ele>
        <time>2019-07-14T06:34:32.899Z</time>
      </trkpt>
      <trkpt lat="43.82974" lon="2.34142">
        <ele>483.9</ele>
        <time>2019-07-14T06:34:40.803Z</time>
      </trkpt>
      <trkpt lat="43.82965" lon="2.34115">
        <ele>474</ele>
        <time>2019-07-14T06:34:50.346Z</time>
      </trkpt>
      <trkpt lat="43.82953" lon="2.34084">
        <ele>470</ele>
        <time>2019-07-14T06:35:01.634Z</time>
      </trkpt>
      <trkpt lat="43.82946" lon="2.34061">
        <ele>477.2</ele>
        <time>2019-07-14T06:35:09.644Z</time>
      </trkpt>
      <trkpt lat="43.8294" lon="2.34046">
        <ele>467</ele>
        <time>2019-07-14T06:35:15.147Z</time>
      </trkpt>
      <trkpt lat="43.82922" lon="2.33995">
        <ele>467</ele>
        <time>2019-07-14T06:35:33.365Z</time>
      </trkpt>
      <trkpt lat="43.82922" lon="2.3399">
        <ele>470.9</ele>
        <time>2019-07-14T06:35:34.969Z</time>
      </trkpt>
      <trkpt lat="43.82927" lon="2.33981">
        <ele>470.2</ele>
        <time>2019-07-14T06:35:38.614Z</time>
      </trkpt>
      <trkpt lat="43.82935" lon="2.33974">
        <ele>463</ele>
        <time>2019-07-14T06:35:42.822Z</time>
      </trkpt>
      <trkpt lat="43.82948" lon="2.3397">
        <ele>469.6</ele>
        <time>2019-07-14T06:35:48.745Z</time>
      </trkpt>
      <trkpt lat="43.83007" lon="2.33957">
        <ele>468</ele>
        <time>2019-07-14T06:36:15.316Z</time>
      </trkpt>
      <trkpt lat="43.83053" lon="2.33946">
        <ele>473</ele>
        <time>2019-07-14T06:36:36.078Z</time>
      </trkpt>
      <trkpt lat="43.83057" lon="2.33943">
        <ele>476.3</ele>
        <time>2019-07-14T06:36:38.101Z</time>
      </trkpt>
      <trkpt lat="43.83074" lon="2.33891">
        <ele>473</ele>
        <time>2019-07-14T06:36:56.419Z</time>
      </trkpt>
      <trkpt lat="43.83094" lon="2.33837">
        <ele>466</ele>
        <time>2019-07-14T06:37:15.896Z</time>
      </trkpt>
      <trkpt lat="43.83096" lon="2.3383">
        <ele>470.9</ele>
        <time>2019-07-14T06:37:18.312Z</time>
      </trkpt>
      <trkpt lat="43.83095" lon="2.33823">
        <ele>470.8</ele>
        <time>2019-07-14T06:37:20.602Z</time>
      </trkpt>
      <trkpt lat="43.83091" lon="2.33808">
        <ele>461</ele>
        <time>2019-07-14T06:37:25.733Z</time>
      </trkpt>
      <trkpt lat="43.83078" lon="2.33765">
        <ele>462</ele>
        <time>2019-07-14T06:37:40.693Z</time>
      </trkpt>
      <trkpt lat="43.83063" lon="2.33725">
        <ele>463</ele>
        <time>2019-07-14T06:37:55.158Z</time>
      </trkpt>
      <trkpt lat="43.83057" lon="2.3372">
        <ele>467.8</ele>
        <time>2019-07-14T06:37:58.272Z</time>
      </trkpt>
      <trkpt lat="43.83036" lon="2.33711">
        <ele>463</ele>
        <time>2019-07-14T06:38:08.049Z</time>
      </trkpt>
      <trkpt lat="43.83011" lon="2.33697">
        <ele>468</ele>
        <time>2019-07-14T06:38:20.042Z</time>
      </trkpt>
      <trkpt lat="43.83005" lon="2.33708">
        <ele>469.1</ele>
        <time>2019-07-14T06:38:24.467Z</time>
      </trkpt>
      <trkpt lat="43.82979" lon="2.33719">
        <ele>468</ele>
        <time>2019-07-14T06:38:36.558Z</time>
      </trkpt>
      <trkpt lat="43.8297" lon="2.3372">
        <ele>470.2</ele>
        <time>2019-07-14T06:38:40.574Z</time>
      </trkpt>
      <trkpt lat="43.82956" lon="2.33724">
        <ele>468</ele>
        <time>2019-07-14T06:38:46.932Z</time>
      </trkpt>
      <trkpt lat="43.8293" lon="2.33745">
        <ele>468</ele>
        <time>2019-07-14T06:39:00.316Z</time>
      </trkpt>
      <trkpt lat="43.82921" lon="2.33743">
        <ele>470.2</ele>
        <time>2019-07-14T06:39:04.370Z</time>
      </trkpt>
      <trkpt lat="43.8291" lon="2.33748">
        <ele>468</ele>
        <time>2019-07-14T06:39:09.519Z</time>
      </trkpt>
      <trkpt lat="43.82903" lon="2.33761">
        <ele>466.2</ele>
        <time>2019-07-14T06:39:14.724Z</time>
      </trkpt>
      <trkpt lat="43.82894" lon="2.33767">
        <ele>468</ele>
        <time>2019-07-14T06:39:19.166Z</time>
      </trkpt>
      <trkpt lat="43.82885" lon="2.33769">
        <ele>464.3</ele>
        <time>2019-07-14T06:39:23.220Z</time>
      </trkpt>
      <trkpt lat="43.82877" lon="2.33766">
        <ele>464.2</ele>
        <time>2019-07-14T06:39:26.906Z</time>
      </trkpt>
      <trkpt lat="43.8287" lon="2.33775">
        <ele>467</ele>
        <time>2019-07-14T06:39:31.153Z</time>
      </trkpt>
      <trkpt lat="43.82867" lon="2.33776">
        <ele>463.5</ele>
        <time>2019-07-14T06:39:32.525Z</time>
      </trkpt>
      <trkpt lat="43.82862" lon="2.33771">
        <ele>463.8</ele>
        <time>2019-07-14T06:39:35.267Z</time>
      </trkpt>
      <trkpt lat="43.82853" lon="2.3377">
        <ele>464</ele>
        <time>2019-07-14T06:39:39.283Z</time>
      </trkpt>
      <trkpt lat="43.82841" lon="2.33776">
        <ele>467</ele>
        <time>2019-07-14T06:39:44.957Z</time>
      </trkpt>
      <trkpt lat="43.82835" lon="2.33773">
        <ele>464.1</ele>
        <time>2019-07-14T06:39:47.794Z</time>
      </trkpt>
      <trkpt lat="43.82828" lon="2.33774">
        <ele>461.6</ele>
        <time>2019-07-14T06:39:50.924Z</time>
      </trkpt>
      <trkpt lat="43.82814" lon="2.33779">
        <ele>467</ele>
        <time>2019-07-14T06:39:57.354Z</time>
      </trkpt>
      <trkpt lat="43.82808" lon="2.3379">
        <ele>459.3</ele>
        <time>2019-07-14T06:40:01.779Z</time>
      </trkpt>
      <trkpt lat="43.82803" lon="2.33802">
        <ele>463</ele>
        <time>2019-07-14T06:40:06.226Z</time>
      </trkpt>
      <trkpt lat="43.82792" lon="2.33808">
        <ele>457.7</ele>
        <time>2019-07-14T06:40:11.484Z</time>
      </trkpt>
      <trkpt lat="43.82784" lon="2.33823">
        <ele>457</ele>
        <time>2019-07-14T06:40:17.470Z</time>
      </trkpt>
      <trkpt lat="43.82777" lon="2.33827">
        <ele>455.9</ele>
        <time>2019-07-14T06:40:20.838Z</time>
      </trkpt>
      <trkpt lat="43.82766" lon="2.33826">
        <ele>454.7</ele>
        <time>2019-07-14T06:40:25.741Z</time>
      </trkpt>
      <trkpt lat="43.82757" lon="2.3382">
        <ele>457</ele>
        <time>2019-07-14T06:40:30.183Z</time>
      </trkpt>
      <trkpt lat="43.82741" lon="2.33804">
        <ele>457</ele>
        <time>2019-07-14T06:40:38.958Z</time>
      </trkpt>
      <trkpt lat="43.82738" lon="2.33797">
        <ele>454.1</ele>
        <time>2019-07-14T06:40:41.571Z</time>
      </trkpt>
      <trkpt lat="43.82736" lon="2.33781">
        <ele>455.2</ele>
        <time>2019-07-14T06:40:46.782Z</time>
      </trkpt>
      <trkpt lat="43.82734" lon="2.3377">
        <ele>455</ele>
        <time>2019-07-14T06:40:50.422Z</time>
      </trkpt>
      <trkpt lat="43.82733" lon="2.33757">
        <ele>456.7</ele>
        <time>2019-07-14T06:40:54.617Z</time>
      </trkpt>
      <trkpt lat="43.8273" lon="2.3374">
        <ele>455</ele>
        <time>2019-07-14T06:41:00.233Z</time>
      </trkpt>
      <trkpt lat="43.82727" lon="2.3373">
        <ele>460.3</ele>
        <time>2019-07-14T06:41:03.708Z</time>
      </trkpt>
      <trkpt lat="43.82722" lon="2.3372">
        <ele>460.6</ele>
        <time>2019-07-14T06:41:07.612Z</time>
      </trkpt>
      <trkpt lat="43.82717" lon="2.33714">
        <ele>455</ele>
        <time>2019-07-14T06:41:10.553Z</time>
      </trkpt>
      <trkpt lat="43.82713" lon="2.3371">
        <ele>460.9</ele>
        <time>2019-07-14T06:41:12.747Z</time>
      </trkpt>
      <trkpt lat="43.82709" lon="2.3371">
        <ele>460.9</ele>
        <time>2019-07-14T06:41:14.526Z</time>
      </trkpt>
      <trkpt lat="43.82705" lon="2.33715">
        <ele>460.8</ele>
        <time>2019-07-14T06:41:16.922Z</time>
      </trkpt>
      <trkpt lat="43.82684" lon="2.33773">
        <ele>454</ele>
        <time>2019-07-14T06:41:37.745Z</time>
      </trkpt>
      <trkpt lat="43.82673" lon="2.33795">
        <ele>453.7</ele>
        <time>2019-07-14T06:41:46.334Z</time>
      </trkpt>
      <trkpt lat="43.82648" lon="2.3383">
        <ele>454</ele>
        <time>2019-07-14T06:42:02.138Z</time>
      </trkpt>
      <trkpt lat="43.82628" lon="2.33852">
        <ele>455</ele>
        <time>2019-07-14T06:42:13.494Z</time>
      </trkpt>
      <trkpt lat="43.82614" lon="2.33861">
        <ele>450.4</ele>
        <time>2019-07-14T06:42:20.358Z</time>
      </trkpt>
      <trkpt lat="43.82607" lon="2.33867">
        <ele>455</ele>
        <time>2019-07-14T06:42:24.019Z</time>
      </trkpt>
      <trkpt lat="43.82586" lon="2.33896">
        <ele>458</ele>
        <time>2019-07-14T06:42:37.204Z</time>
      </trkpt>
      <trkpt lat="43.8258" lon="2.33903">
        <ele>448.5</ele>
        <time>2019-07-14T06:42:40.692Z</time>
      </trkpt>
      <trkpt lat="43.82572" lon="2.33911">
        <ele>448.1</ele>
        <time>2019-07-14T06:42:45.080Z</time>
      </trkpt>
      <trkpt lat="43.82517" lon="2.33938">
        <ele>458</ele>
        <time>2019-07-14T06:43:11.032Z</time>
      </trkpt>
      <trkpt lat="43.82492" lon="2.33952">
        <ele>452</ele>
        <time>2019-07-14T06:43:23.025Z</time>
      </trkpt>
      <trkpt lat="43.82459" lon="2.33969">
        <ele>446</ele>
        <time>2019-07-14T06:43:38.684Z</time>
      </trkpt>
      <trkpt lat="43.82437" lon="2.33973">
        <ele>435</ele>
        <time>2019-07-14T06:43:48.553Z</time>
      </trkpt>
      <trkpt lat="43.82422" lon="2.33972">
        <ele>434.9</ele>
        <time>2019-07-14T06:43:55.232Z</time>
      </trkpt>
      <trkpt lat="43.82407" lon="2.33951">
        <ele>433</ele>
        <time>2019-07-14T06:44:04.715Z</time>
      </trkpt>
      <trkpt lat="43.82395" lon="2.33925">
        <ele>432</ele>
        <time>2019-07-14T06:44:14.619Z</time>
      </trkpt>
      <trkpt lat="43.82384" lon="2.33908">
        <ele>444.5</ele>
        <time>2019-07-14T06:44:21.947Z</time>
      </trkpt>
      <trkpt lat="43.8238" lon="2.33907">
        <ele>432</ele>
        <time>2019-07-14T06:44:23.755Z</time>
      </trkpt>
      <trkpt lat="43.82375" lon="2.3391">
        <ele>444.4</ele>
        <time>2019-07-14T06:44:26.178Z</time>
      </trkpt>
      <trkpt lat="43.82372" lon="2.33923">
        <ele>436.8</ele>
        <time>2019-07-14T06:44:30.558Z</time>
      </trkpt>
      <trkpt lat="43.82367" lon="2.33939">
        <ele>430</ele>
        <time>2019-07-14T06:44:36.153Z</time>
      </trkpt>
      <trkpt lat="43.82363" lon="2.33957">
        <ele>434.2</ele>
        <time>2019-07-14T06:44:42.197Z</time>
      </trkpt>
      <trkpt lat="43.82362" lon="2.33969">
        <ele>426</ele>
        <time>2019-07-14T06:44:46.073Z</time>
      </trkpt>
      <trkpt lat="43.82358" lon="2.3398">
        <ele>431.7</ele>
        <time>2019-07-14T06:44:50.026Z</time>
      </trkpt>
      <trkpt lat="43.82356" lon="2.33989">
        <ele>430.7</ele>
        <time>2019-07-14T06:44:53.048Z</time>
      </trkpt>
      <trkpt lat="43.82352" lon="2.33992">
        <ele>426</ele>
        <time>2019-07-14T06:44:55.071Z</time>
      </trkpt>
      <trkpt lat="43.82339" lon="2.33985">
        <ele>429.5</ele>
        <time>2019-07-14T06:45:01.274Z</time>
      </trkpt>
      <trkpt lat="43.82329" lon="2.33983">
        <ele>426</ele>
        <time>2019-07-14T06:45:05.768Z</time>
      </trkpt>
      <trkpt lat="43.82299" lon="2.33968">
        <ele>429</ele>
        <time>2019-07-14T06:45:19.953Z</time>
      </trkpt>
      <trkpt lat="43.82292" lon="2.33966">
        <ele>428.6</ele>
        <time>2019-07-14T06:45:23.132Z</time>
      </trkpt>
      <trkpt lat="43.82268" lon="2.33957">
        <ele>433</ele>
        <time>2019-07-14T06:45:34.191Z</time>
      </trkpt>
      <trkpt lat="43.82236" lon="2.33948">
        <ele>434</ele>
        <time>2019-07-14T06:45:48.714Z</time>
      </trkpt>
      <trkpt lat="43.82206" lon="2.33937">
        <ele>434</ele>
        <time>2019-07-14T06:46:02.516Z</time>
      </trkpt>
      <trkpt lat="43.82184" lon="2.3393">
        <ele>428</ele>
        <time>2019-07-14T06:46:12.556Z</time>
      </trkpt>
      <trkpt lat="43.82177" lon="2.33926">
        <ele>421.5</ele>
        <time>2019-07-14T06:46:15.924Z</time>
      </trkpt>
      <trkpt lat="43.82168" lon="2.33925">
        <ele>421.6</ele>
        <time>2019-07-14T06:46:19.940Z</time>
      </trkpt>
      <trkpt lat="43.82156" lon="2.33918">
        <ele>422</ele>
        <time>2019-07-14T06:46:25.731Z</time>
      </trkpt>
      <trkpt lat="43.82151" lon="2.33911">
        <ele>421.2</ele>
        <time>2019-07-14T06:46:28.892Z</time>
      </trkpt>
      <trkpt lat="43.82148" lon="2.33901">
        <ele>421.1</ele>
        <time>2019-07-14T06:46:32.367Z</time>
      </trkpt>
      <trkpt lat="43.8214" lon="2.33902">
        <ele>416</ele>
        <time>2019-07-14T06:46:35.940Z</time>
      </trkpt>
      <trkpt lat="43.82135" lon="2.33905">
        <ele>420.4</ele>
        <time>2019-07-14T06:46:38.363Z</time>
      </trkpt>
      <trkpt lat="43.82127" lon="2.33915">
        <ele>419.6</ele>
        <time>2019-07-14T06:46:43.155Z</time>
      </trkpt>
      <trkpt lat="43.82116" lon="2.33923">
        <ele>412</ele>
        <time>2019-07-14T06:46:48.680Z</time>
      </trkpt>
      <trkpt lat="43.82111" lon="2.33918">
        <ele>411.5</ele>
        <time>2019-07-14T06:46:51.422Z</time>
      </trkpt>
      <trkpt lat="43.82109" lon="2.33907">
        <ele>418</ele>
        <time>2019-07-14T06:46:55.062Z</time>
      </trkpt>
      <trkpt lat="43.82102" lon="2.33884">
        <ele>413</ele>
        <time>2019-07-14T06:47:03.073Z</time>
      </trkpt>
      <trkpt lat="43.82099" lon="2.33879">
        <ele>420.2</ele>
        <time>2019-07-14T06:47:05.160Z</time>
      </trkpt>
      <trkpt lat="43.82095" lon="2.33876">
        <ele>420.4</ele>
        <time>2019-07-14T06:47:07.183Z</time>
      </trkpt>
      <trkpt lat="43.82083" lon="2.33876">
        <ele>414</ele>
        <time>2019-07-14T06:47:12.520Z</time>
      </trkpt>
      <trkpt lat="43.82079" lon="2.3388">
        <ele>419.2</ele>
        <time>2019-07-14T06:47:14.714Z</time>
      </trkpt>
      <trkpt lat="43.82077" lon="2.33886">
        <ele>418.3</ele>
        <time>2019-07-14T06:47:16.835Z</time>
      </trkpt>
      <trkpt lat="43.82067" lon="2.339">
        <ele>414</ele>
        <time>2019-07-14T06:47:23.157Z</time>
      </trkpt>
      <trkpt lat="43.82061" lon="2.33901">
        <ele>417.1</ele>
        <time>2019-07-14T06:47:25.845Z</time>
      </trkpt>
      <trkpt lat="43.82053" lon="2.33906">
        <ele>417.3</ele>
        <time>2019-07-14T06:47:29.748Z</time>
      </trkpt>
      <trkpt lat="43.82048" lon="2.33907">
        <ele>413</ele>
        <time>2019-07-14T06:47:31.995Z</time>
      </trkpt>
      <trkpt lat="43.82029" lon="2.33917">
        <ele>407</ele>
        <time>2019-07-14T06:47:41.035Z</time>
      </trkpt>
      <trkpt lat="43.82006" lon="2.33919">
        <ele>408</ele>
        <time>2019-07-14T06:47:51.285Z</time>
      </trkpt>
      <trkpt lat="43.82001" lon="2.33918">
        <ele>412.5</ele>
        <time>2019-07-14T06:47:53.532Z</time>
      </trkpt>
      <trkpt lat="43.81998" lon="2.33916">
        <ele>413.5</ele>
        <time>2019-07-14T06:47:55.013Z</time>
      </trkpt>
      <trkpt lat="43.81974" lon="2.33909">
        <ele>410</ele>
        <time>2019-07-14T06:48:05.922Z</time>
      </trkpt>
      <trkpt lat="43.81958" lon="2.33908">
        <ele>415.8</ele>
        <time>2019-07-14T06:48:13.046Z</time>
      </trkpt>
      <trkpt lat="43.81937" lon="2.33909">
        <ele>409</ele>
        <time>2019-07-14T06:48:22.392Z</time>
      </trkpt>
      <trkpt lat="43.81921" lon="2.33911">
        <ele>409.9</ele>
        <time>2019-07-14T06:48:29.537Z</time>
      </trkpt>
      <trkpt lat="43.81892" lon="2.3392">
        <ele>408</ele>
        <time>2019-07-14T06:48:42.755Z</time>
      </trkpt>
      <trkpt lat="43.81862" lon="2.33933">
        <ele>401</ele>
        <time>2019-07-14T06:48:56.735Z</time>
      </trkpt>
      <trkpt lat="43.81852" lon="2.33935">
        <ele>393.6</ele>
        <time>2019-07-14T06:49:01.229Z</time>
      </trkpt>
      <trkpt lat="43.8184" lon="2.33944">
        <ele>396</ele>
        <time>2019-07-14T06:49:07.298Z</time>
      </trkpt>
      <trkpt lat="43.81836" lon="2.33954">
        <ele>391.6</ele>
        <time>2019-07-14T06:49:10.967Z</time>
      </trkpt>
      <trkpt lat="43.81833" lon="2.33969">
        <ele>391</ele>
        <time>2019-07-14T06:49:15.962Z</time>
      </trkpt>
      <trkpt lat="43.81827" lon="2.33981">
        <ele>385.1</ele>
        <time>2019-07-14T06:49:20.647Z</time>
      </trkpt>
      <trkpt lat="43.81797" lon="2.34026">
        <ele>383</ele>
        <time>2019-07-14T06:49:40.309Z</time>
      </trkpt>
      <trkpt lat="43.81792" lon="2.3404">
        <ele>383.2</ele>
        <time>2019-07-14T06:49:45.322Z</time>
      </trkpt>
      <trkpt lat="43.81784" lon="2.34053">
        <ele>381</ele>
        <time>2019-07-14T06:49:50.805Z</time>
      </trkpt>
      <trkpt lat="43.8177" lon="2.3407">
        <ele>382.6</ele>
        <time>2019-07-14T06:49:59.084Z</time>
      </trkpt>
      <trkpt lat="43.81763" lon="2.34083">
        <ele>379</ele>
        <time>2019-07-14T06:50:04.290Z</time>
      </trkpt>
      <trkpt lat="43.8176" lon="2.34085">
        <ele>382.6</ele>
        <time>2019-07-14T06:50:05.771Z</time>
      </trkpt>
      <trkpt lat="43.81755" lon="2.34086">
        <ele>382</ele>
        <time>2019-07-14T06:50:08.018Z</time>
      </trkpt>
      <trkpt lat="43.81751" lon="2.34089">
        <ele>382</ele>
        <time>2019-07-14T06:50:10.041Z</time>
      </trkpt>
      <trkpt lat="43.81736" lon="2.34125">
        <ele>378</ele>
        <time>2019-07-14T06:50:23.382Z</time>
      </trkpt>
      <trkpt lat="43.81731" lon="2.34143">
        <ele>383.8</ele>
        <time>2019-07-14T06:50:29.572Z</time>
      </trkpt>
      <trkpt lat="43.81728" lon="2.34164">
        <ele>376</ele>
        <time>2019-07-14T06:50:36.442Z</time>
      </trkpt>
      <trkpt lat="43.81723" lon="2.34183">
        <ele>383.6</ele>
        <time>2019-07-14T06:50:42.933Z</time>
      </trkpt>
      <trkpt lat="43.81723" lon="2.34202">
        <ele>372</ele>
        <time>2019-07-14T06:50:49.031Z</time>
      </trkpt>
      <trkpt lat="43.81721" lon="2.34218">
        <ele>384.1</ele>
        <time>2019-07-14T06:50:54.242Z</time>
      </trkpt>
      <trkpt lat="43.81718" lon="2.34232">
        <ele>375</ele>
        <time>2019-07-14T06:50:58.929Z</time>
      </trkpt>
      <trkpt lat="43.81713" lon="2.34247">
        <ele>384.5</ele>
        <time>2019-07-14T06:51:04.232Z</time>
      </trkpt>
      <trkpt lat="43.81709" lon="2.3425">
        <ele>384.8</ele>
        <time>2019-07-14T06:51:06.255Z</time>
      </trkpt>
      <trkpt lat="43.81704" lon="2.34251">
        <ele>378</ele>
        <time>2019-07-14T06:51:08.502Z</time>
      </trkpt>
      <trkpt lat="43.81686" lon="2.3429">
        <ele>384</ele>
        <time>2019-07-14T06:51:23.360Z</time>
      </trkpt>
      <trkpt lat="43.8168" lon="2.34298">
        <ele>384.9</ele>
        <time>2019-07-14T06:51:27.063Z</time>
      </trkpt>
      <trkpt lat="43.81667" lon="2.34318">
        <ele>384</ele>
        <time>2019-07-14T06:51:35.702Z</time>
      </trkpt>
      <trkpt lat="43.81661" lon="2.34324">
        <ele>385.6</ele>
        <time>2019-07-14T06:51:38.993Z</time>
      </trkpt>
      <trkpt lat="43.81652" lon="2.34336">
        <ele>383</ele>
        <time>2019-07-14T06:51:44.548Z</time>
      </trkpt>
      <trkpt lat="43.81623" lon="2.3437">
        <ele>383</ele>
        <time>2019-07-14T06:52:01.443Z</time>
      </trkpt>
      <trkpt lat="43.81617" lon="2.34378">
        <ele>382.6</ele>
        <time>2019-07-14T06:52:05.146Z</time>
      </trkpt>
      <trkpt lat="43.81612" lon="2.34382">
        <ele>382.6</ele>
        <time>2019-07-14T06:52:07.714Z</time>
      </trkpt>
      <trkpt lat="43.81596" lon="2.34401">
        <ele>379</ele>
        <time>2019-07-14T06:52:17.086Z</time>
      </trkpt>
      <trkpt lat="43.81589" lon="2.34413">
        <ele>382.1</ele>
        <time>2019-07-14T06:52:22.038Z</time>
      </trkpt>
      <trkpt lat="43.81584" lon="2.34439">
        <ele>378</ele>
        <time>2019-07-14T06:52:30.674Z</time>
      </trkpt>
      <trkpt lat="43.81578" lon="2.34462">
        <ele>375</ele>
        <time>2019-07-14T06:52:38.523Z</time>
      </trkpt>
      <trkpt lat="43.81575" lon="2.3447">
        <ele>375</ele>
        <time>2019-07-14T06:52:41.417Z</time>
      </trkpt>
      <trkpt lat="43.81571" lon="2.34476">
        <ele>374.2</ele>
        <time>2019-07-14T06:52:44.039Z</time>
      </trkpt>
      <trkpt lat="43.81556" lon="2.34487">
        <ele>373</ele>
        <time>2019-07-14T06:52:51.587Z</time>
      </trkpt>
      <trkpt lat="43.81549" lon="2.34488">
        <ele>373.1</ele>
        <time>2019-07-14T06:52:54.717Z</time>
      </trkpt>
      <trkpt lat="43.81533" lon="2.34483">
        <ele>364</ele>
        <time>2019-07-14T06:53:02.012Z</time>
      </trkpt>
      <trkpt lat="43.81522" lon="2.34485">
        <ele>371.4</ele>
        <time>2019-07-14T06:53:06.947Z</time>
      </trkpt>
      <trkpt lat="43.81516" lon="2.34485">
        <ele>370.9</ele>
        <time>2019-07-14T06:53:09.616Z</time>
      </trkpt>
      <trkpt lat="43.81511" lon="2.34488">
        <ele>357</ele>
        <time>2019-07-14T06:53:12.039Z</time>
      </trkpt>
      <trkpt lat="43.81502" lon="2.34479">
        <ele>370.6</ele>
        <time>2019-07-14T06:53:16.975Z</time>
      </trkpt>
      <trkpt lat="43.81506" lon="2.34471">
        <ele>371.5</ele>
        <time>2019-07-14T06:53:20.099Z</time>
      </trkpt>
      <trkpt lat="43.81508" lon="2.34464">
        <ele>357</ele>
        <time>2019-07-14T06:53:22.515Z</time>
      </trkpt>
      <trkpt lat="43.81509" lon="2.34458">
        <ele>372.3</ele>
        <time>2019-07-14T06:53:24.491Z</time>
      </trkpt>
      <trkpt lat="43.81509" lon="2.34452">
        <ele>372.6</ele>
        <time>2019-07-14T06:53:26.417Z</time>
      </trkpt>
      <trkpt lat="43.81507" lon="2.34447">
        <ele>372.7</ele>
        <time>2019-07-14T06:53:28.252Z</time>
      </trkpt>
      <trkpt lat="43.81502" lon="2.34443">
        <ele>372.6</ele>
        <time>2019-07-14T06:53:30.820Z</time>
      </trkpt>
      <trkpt lat="43.81495" lon="2.3444">
        <ele>356</ele>
        <time>2019-07-14T06:53:34.079Z</time>
      </trkpt>
      <trkpt lat="43.81486" lon="2.34439">
        <ele>367.4</ele>
        <time>2019-07-14T06:53:38.095Z</time>
      </trkpt>
      <trkpt lat="43.81479" lon="2.3444">
        <ele>366.8</ele>
        <time>2019-07-14T06:53:41.225Z</time>
      </trkpt>
      <trkpt lat="43.8147" lon="2.34443">
        <ele>356</ele>
        <time>2019-07-14T06:53:45.342Z</time>
      </trkpt>
      <trkpt lat="43.81464" lon="2.34441">
        <ele>365.7</ele>
        <time>2019-07-14T06:53:48.087Z</time>
      </trkpt>
      <trkpt lat="43.81456" lon="2.3444">
        <ele>365.1</ele>
        <time>2019-07-14T06:53:51.660Z</time>
      </trkpt>
      <trkpt lat="43.81447" lon="2.34431">
        <ele>351</ele>
        <time>2019-07-14T06:53:56.596Z</time>
      </trkpt>
      <trkpt lat="43.81439" lon="2.3442">
        <ele>363.8</ele>
        <time>2019-07-14T06:54:01.608Z</time>
      </trkpt>
      <trkpt lat="43.81432" lon="2.34406">
        <ele>343</ele>
        <time>2019-07-14T06:54:07.075Z</time>
      </trkpt>
      <trkpt lat="43.81426" lon="2.34389">
        <ele>367</ele>
        <time>2019-07-14T06:54:13.149Z</time>
      </trkpt>
      <trkpt lat="43.81401" lon="2.34352">
        <ele>343</ele>
        <time>2019-07-14T06:54:29.417Z</time>
      </trkpt>
      <trkpt lat="43.81362" lon="2.34326">
        <ele>351</ele>
        <time>2019-07-14T06:54:48.666Z</time>
      </trkpt>
      <trkpt lat="43.81346" lon="2.3431">
        <ele>361</ele>
        <time>2019-07-14T06:54:57.442Z</time>
      </trkpt>
      <trkpt lat="43.81333" lon="2.34301">
        <ele>368.9</ele>
        <time>2019-07-14T06:55:03.906Z</time>
      </trkpt>
      <trkpt lat="43.81322" lon="2.34292">
        <ele>370</ele>
        <time>2019-07-14T06:55:09.588Z</time>
      </trkpt>
      <trkpt lat="43.81315" lon="2.34287">
        <ele>371.6</ele>
        <time>2019-07-14T06:55:13.091Z</time>
      </trkpt>
      <trkpt lat="43.81309" lon="2.34283">
        <ele>372.3</ele>
        <time>2019-07-14T06:55:16.052Z</time>
      </trkpt>
      <trkpt lat="43.81298" lon="2.3428">
        <ele>380</ele>
        <time>2019-07-14T06:55:21.038Z</time>
      </trkpt>
      <trkpt lat="43.8129" lon="2.34278">
        <ele>373.7</ele>
        <time>2019-07-14T06:55:24.654Z</time>
      </trkpt>
      <trkpt lat="43.81267" lon="2.34271">
        <ele>382</ele>
        <time>2019-07-14T06:55:35.128Z</time>
      </trkpt>
      <trkpt lat="43.81257" lon="2.34265">
        <ele>380.8</ele>
        <time>2019-07-14T06:55:39.975Z</time>
      </trkpt>
      <trkpt lat="43.81248" lon="2.34266">
        <ele>387</ele>
        <time>2019-07-14T06:55:43.991Z</time>
      </trkpt>
      <trkpt lat="43.81238" lon="2.34266">
        <ele>380</ele>
        <time>2019-07-14T06:55:48.439Z</time>
      </trkpt>
      <trkpt lat="43.8122" lon="2.34255">
        <ele>388</ele>
        <time>2019-07-14T06:55:57.189Z</time>
      </trkpt>
      <trkpt lat="43.81215" lon="2.34254">
        <ele>377.7</ele>
        <time>2019-07-14T06:55:59.436Z</time>
      </trkpt>
      <trkpt lat="43.81209" lon="2.34251">
        <ele>377.3</ele>
        <time>2019-07-14T06:56:02.273Z</time>
      </trkpt>
      <trkpt lat="43.81203" lon="2.34241">
        <ele>390</ele>
        <time>2019-07-14T06:56:06.447Z</time>
      </trkpt>
      <trkpt lat="43.81202" lon="2.34234">
        <ele>392.4</ele>
        <time>2019-07-14T06:56:08.737Z</time>
      </trkpt>
      <trkpt lat="43.81202" lon="2.34229">
        <ele>393</ele>
        <time>2019-07-14T06:56:10.342Z</time>
      </trkpt>
      <trkpt lat="43.81199" lon="2.34228">
        <ele>392.9</ele>
        <time>2019-07-14T06:56:11.714Z</time>
      </trkpt>
      <trkpt lat="43.81196" lon="2.34228">
        <ele>392.6</ele>
        <time>2019-07-14T06:56:13.048Z</time>
      </trkpt>
      <trkpt lat="43.81181" lon="2.34234">
        <ele>394</ele>
        <time>2019-07-14T06:56:19.992Z</time>
      </trkpt>
      <trkpt lat="43.81173" lon="2.34234">
        <ele>388.3</ele>
        <time>2019-07-14T06:56:23.550Z</time>
      </trkpt>
      <trkpt lat="43.81168" lon="2.34232">
        <ele>388.6</ele>
        <time>2019-07-14T06:56:25.865Z</time>
      </trkpt>
      <trkpt lat="43.8116" lon="2.34231">
        <ele>392</ele>
        <time>2019-07-14T06:56:29.438Z</time>
      </trkpt>
      <trkpt lat="43.81151" lon="2.34225">
        <ele>386.8</ele>
        <time>2019-07-14T06:56:33.880Z</time>
      </trkpt>
      <trkpt lat="43.81126" lon="2.34215">
        <ele>391</ele>
        <time>2019-07-14T06:56:45.453Z</time>
      </trkpt>
      <trkpt lat="43.81122" lon="2.34214">
        <ele>387.5</ele>
        <time>2019-07-14T06:56:47.261Z</time>
      </trkpt>
      <trkpt lat="43.81117" lon="2.34211">
        <ele>387.6</ele>
        <time>2019-07-14T06:56:49.684Z</time>
      </trkpt>
      <trkpt lat="43.81114" lon="2.34207">
        <ele>388</ele>
        <time>2019-07-14T06:56:51.536Z</time>
      </trkpt>
      <trkpt lat="43.81086" lon="2.34195">
        <ele>391</ele>
        <time>2019-07-14T06:57:04.572Z</time>
      </trkpt>
      <trkpt lat="43.81078" lon="2.34187">
        <ele>383.2</ele>
        <time>2019-07-14T06:57:08.960Z</time>
      </trkpt>
      <trkpt lat="43.81069" lon="2.34165">
        <ele>392</ele>
        <time>2019-07-14T06:57:17.077Z</time>
      </trkpt>
      <trkpt lat="43.8105" lon="2.34111">
        <ele>393</ele>
        <time>2019-07-14T06:57:36.360Z</time>
      </trkpt>
      <trkpt lat="43.81037" lon="2.34064">
        <ele>407</ele>
        <time>2019-07-14T06:57:52.516Z</time>
      </trkpt>
      <trkpt lat="43.81038" lon="2.3406">
        <ele>413.3</ele>
        <time>2019-07-14T06:57:53.875Z</time>
      </trkpt>
      <trkpt lat="43.81046" lon="2.34067">
        <ele>413.5</ele>
        <time>2019-07-14T06:57:58.083Z</time>
      </trkpt>
      <trkpt lat="43.81069" lon="2.3409">
        <ele>407</ele>
        <time>2019-07-14T06:58:10.698Z</time>
      </trkpt>
      <trkpt lat="43.81083" lon="2.34102">
        <ele>403.7</ele>
        <time>2019-07-14T06:58:18.020Z</time>
      </trkpt>
      <trkpt lat="43.81132" lon="2.34135">
        <ele>414</ele>
        <time>2019-07-14T06:58:42.252Z</time>
      </trkpt>
      <trkpt lat="43.81139" lon="2.34139">
        <ele>408.6</ele>
        <time>2019-07-14T06:58:45.620Z</time>
      </trkpt>
      <trkpt lat="43.81149" lon="2.3414">
        <ele>409.1</ele>
        <time>2019-07-14T06:58:50.079Z</time>
      </trkpt>
      <trkpt lat="43.81169" lon="2.34131">
        <ele>419</ele>
        <time>2019-07-14T06:58:59.432Z</time>
      </trkpt>
      <trkpt lat="43.81195" lon="2.34115">
        <ele>419</ele>
        <time>2019-07-14T06:59:12.085Z</time>
      </trkpt>
      <trkpt lat="43.81208" lon="2.34106">
        <ele>413.4</ele>
        <time>2019-07-14T06:59:18.549Z</time>
      </trkpt>
      <trkpt lat="43.81211" lon="2.34101">
        <ele>413.5</ele>
        <time>2019-07-14T06:59:20.636Z</time>
      </trkpt>
      <trkpt lat="43.81209" lon="2.34057">
        <ele>419</ele>
        <time>2019-07-14T06:59:34.786Z</time>
      </trkpt>
      <trkpt lat="43.81209" lon="2.34048">
        <ele>421.6</ele>
        <time>2019-07-14T06:59:37.675Z</time>
      </trkpt>
      <trkpt lat="43.8121" lon="2.34035">
        <ele>422.3</ele>
        <time>2019-07-14T06:59:41.871Z</time>
      </trkpt>
      <trkpt lat="43.81209" lon="2.34028">
        <ele>420</ele>
        <time>2019-07-14T06:59:44.161Z</time>
      </trkpt>
      <trkpt lat="43.81204" lon="2.34013">
        <ele>423.6</ele>
        <time>2019-07-14T06:59:49.464Z</time>
      </trkpt>
      <trkpt lat="43.81198" lon="2.33989">
        <ele>423</ele>
        <time>2019-07-14T06:59:57.616Z</time>
      </trkpt>
      <trkpt lat="43.81196" lon="2.33965">
        <ele>431.3</ele>
        <time>2019-07-14T07:00:05.370Z</time>
      </trkpt>
      <trkpt lat="43.81197" lon="2.33953">
        <ele>426</ele>
        <time>2019-07-14T07:00:09.247Z</time>
      </trkpt>
      <trkpt lat="43.812" lon="2.33931">
        <ele>433.1</ele>
        <time>2019-07-14T07:00:16.433Z</time>
      </trkpt>
      <trkpt lat="43.81205" lon="2.33912">
        <ele>426</ele>
        <time>2019-07-14T07:00:22.924Z</time>
      </trkpt>
      <trkpt lat="43.81214" lon="2.33884">
        <ele>426</ele>
        <time>2019-07-14T07:00:32.762Z</time>
      </trkpt>
      <trkpt lat="43.8122" lon="2.33868">
        <ele>441</ele>
        <time>2019-07-14T07:00:38.549Z</time>
      </trkpt>
      <trkpt lat="43.81231" lon="2.33845">
        <ele>435</ele>
        <time>2019-07-14T07:00:47.405Z</time>
      </trkpt>
      <trkpt lat="43.81246" lon="2.3382">
        <ele>437</ele>
        <time>2019-07-14T07:00:57.840Z</time>
      </trkpt>
      <trkpt lat="43.81257" lon="2.33793">
        <ele>440</ele>
        <time>2019-07-14T07:01:07.792Z</time>
      </trkpt>
      <trkpt lat="43.81258" lon="2.33788">
        <ele>443</ele>
        <time>2019-07-14T07:01:09.457Z</time>
      </trkpt>
      <trkpt lat="43.81249" lon="2.33778">
        <ele>446.9</ele>
        <time>2019-07-14T07:01:14.588Z</time>
      </trkpt>
      <trkpt lat="43.81155" lon="2.33728">
        <ele>447</ele>
        <time>2019-07-14T07:01:59.371Z</time>
      </trkpt>
      <trkpt lat="43.8113" lon="2.33712">
        <ele>447</ele>
        <time>2019-07-14T07:02:11.619Z</time>
      </trkpt>
      <trkpt lat="43.81096" lon="2.33691">
        <ele>447</ele>
        <time>2019-07-14T07:02:28.176Z</time>
      </trkpt>
      <trkpt lat="43.81054" lon="2.33667">
        <ele>449</ele>
        <time>2019-07-14T07:02:48.383Z</time>
      </trkpt>
      <trkpt lat="43.81032" lon="2.33653">
        <ele>449</ele>
        <time>2019-07-14T07:02:59.151Z</time>
      </trkpt>
      <trkpt lat="43.81022" lon="2.33645">
        <ele>460.9</ele>
        <time>2019-07-14T07:03:04.287Z</time>
      </trkpt>
      <trkpt lat="43.8101" lon="2.33632">
        <ele>449</ele>
        <time>2019-07-14T07:03:11.062Z</time>
      </trkpt>
      <trkpt lat="43.81" lon="2.33612">
        <ele>462.2</ele>
        <time>2019-07-14T07:03:18.872Z</time>
      </trkpt>
      <trkpt lat="43.80978" lon="2.33574">
        <ele>452</ele>
        <time>2019-07-14T07:03:34.509Z</time>
      </trkpt>
      <trkpt lat="43.80947" lon="2.33523">
        <ele>457</ele>
        <time>2019-07-14T07:03:55.912Z</time>
      </trkpt>
      <trkpt lat="43.80932" lon="2.33484">
        <ele>458</ele>
        <time>2019-07-14T07:04:10.097Z</time>
      </trkpt>
      <trkpt lat="43.80915" lon="2.33442">
        <ele>462</ele>
        <time>2019-07-14T07:04:25.554Z</time>
      </trkpt>
      <trkpt lat="43.80897" lon="2.33399">
        <ele>465</ele>
        <time>2019-07-14T07:04:41.510Z</time>
      </trkpt>
      <trkpt lat="43.80875" lon="2.3335">
        <ele>465</ele>
        <time>2019-07-14T07:05:00.033Z</time>
      </trkpt>
      <trkpt lat="43.80857" lon="2.33319">
        <ele>466</ele>
        <time>2019-07-14T07:05:12.804Z</time>
      </trkpt>
      <trkpt lat="43.80851" lon="2.33311">
        <ele>471</ele>
        <time>2019-07-14T07:05:16.507Z</time>
      </trkpt>
      <trkpt lat="43.80847" lon="2.3331">
        <ele>471</ele>
        <time>2019-07-14T07:05:18.315Z</time>
      </trkpt>
      <trkpt lat="43.80842" lon="2.33311">
        <ele>471.1</ele>
        <time>2019-07-14T07:05:20.562Z</time>
      </trkpt>
      <trkpt lat="43.80813" lon="2.33328">
        <ele>468</ele>
        <time>2019-07-14T07:05:34.567Z</time>
      </trkpt>
      <trkpt lat="43.80785" lon="2.33342">
        <ele>469</ele>
        <time>2019-07-14T07:05:47.807Z</time>
      </trkpt>
      <trkpt lat="43.80758" lon="2.33354">
        <ele>469</ele>
        <time>2019-07-14T07:06:00.419Z</time>
      </trkpt>
      <trkpt lat="43.80741" lon="2.33365">
        <ele>475.2</ele>
        <time>2019-07-14T07:06:08.764Z</time>
      </trkpt>
      <trkpt lat="43.80739" lon="2.33364">
        <ele>470</ele>
        <time>2019-07-14T07:06:09.710Z</time>
      </trkpt>
      <trkpt lat="43.80736" lon="2.33358">
        <ele>475.2</ele>
        <time>2019-07-14T07:06:12.053Z</time>
      </trkpt>
      <trkpt lat="43.80736" lon="2.33325">
        <ele>470</ele>
        <time>2019-07-14T07:06:22.645Z</time>
      </trkpt>
      <trkpt lat="43.80737" lon="2.33308">
        <ele>475</ele>
        <time>2019-07-14T07:06:28.120Z</time>
      </trkpt>
      <trkpt lat="43.80751" lon="2.33249">
        <ele>466</ele>
        <time>2019-07-14T07:06:48.056Z</time>
      </trkpt>
      <trkpt lat="43.8075" lon="2.33243">
        <ele>474.8</ele>
        <time>2019-07-14T07:06:50.033Z</time>
      </trkpt>
      <trkpt lat="43.80744" lon="2.33236">
        <ele>474.7</ele>
        <time>2019-07-14T07:06:53.522Z</time>
      </trkpt>
      <trkpt lat="43.80699" lon="2.332">
        <ele>464</ele>
        <time>2019-07-14T07:07:16.633Z</time>
      </trkpt>
      <trkpt lat="43.80694" lon="2.33198">
        <ele>474.1</ele>
        <time>2019-07-14T07:07:18.948Z</time>
      </trkpt>
      <trkpt lat="43.80691" lon="2.33201">
        <ele>474.1</ele>
        <time>2019-07-14T07:07:20.594Z</time>
      </trkpt>
      <trkpt lat="43.80679" lon="2.33239">
        <ele>464</ele>
        <time>2019-07-14T07:07:33.908Z</time>
      </trkpt>
      <trkpt lat="43.80668" lon="2.33254">
        <ele>474.2</ele>
        <time>2019-07-14T07:07:40.772Z</time>
      </trkpt>
      <trkpt lat="43.80662" lon="2.33264">
        <ele>464</ele>
        <time>2019-07-14T07:07:44.946Z</time>
      </trkpt>
      <trkpt lat="43.80657" lon="2.33261">
        <ele>474.4</ele>
        <time>2019-07-14T07:07:47.369Z</time>
      </trkpt>
      <trkpt lat="43.80648" lon="2.33249">
        <ele>473.6</ele>
        <time>2019-07-14T07:07:52.924Z</time>
      </trkpt>
      <trkpt lat="43.80638" lon="2.33237">
        <ele>466</ele>
        <time>2019-07-14T07:07:58.808Z</time>
      </trkpt>
      <trkpt lat="43.80632" lon="2.33234">
        <ele>473.3</ele>
        <time>2019-07-14T07:08:01.645Z</time>
      </trkpt>
      <trkpt lat="43.80595" lon="2.33226">
        <ele>469</ele>
        <time>2019-07-14T07:08:18.301Z</time>
      </trkpt>
      <trkpt lat="43.80568" lon="2.33225">
        <ele>469</ele>
        <time>2019-07-14T07:08:30.314Z</time>
      </trkpt>
      <trkpt lat="43.80535" lon="2.33225">
        <ele>468</ele>
        <time>2019-07-14T07:08:44.992Z</time>
      </trkpt>
      <trkpt lat="43.80507" lon="2.33224">
        <ele>466</ele>
        <time>2019-07-14T07:08:57.450Z</time>
      </trkpt>
      <trkpt lat="43.8047" lon="2.33222">
        <ele>465</ele>
        <time>2019-07-14T07:09:13.919Z</time>
      </trkpt>
      <trkpt lat="43.80434" lon="2.33216">
        <ele>465</ele>
        <time>2019-07-14T07:09:30.046Z</time>
      </trkpt>
      <trkpt lat="43.80408" lon="2.33214">
        <ele>467</ele>
        <time>2019-07-14T07:09:41.628Z</time>
      </trkpt>
      <trkpt lat="43.80381" lon="2.33211">
        <ele>467</ele>
        <time>2019-07-14T07:09:53.676Z</time>
      </trkpt>
      <trkpt lat="43.80346" lon="2.33207">
        <ele>463</ele>
        <time>2019-07-14T07:10:09.296Z</time>
      </trkpt>
      <trkpt lat="43.80315" lon="2.33192">
        <ele>461</ele>
        <time>2019-07-14T07:10:23.901Z</time>
      </trkpt>
      <trkpt lat="43.80306" lon="2.33185">
        <ele>472.9</ele>
        <time>2019-07-14T07:10:28.492Z</time>
      </trkpt>
      <trkpt lat="43.80298" lon="2.33173">
        <ele>461</ele>
        <time>2019-07-14T07:10:33.736Z</time>
      </trkpt>
      <trkpt lat="43.80282" lon="2.33138">
        <ele>461</ele>
        <time>2019-07-14T07:10:47.035Z</time>
      </trkpt>
      <trkpt lat="43.80273" lon="2.33115">
        <ele>471.3</ele>
        <time>2019-07-14T07:10:55.434Z</time>
      </trkpt>
      <trkpt lat="43.80263" lon="2.33104">
        <ele>462</ele>
        <time>2019-07-14T07:11:01.113Z</time>
      </trkpt>
      <trkpt lat="43.80253" lon="2.33095">
        <ele>471.6</ele>
        <time>2019-07-14T07:11:06.417Z</time>
      </trkpt>
      <trkpt lat="43.80249" lon="2.33098">
        <ele>472.4</ele>
        <time>2019-07-14T07:11:08.440Z</time>
      </trkpt>
      <trkpt lat="43.80194" lon="2.33238">
        <ele>464</ele>
        <time>2019-07-14T07:11:59.608Z</time>
      </trkpt>
      <trkpt lat="43.8019" lon="2.33236">
        <ele>475.3</ele>
        <time>2019-07-14T07:12:01.499Z</time>
      </trkpt>
      <trkpt lat="43.80176" lon="2.3322">
        <ele>466</ele>
        <time>2019-07-14T07:12:09.571Z</time>
      </trkpt>
      <trkpt lat="43.80172" lon="2.33221">
        <ele>475.3</ele>
        <time>2019-07-14T07:12:11.379Z</time>
      </trkpt>
      <trkpt lat="43.80166" lon="2.33253">
        <ele>466</ele>
        <time>2019-07-14T07:12:21.992Z</time>
      </trkpt>
      <trkpt lat="43.80156" lon="2.33296">
        <ele>467</ele>
        <time>2019-07-14T07:12:36.495Z</time>
      </trkpt>
      <trkpt lat="43.80148" lon="2.33333">
        <ele>467</ele>
        <time>2019-07-14T07:12:48.894Z</time>
      </trkpt>
      <trkpt lat="43.80138" lon="2.33382">
        <ele>468</ele>
        <time>2019-07-14T07:13:05.241Z</time>
      </trkpt>
      <trkpt lat="43.80126" lon="2.33436">
        <ele>468</ele>
        <time>2019-07-14T07:13:23.379Z</time>
      </trkpt>
      <trkpt lat="43.80099" lon="2.3344">
        <ele>469</ele>
        <time>2019-07-14T07:13:35.457Z</time>
      </trkpt>
      <trkpt lat="43.80067" lon="2.33445">
        <ele>467</ele>
        <time>2019-07-14T07:13:49.780Z</time>
      </trkpt>
      <trkpt lat="43.80034" lon="2.33451">
        <ele>465</ele>
        <time>2019-07-14T07:14:04.584Z</time>
      </trkpt>
      <trkpt lat="43.8" lon="2.33462">
        <ele>463</ele>
        <time>2019-07-14T07:14:20.113Z</time>
      </trkpt>
      <trkpt lat="43.7997" lon="2.33473">
        <ele>462</ele>
        <time>2019-07-14T07:14:33.916Z</time>
      </trkpt>
      <trkpt lat="43.79948" lon="2.33482">
        <ele>460</ele>
        <time>2019-07-14T07:14:44.119Z</time>
      </trkpt>
      <trkpt lat="43.79923" lon="2.3349">
        <ele>458</ele>
        <time>2019-07-14T07:14:55.531Z</time>
      </trkpt>
      <trkpt lat="43.79893" lon="2.335">
        <ele>455</ele>
        <time>2019-07-14T07:15:09.255Z</time>
      </trkpt>
      <trkpt lat="43.79869" lon="2.33507">
        <ele>455</ele>
        <time>2019-07-14T07:15:20.164Z</time>
      </trkpt>
      <trkpt lat="43.79843" lon="2.33515">
        <ele>448</ele>
        <time>2019-07-14T07:15:32.010Z</time>
      </trkpt>
      <trkpt lat="43.79814" lon="2.33519">
        <ele>443</ele>
        <time>2019-07-14T07:15:44.972Z</time>
      </trkpt>
      <trkpt lat="43.79798" lon="2.33527">
        <ele>438.3</ele>
        <time>2019-07-14T07:15:52.538Z</time>
      </trkpt>
      <trkpt lat="43.79776" lon="2.33536">
        <ele>439</ele>
        <time>2019-07-14T07:16:02.741Z</time>
      </trkpt>
      <trkpt lat="43.79734" lon="2.33543">
        <ele>434</ele>
        <time>2019-07-14T07:16:21.556Z</time>
      </trkpt>
      <trkpt lat="43.79695" lon="2.33553">
        <ele>430</ele>
        <time>2019-07-14T07:16:39.197Z</time>
      </trkpt>
      <trkpt lat="43.79655" lon="2.33562">
        <ele>428</ele>
        <time>2019-07-14T07:16:57.221Z</time>
      </trkpt>
      <trkpt lat="43.79613" lon="2.33573">
        <ele>425</ele>
        <time>2019-07-14T07:17:16.233Z</time>
      </trkpt>
      <trkpt lat="43.7959" lon="2.33575">
        <ele>422</ele>
        <time>2019-07-14T07:17:26.483Z</time>
      </trkpt>
      <trkpt lat="43.79559" lon="2.33575">
        <ele>421</ele>
        <time>2019-07-14T07:17:40.271Z</time>
      </trkpt>
      <trkpt lat="43.79524" lon="2.33576">
        <ele>416</ele>
        <time>2019-07-14T07:17:55.842Z</time>
      </trkpt>
      <trkpt lat="43.7951" lon="2.33575">
        <ele>413.1</ele>
        <time>2019-07-14T07:18:02.077Z</time>
      </trkpt>
      <trkpt lat="43.79507" lon="2.33577">
        <ele>412.8</ele>
        <time>2019-07-14T07:18:03.558Z</time>
      </trkpt>
      <trkpt lat="43.79502" lon="2.33582">
        <ele>409</ele>
        <time>2019-07-14T07:18:06.301Z</time>
      </trkpt>
      <trkpt lat="43.79492" lon="2.33588">
        <ele>406.4</ele>
        <time>2019-07-14T07:18:11.148Z</time>
      </trkpt>
      <trkpt lat="43.79481" lon="2.3359">
        <ele>405</ele>
        <time>2019-07-14T07:18:16.083Z</time>
      </trkpt>
      <trkpt lat="43.79464" lon="2.33586">
        <ele>398.2</ele>
        <time>2019-07-14T07:18:23.753Z</time>
      </trkpt>
      <trkpt lat="43.79449" lon="2.33584">
        <ele>395</ele>
        <time>2019-07-14T07:18:30.456Z</time>
      </trkpt>
      <trkpt lat="43.79437" lon="2.33584">
        <ele>394.7</ele>
        <time>2019-07-14T07:18:35.793Z</time>
      </trkpt>
      <trkpt lat="43.79422" lon="2.33587">
        <ele>391</ele>
        <time>2019-07-14T07:18:42.534Z</time>
      </trkpt>
      <trkpt lat="43.79389" lon="2.33581">
        <ele>389</ele>
        <time>2019-07-14T07:18:57.338Z</time>
      </trkpt>
      <trkpt lat="43.79356" lon="2.33576">
        <ele>384</ele>
        <time>2019-07-14T07:19:12.103Z</time>
      </trkpt>
      <trkpt lat="43.79317" lon="2.33569">
        <ele>373</ele>
        <time>2019-07-14T07:19:29.594Z</time>
      </trkpt>
      <trkpt lat="43.79289" lon="2.33561">
        <ele>371</ele>
        <time>2019-07-14T07:19:42.310Z</time>
      </trkpt>
      <trkpt lat="43.7928" lon="2.33541">
        <ele>375.1</ele>
        <time>2019-07-14T07:19:49.877Z</time>
      </trkpt>
      <trkpt lat="43.79257" lon="2.33531">
        <ele>369</ele>
        <time>2019-07-14T07:20:00.599Z</time>
      </trkpt>
      <trkpt lat="43.79245" lon="2.33516">
        <ele>364.3</ele>
        <time>2019-07-14T07:20:07.788Z</time>
      </trkpt>
      <trkpt lat="43.7924" lon="2.33486">
        <ele>363</ele>
        <time>2019-07-14T07:20:17.673Z</time>
      </trkpt>
      <trkpt lat="43.7925" lon="2.33452">
        <ele>360</ele>
        <time>2019-07-14T07:20:29.461Z</time>
      </trkpt>
      <trkpt lat="43.79274" lon="2.33415">
        <ele>360</ele>
        <time>2019-07-14T07:20:45.432Z</time>
      </trkpt>
      <trkpt lat="43.79297" lon="2.33398">
        <ele>360</ele>
        <time>2019-07-14T07:20:57.027Z</time>
      </trkpt>
      <trkpt lat="43.79315" lon="2.33389">
        <ele>363.5</ele>
        <time>2019-07-14T07:21:05.539Z</time>
      </trkpt>
      <trkpt lat="43.79342" lon="2.33384">
        <ele>360</ele>
        <time>2019-07-14T07:21:17.655Z</time>
      </trkpt>
      <trkpt lat="43.79381" lon="2.33383">
        <ele>361</ele>
        <time>2019-07-14T07:21:35.004Z</time>
      </trkpt>
      <trkpt lat="43.79408" lon="2.33384">
        <ele>361</ele>
        <time>2019-07-14T07:21:47.017Z</time>
      </trkpt>
      <trkpt lat="43.79441" lon="2.33386">
        <ele>365</ele>
        <time>2019-07-14T07:22:01.709Z</time>
      </trkpt>
      <trkpt lat="43.79459" lon="2.33386">
        <ele>381.6</ele>
        <time>2019-07-14T07:22:09.715Z</time>
      </trkpt>
      <trkpt lat="43.79464" lon="2.33378">
        <ele>367</ele>
        <time>2019-07-14T07:22:13.112Z</time>
      </trkpt>
      <trkpt lat="43.79464" lon="2.3337">
        <ele>382.3</ele>
        <time>2019-07-14T07:22:15.680Z</time>
      </trkpt>
      <trkpt lat="43.79459" lon="2.33364">
        <ele>382</ele>
        <time>2019-07-14T07:22:18.622Z</time>
      </trkpt>
      <trkpt lat="43.7945" lon="2.3336">
        <ele>365</ele>
        <time>2019-07-14T07:22:22.826Z</time>
      </trkpt>
      <trkpt lat="43.79425" lon="2.33355">
        <ele>366</ele>
        <time>2019-07-14T07:22:34.061Z</time>
      </trkpt>
      <trkpt lat="43.79399" lon="2.3335">
        <ele>367</ele>
        <time>2019-07-14T07:22:45.736Z</time>
      </trkpt>
      <trkpt lat="43.79378" lon="2.33342">
        <ele>369</ele>
        <time>2019-07-14T07:22:55.423Z</time>
      </trkpt>
      <trkpt lat="43.79354" lon="2.33325">
        <ele>369</ele>
        <time>2019-07-14T07:23:07.412Z</time>
      </trkpt>
      <trkpt lat="43.79335" lon="2.3332">
        <ele>374.9</ele>
        <time>2019-07-14T07:23:16.014Z</time>
      </trkpt>
      <trkpt lat="43.79263" lon="2.33309">
        <ele>369</ele>
        <time>2019-07-14T07:23:48.232Z</time>
      </trkpt>
      <trkpt lat="43.79235" lon="2.33316">
        <ele>365</ele>
        <time>2019-07-14T07:24:00.887Z</time>
      </trkpt>
      <trkpt lat="43.79226" lon="2.33331">
        <ele>361.3</ele>
        <time>2019-07-14T07:24:07.149Z</time>
      </trkpt>
      <trkpt lat="43.79212" lon="2.33347">
        <ele>362</ele>
        <time>2019-07-14T07:24:15.221Z</time>
      </trkpt>
      <trkpt lat="43.79185" lon="2.33352">
        <ele>350</ele>
        <time>2019-07-14T07:24:27.337Z</time>
      </trkpt>
      <trkpt lat="43.7915" lon="2.33358">
        <ele>334</ele>
        <time>2019-07-14T07:24:43.023Z</time>
      </trkpt>
      <trkpt lat="43.79125" lon="2.33365">
        <ele>323</ele>
        <time>2019-07-14T07:24:54.367Z</time>
      </trkpt>
      <trkpt lat="43.79097" lon="2.33374">
        <ele>311</ele>
        <time>2019-07-14T07:25:07.152Z</time>
      </trkpt>
      <trkpt lat="43.79063" lon="2.33402">
        <ele>294</ele>
        <time>2019-07-14T07:25:24.745Z</time>
      </trkpt>
      <trkpt lat="43.79037" lon="2.33404">
        <ele>290</ele>
        <time>2019-07-14T07:25:36.327Z</time>
      </trkpt>
      <trkpt lat="43.79038" lon="2.33391">
        <ele>312.1</ele>
        <time>2019-07-14T07:25:40.525Z</time>
      </trkpt>
      <trkpt lat="43.79041" lon="2.33365">
        <ele>289</ele>
        <time>2019-07-14T07:25:48.979Z</time>
      </trkpt>
      <trkpt lat="43.79042" lon="2.33324">
        <ele>289</ele>
        <time>2019-07-14T07:26:02.151Z</time>
      </trkpt>
      <trkpt lat="43.7904" lon="2.33291">
        <ele>291</ele>
        <time>2019-07-14T07:26:12.784Z</time>
      </trkpt>
      <trkpt lat="43.79036" lon="2.33261">
        <ele>293</ele>
        <time>2019-07-14T07:26:22.579Z</time>
      </trkpt>
      <trkpt lat="43.79027" lon="2.3323">
        <ele>294</ele>
        <time>2019-07-14T07:26:33.307Z</time>
      </trkpt>
      <trkpt lat="43.79018" lon="2.33217">
        <ele>317.7</ele>
        <time>2019-07-14T07:26:39.090Z</time>
      </trkpt>
      <trkpt lat="43.79003" lon="2.33207">
        <ele>287</ele>
        <time>2019-07-14T07:26:46.494Z</time>
      </trkpt>
      <trkpt lat="43.78977" lon="2.33217">
        <ele>280</ele>
        <time>2019-07-14T07:26:58.496Z</time>
      </trkpt>
      <trkpt lat="43.78964" lon="2.33198">
        <ele>304.6</ele>
        <time>2019-07-14T07:27:06.901Z</time>
      </trkpt>
      <trkpt lat="43.78961" lon="2.33192">
        <ele>280</ele>
        <time>2019-07-14T07:27:09.244Z</time>
      </trkpt>
      <trkpt lat="43.78939" lon="2.33169">
        <ele>277</ele>
        <time>2019-07-14T07:27:21.503Z</time>
      </trkpt>
      <trkpt lat="43.78926" lon="2.33189">
        <ele>277</ele>
        <time>2019-07-14T07:27:30.144Z</time>
      </trkpt>
      <trkpt lat="43.78907" lon="2.33181">
        <ele>275</ele>
        <time>2019-07-14T07:27:38.977Z</time>
      </trkpt>
      <trkpt lat="43.78887" lon="2.33179">
        <ele>275</ele>
        <time>2019-07-14T07:27:47.896Z</time>
      </trkpt>
      <trkpt lat="43.78876" lon="2.3318">
        <ele>309.5</ele>
        <time>2019-07-14T07:27:52.799Z</time>
      </trkpt>
      <trkpt lat="43.78871" lon="2.33166">
        <ele>283</ele>
        <time>2019-07-14T07:27:57.814Z</time>
      </trkpt>
      <trkpt lat="43.78865" lon="2.33158">
        <ele>306.4</ele>
        <time>2019-07-14T07:28:01.518Z</time>
      </trkpt>
      <trkpt lat="43.78812" lon="2.33138">
        <ele>294</ele>
        <time>2019-07-14T07:28:25.950Z</time>
      </trkpt>
      <trkpt lat="43.78779" lon="2.33133">
        <ele>297</ele>
        <time>2019-07-14T07:28:40.715Z</time>
      </trkpt>
      <trkpt lat="43.7879" lon="2.33146">
        <ele>321</ele>
        <time>2019-07-14T07:28:47.146Z</time>
      </trkpt>
      <trkpt lat="43.78799" lon="2.33154">
        <ele>297</ele>
        <time>2019-07-14T07:28:51.902Z</time>
      </trkpt>
      <trkpt lat="43.78803" lon="2.33165">
        <ele>319.9</ele>
        <time>2019-07-14T07:28:55.857Z</time>
      </trkpt>
      <trkpt lat="43.78802" lon="2.33175">
        <ele>328.3</ele>
        <time>2019-07-14T07:28:59.099Z</time>
      </trkpt>
      <trkpt lat="43.78794" lon="2.33183">
        <ele>312</ele>
        <time>2019-07-14T07:29:03.488Z</time>
      </trkpt>
      <trkpt lat="43.78776" lon="2.33197">
        <ele>321</ele>
        <time>2019-07-14T07:29:12.670Z</time>
      </trkpt>
      <trkpt lat="43.78767" lon="2.3321">
        <ele>335.6</ele>
        <time>2019-07-14T07:29:18.453Z</time>
      </trkpt>
      <trkpt lat="43.78745" lon="2.33258">
        <ele>340</ele>
        <time>2019-07-14T07:29:36.709Z</time>
      </trkpt>
      <trkpt lat="43.78735" lon="2.33283">
        <ele>345</ele>
        <time>2019-07-14T07:29:45.886Z</time>
      </trkpt>
      <trkpt lat="43.78725" lon="2.33313">
        <ele>347</ele>
        <time>2019-07-14T07:29:56.496Z</time>
      </trkpt>
      <trkpt lat="43.78722" lon="2.33333">
        <ele>362.6</ele>
        <time>2019-07-14T07:30:03.055Z</time>
      </trkpt>
      <trkpt lat="43.7872" lon="2.33354">
        <ele>350</ele>
        <time>2019-07-14T07:30:09.856Z</time>
      </trkpt>
      <trkpt lat="43.78716" lon="2.33376">
        <ele>365.2</ele>
        <time>2019-07-14T07:30:17.141Z</time>
      </trkpt>
      <trkpt lat="43.78711" lon="2.33395">
        <ele>350</ele>
        <time>2019-07-14T07:30:23.634Z</time>
      </trkpt>
      <trkpt lat="43.78696" lon="2.3343">
        <ele>362</ele>
        <time>2019-07-14T07:30:36.703Z</time>
      </trkpt>
      <trkpt lat="43.78692" lon="2.33443">
        <ele>370</ele>
        <time>2019-07-14T07:30:41.241Z</time>
      </trkpt>
      <trkpt lat="43.78687" lon="2.33455">
        <ele>363</ele>
        <time>2019-07-14T07:30:45.690Z</time>
      </trkpt>
      <trkpt lat="43.78695" lon="2.33458">
        <ele>369.8</ele>
        <time>2019-07-14T07:30:49.376Z</time>
      </trkpt>
      <trkpt lat="43.78708" lon="2.33459">
        <ele>364</ele>
        <time>2019-07-14T07:30:55.167Z</time>
      </trkpt>
      <trkpt lat="43.78723" lon="2.33459">
        <ele>368.2</ele>
        <time>2019-07-14T07:31:01.839Z</time>
      </trkpt>
      <trkpt lat="43.78713" lon="2.33472">
        <ele>367</ele>
        <time>2019-07-14T07:31:07.939Z</time>
      </trkpt>
      <trkpt lat="43.787" lon="2.33483">
        <ele>370.1</ele>
        <time>2019-07-14T07:31:14.715Z</time>
      </trkpt>
      <trkpt lat="43.78688" lon="2.33496">
        <ele>370</ele>
        <time>2019-07-14T07:31:21.491Z</time>
      </trkpt>
      <trkpt lat="43.78673" lon="2.3351">
        <ele>375.4</ele>
        <time>2019-07-14T07:31:29.536Z</time>
      </trkpt>
      <trkpt lat="43.78667" lon="2.3354">
        <ele>368</ele>
        <time>2019-07-14T07:31:39.532Z</time>
      </trkpt>
      <trkpt lat="43.78682" lon="2.33527">
        <ele>378.8</ele>
        <time>2019-07-14T07:31:47.402Z</time>
      </trkpt>
      <trkpt lat="43.78698" lon="2.3352">
        <ele>368</ele>
        <time>2019-07-14T07:31:54.865Z</time>
      </trkpt>
      <trkpt lat="43.78715" lon="2.33515">
        <ele>378.6</ele>
        <time>2019-07-14T07:32:02.595Z</time>
      </trkpt>
      <trkpt lat="43.78732" lon="2.33512">
        <ele>369</ele>
        <time>2019-07-14T07:32:10.217Z</time>
      </trkpt>
      <trkpt lat="43.78743" lon="2.33509">
        <ele>375.5</ele>
        <time>2019-07-14T07:32:15.204Z</time>
      </trkpt>
      <trkpt lat="43.78759" lon="2.3351">
        <ele>364</ele>
        <time>2019-07-14T07:32:22.328Z</time>
      </trkpt>
      <trkpt lat="43.78784" lon="2.33487">
        <ele>363</ele>
        <time>2019-07-14T07:32:35.677Z</time>
      </trkpt>
      <trkpt lat="43.78805" lon="2.33468">
        <ele>363</ele>
        <time>2019-07-14T07:32:46.833Z</time>
      </trkpt>
      <trkpt lat="43.78826" lon="2.33449">
        <ele>361</ele>
        <time>2019-07-14T07:32:57.989Z</time>
      </trkpt>
      <trkpt lat="43.78839" lon="2.33439">
        <ele>357.5</ele>
        <time>2019-07-14T07:33:04.603Z</time>
      </trkpt>
      <trkpt lat="43.78857" lon="2.33429">
        <ele>347</ele>
        <time>2019-07-14T07:33:13.229Z</time>
      </trkpt>
      <trkpt lat="43.78871" lon="2.33425">
        <ele>356.3</ele>
        <time>2019-07-14T07:33:19.587Z</time>
      </trkpt>
      <trkpt lat="43.78885" lon="2.33419">
        <ele>343</ele>
        <time>2019-07-14T07:33:26.105Z</time>
      </trkpt>
      <trkpt lat="43.78896" lon="2.33421">
        <ele>353.5</ele>
        <time>2019-07-14T07:33:31.040Z</time>
      </trkpt>
      <trkpt lat="43.78909" lon="2.33422">
        <ele>343</ele>
        <time>2019-07-14T07:33:36.831Z</time>
      </trkpt>
      <trkpt lat="43.78915" lon="2.33429">
        <ele>351.7</ele>
        <time>2019-07-14T07:33:40.320Z</time>
      </trkpt>
      <trkpt lat="43.78921" lon="2.33447">
        <ele>344</ele>
        <time>2019-07-14T07:33:46.686Z</time>
      </trkpt>
      <trkpt lat="43.7893" lon="2.33477">
        <ele>347</ele>
        <time>2019-07-14T07:33:57.117Z</time>
      </trkpt>
      <trkpt lat="43.78937" lon="2.33535">
        <ele>345</ele>
        <time>2019-07-14T07:34:15.998Z</time>
      </trkpt>
      <trkpt lat="43.78942" lon="2.33565">
        <ele>348</ele>
        <time>2019-07-14T07:34:25.884Z</time>
      </trkpt>
      <trkpt lat="43.78946" lon="2.33593">
        <ele>351</ele>
        <time>2019-07-14T07:34:35.049Z</time>
      </trkpt>
      <trkpt lat="43.78947" lon="2.33619">
        <ele>364.4</ele>
        <time>2019-07-14T07:34:43.409Z</time>
      </trkpt>
      <trkpt lat="43.78943" lon="2.3365">
        <ele>365</ele>
        <time>2019-07-14T07:34:53.520Z</time>
      </trkpt>
      <trkpt lat="43.78949" lon="2.33678">
        <ele>370</ele>
        <time>2019-07-14T07:35:02.898Z</time>
      </trkpt>
      <trkpt lat="43.78953" lon="2.33707">
        <ele>372</ele>
        <time>2019-07-14T07:35:12.378Z</time>
      </trkpt>
      <trkpt lat="43.78955" lon="2.33738">
        <ele>372</ele>
        <time>2019-07-14T07:35:22.371Z</time>
      </trkpt>
      <trkpt lat="43.78956" lon="2.33775">
        <ele>372</ele>
        <time>2019-07-14T07:35:34.259Z</time>
      </trkpt>
      <trkpt lat="43.78959" lon="2.33807">
        <ele>368</ele>
        <time>2019-07-14T07:35:44.620Z</time>
      </trkpt>
      <trkpt lat="43.78963" lon="2.33842">
        <ele>368</ele>
        <time>2019-07-14T07:35:55.998Z</time>
      </trkpt>
      <trkpt lat="43.78964" lon="2.3387">
        <ele>369</ele>
        <time>2019-07-14T07:36:04.999Z</time>
      </trkpt>
      <trkpt lat="43.78961" lon="2.33915">
        <ele>376</ele>
        <time>2019-07-14T07:36:19.509Z</time>
      </trkpt>
      <trkpt lat="43.78957" lon="2.33948">
        <ele>395</ele>
        <time>2019-07-14T07:36:30.253Z</time>
      </trkpt>
      <trkpt lat="43.78954" lon="2.33967">
        <ele>391.8</ele>
        <time>2019-07-14T07:36:36.498Z</time>
      </trkpt>
      <trkpt lat="43.78952" lon="2.33988">
        <ele>395</ele>
        <time>2019-07-14T07:36:43.299Z</time>
      </trkpt>
      <trkpt lat="43.78948" lon="2.34008">
        <ele>393.1</ele>
        <time>2019-07-14T07:36:49.963Z</time>
      </trkpt>
      <trkpt lat="43.78943" lon="2.34045">
        <ele>389</ele>
        <time>2019-07-14T07:37:02.049Z</time>
      </trkpt>
      <trkpt lat="43.78951" lon="2.34088">
        <ele>380</ele>
        <time>2019-07-14T07:37:16.307Z</time>
      </trkpt>
      <trkpt lat="43.78956" lon="2.34124">
        <ele>380</ele>
        <time>2019-07-14T07:37:28.078Z</time>
      </trkpt>
      <trkpt lat="43.78955" lon="2.34146">
        <ele>388.6</ele>
        <time>2019-07-14T07:37:35.156Z</time>
      </trkpt>
      <trkpt lat="43.78958" lon="2.34156">
        <ele>378</ele>
        <time>2019-07-14T07:37:38.633Z</time>
      </trkpt>
      <trkpt lat="43.78976" lon="2.34182">
        <ele>380</ele>
        <time>2019-07-14T07:37:50.200Z</time>
      </trkpt>
      <trkpt lat="43.7898" lon="2.34191">
        <ele>387.8</ele>
        <time>2019-07-14T07:37:53.593Z</time>
      </trkpt>
      <trkpt lat="43.78986" lon="2.34199">
        <ele>388.3</ele>
        <time>2019-07-14T07:37:57.297Z</time>
      </trkpt>
      <trkpt lat="43.78993" lon="2.34211">
        <ele>382</ele>
        <time>2019-07-14T07:38:02.251Z</time>
      </trkpt>
      <trkpt lat="43.79006" lon="2.34217">
        <ele>387.7</ele>
        <time>2019-07-14T07:38:08.346Z</time>
      </trkpt>
      <trkpt lat="43.79022" lon="2.34216">
        <ele>384</ele>
        <time>2019-07-14T07:38:15.470Z</time>
      </trkpt>
      <trkpt lat="43.79046" lon="2.34221">
        <ele>384</ele>
        <time>2019-07-14T07:38:26.265Z</time>
      </trkpt>
      <trkpt lat="43.7905" lon="2.34224">
        <ele>388.6</ele>
        <time>2019-07-14T07:38:28.288Z</time>
      </trkpt>
      <trkpt lat="43.79056" lon="2.34243">
        <ele>388</ele>
        <time>2019-07-14T07:38:34.947Z</time>
      </trkpt>
      <trkpt lat="43.79065" lon="2.34255">
        <ele>403.3</ele>
        <time>2019-07-14T07:38:40.503Z</time>
      </trkpt>
      <trkpt lat="43.79074" lon="2.3427">
        <ele>392</ele>
        <time>2019-07-14T07:38:46.766Z</time>
      </trkpt>
      <trkpt lat="43.79084" lon="2.34271">
        <ele>406.5</ele>
        <time>2019-07-14T07:38:51.225Z</time>
      </trkpt>
      <trkpt lat="43.79103" lon="2.34278">
        <ele>392</ele>
        <time>2019-07-14T07:38:59.970Z</time>
      </trkpt>
      <trkpt lat="43.79119" lon="2.34283">
        <ele>410.2</ele>
        <time>2019-07-14T07:39:07.265Z</time>
      </trkpt>
      <trkpt lat="43.79135" lon="2.34283">
        <ele>395</ele>
        <time>2019-07-14T07:39:14.381Z</time>
      </trkpt>
      <trkpt lat="43.79145" lon="2.34282">
        <ele>410.1</ele>
        <time>2019-07-14T07:39:18.840Z</time>
      </trkpt>
      <trkpt lat="43.79155" lon="2.34273">
        <ele>395</ele>
        <time>2019-07-14T07:39:24.144Z</time>
      </trkpt>
      <trkpt lat="43.7916" lon="2.3427">
        <ele>407.3</ele>
        <time>2019-07-14T07:39:26.568Z</time>
      </trkpt>
      <trkpt lat="43.79176" lon="2.34266">
        <ele>388</ele>
        <time>2019-07-14T07:39:33.799Z</time>
      </trkpt>
      <trkpt lat="43.79186" lon="2.34267">
        <ele>406.3</ele>
        <time>2019-07-14T07:39:38.258Z</time>
      </trkpt>
      <trkpt lat="43.79197" lon="2.34267">
        <ele>387</ele>
        <time>2019-07-14T07:39:43.151Z</time>
      </trkpt>
      <trkpt lat="43.79221" lon="2.34264">
        <ele>384</ele>
        <time>2019-07-14T07:39:53.869Z</time>
      </trkpt>
      <trkpt lat="43.79226" lon="2.34264">
        <ele>404.9</ele>
        <time>2019-07-14T07:39:56.093Z</time>
      </trkpt>
      <trkpt lat="43.79239" lon="2.34267">
        <ele>403.8</ele>
        <time>2019-07-14T07:40:01.955Z</time>
      </trkpt>
      <trkpt lat="43.79246" lon="2.34266">
        <ele>378</ele>
        <time>2019-07-14T07:40:05.085Z</time>
      </trkpt>
      <trkpt lat="43.7926" lon="2.34266">
        <ele>394.4</ele>
        <time>2019-07-14T07:40:11.312Z</time>
      </trkpt>
      <trkpt lat="43.79269" lon="2.34268">
        <ele>378</ele>
        <time>2019-07-14T07:40:15.366Z</time>
      </trkpt>
      <trkpt lat="43.79276" lon="2.34272">
        <ele>392.2</ele>
        <time>2019-07-14T07:40:18.734Z</time>
      </trkpt>
      <trkpt lat="43.79281" lon="2.34276">
        <ele>391.6</ele>
        <time>2019-07-14T07:40:21.302Z</time>
      </trkpt>
      <trkpt lat="43.79288" lon="2.34283">
        <ele>371</ele>
        <time>2019-07-14T07:40:25.142Z</time>
      </trkpt>
      <trkpt lat="43.79295" lon="2.34286">
        <ele>390</ele>
        <time>2019-07-14T07:40:28.401Z</time>
      </trkpt>
      <trkpt lat="43.79303" lon="2.34285">
        <ele>388.4</ele>
        <time>2019-07-14T07:40:31.974Z</time>
      </trkpt>
      <trkpt lat="43.79307" lon="2.34286">
        <ele>387.8</ele>
        <time>2019-07-14T07:40:33.782Z</time>
      </trkpt>
      <trkpt lat="43.79322" lon="2.34291">
        <ele>364</ele>
        <time>2019-07-14T07:40:40.644Z</time>
      </trkpt>
      <trkpt lat="43.7933" lon="2.34295">
        <ele>386.2</ele>
        <time>2019-07-14T07:40:44.427Z</time>
      </trkpt>
      <trkpt lat="43.79333" lon="2.34294">
        <ele>385.8</ele>
        <time>2019-07-14T07:40:45.799Z</time>
      </trkpt>
      <trkpt lat="43.79334" lon="2.34288">
        <ele>362.6</ele>
        <time>2019-07-14T07:40:47.776Z</time>
      </trkpt>
      <trkpt lat="43.79334" lon="2.34281">
        <ele>364</ele>
        <time>2019-07-14T07:40:50.023Z</time>
      </trkpt>
      <trkpt lat="43.79331" lon="2.3427">
        <ele>379.9</ele>
        <time>2019-07-14T07:40:53.798Z</time>
      </trkpt>
      <trkpt lat="43.79327" lon="2.34248">
        <ele>354</ele>
        <time>2019-07-14T07:41:01.082Z</time>
      </trkpt>
      <trkpt lat="43.79327" lon="2.34244">
        <ele>367.6</ele>
        <time>2019-07-14T07:41:02.366Z</time>
      </trkpt>
      <trkpt lat="43.7933" lon="2.34242">
        <ele>367.4</ele>
        <time>2019-07-14T07:41:03.847Z</time>
      </trkpt>
      <trkpt lat="43.79364" lon="2.34265">
        <ele>340</ele>
        <time>2019-07-14T07:41:20.676Z</time>
      </trkpt>
      <trkpt lat="43.79373" lon="2.3427">
        <ele>353.8</ele>
        <time>2019-07-14T07:41:24.989Z</time>
      </trkpt>
      <trkpt lat="43.79385" lon="2.34274">
        <ele>337</ele>
        <time>2019-07-14T07:41:30.479Z</time>
      </trkpt>
      <trkpt lat="43.79393" lon="2.34285">
        <ele>350.1</ele>
        <time>2019-07-14T07:41:35.492Z</time>
      </trkpt>
      <trkpt lat="43.79396" lon="2.34285">
        <ele>349.4</ele>
        <time>2019-07-14T07:41:36.826Z</time>
      </trkpt>
      <trkpt lat="43.79398" lon="2.34281">
        <ele>348.3</ele>
        <time>2019-07-14T07:41:38.388Z</time>
      </trkpt>
      <trkpt lat="43.79399" lon="2.3427">
        <ele>331</ele>
        <time>2019-07-14T07:41:41.948Z</time>
      </trkpt>
      <trkpt lat="43.79398" lon="2.34262">
        <ele>343.8</ele>
        <time>2019-07-14T07:41:44.555Z</time>
      </trkpt>
      <trkpt lat="43.79396" lon="2.34253">
        <ele>343.2</ele>
        <time>2019-07-14T07:41:47.578Z</time>
      </trkpt>
      <trkpt lat="43.79388" lon="2.34225">
        <ele>318</ele>
        <time>2019-07-14T07:41:57.246Z</time>
      </trkpt>
      <trkpt lat="43.79381" lon="2.34198">
        <ele>304</ele>
        <time>2019-07-14T07:42:06.457Z</time>
      </trkpt>
      <trkpt lat="43.79381" lon="2.3419">
        <ele>333.3</ele>
        <time>2019-07-14T07:42:09.025Z</time>
      </trkpt>
      <trkpt lat="43.7938" lon="2.34177">
        <ele>332.2</ele>
        <time>2019-07-14T07:42:13.222Z</time>
      </trkpt>
      <trkpt lat="43.79381" lon="2.34164">
        <ele>293</ele>
        <time>2019-07-14T07:42:17.419Z</time>
      </trkpt>
      <trkpt lat="43.79386" lon="2.34152">
        <ele>319.2</ele>
        <time>2019-07-14T07:42:21.867Z</time>
      </trkpt>
      <trkpt lat="43.79406" lon="2.34142">
        <ele>293</ele>
        <time>2019-07-14T07:42:31.324Z</time>
      </trkpt>
      <trkpt lat="43.7941" lon="2.34143">
        <ele>316.4</ele>
        <time>2019-07-14T07:42:33.132Z</time>
      </trkpt>
      <trkpt lat="43.79411" lon="2.34148">
        <ele>316.2</ele>
        <time>2019-07-14T07:42:34.798Z</time>
      </trkpt>
      <trkpt lat="43.79407" lon="2.3417">
        <ele>293</ele>
        <time>2019-07-14T07:42:42.082Z</time>
      </trkpt>
      <trkpt lat="43.79408" lon="2.3418">
        <ele>323.8</ele>
        <time>2019-07-14T07:42:45.323Z</time>
      </trkpt>
      <trkpt lat="43.79414" lon="2.34194">
        <ele>327.7</ele>
        <time>2019-07-14T07:42:50.550Z</time>
      </trkpt>
      <trkpt lat="43.7942" lon="2.34204">
        <ele>296</ele>
        <time>2019-07-14T07:42:54.725Z</time>
      </trkpt>
      <trkpt lat="43.79433" lon="2.34217">
        <ele>320.6</ele>
        <time>2019-07-14T07:43:01.856Z</time>
      </trkpt>
      <trkpt lat="43.79452" lon="2.34227">
        <ele>296</ele>
        <time>2019-07-14T07:43:10.896Z</time>
      </trkpt>
      <trkpt lat="43.79466" lon="2.34238">
        <ele>320</ele>
        <time>2019-07-14T07:43:18.055Z</time>
      </trkpt>
      <trkpt lat="43.79468" lon="2.34243">
        <ele>297</ele>
        <time>2019-07-14T07:43:19.890Z</time>
      </trkpt>
      <trkpt lat="43.79467" lon="2.34267">
        <ele>324.2</ele>
        <time>2019-07-14T07:43:27.608Z</time>
      </trkpt>
      <trkpt lat="43.79468" lon="2.34292">
        <ele>301</ele>
        <time>2019-07-14T07:43:35.647Z</time>
      </trkpt>
      <trkpt lat="43.79468" lon="2.34312">
        <ele>325.8</ele>
        <time>2019-07-14T07:43:42.068Z</time>
      </trkpt>
      <trkpt lat="43.79469" lon="2.34326">
        <ele>309</ele>
        <time>2019-07-14T07:43:46.585Z</time>
      </trkpt>
      <trkpt lat="43.79469" lon="2.34351">
        <ele>329.9</ele>
        <time>2019-07-14T07:43:54.611Z</time>
      </trkpt>
      <trkpt lat="43.79468" lon="2.34364">
        <ele>310</ele>
        <time>2019-07-14T07:43:58.808Z</time>
      </trkpt>
      <trkpt lat="43.79464" lon="2.34372">
        <ele>331.4</ele>
        <time>2019-07-14T07:44:01.932Z</time>
      </trkpt>
      <trkpt lat="43.79442" lon="2.34427">
        <ele>330</ele>
        <time>2019-07-14T07:44:22.120Z</time>
      </trkpt>
      <trkpt lat="43.79435" lon="2.3445">
        <ele>338</ele>
        <time>2019-07-14T07:44:30.134Z</time>
      </trkpt>
      <trkpt lat="43.79427" lon="2.3447">
        <ele>354</ele>
        <time>2019-07-14T07:44:37.475Z</time>
      </trkpt>
      <trkpt lat="43.79423" lon="2.34501">
        <ele>355</ele>
        <time>2019-07-14T07:44:47.585Z</time>
      </trkpt>
      <trkpt lat="43.79423" lon="2.3452">
        <ele>341.6</ele>
        <time>2019-07-14T07:44:53.685Z</time>
      </trkpt>
      <trkpt lat="43.79427" lon="2.34531">
        <ele>359</ele>
        <time>2019-07-14T07:44:57.639Z</time>
      </trkpt>
      <trkpt lat="43.7943" lon="2.34545">
        <ele>341.2</ele>
        <time>2019-07-14T07:45:02.328Z</time>
      </trkpt>
      <trkpt lat="43.79437" lon="2.34562">
        <ele>345</ele>
        <time>2019-07-14T07:45:08.612Z</time>
      </trkpt>
      <trkpt lat="43.79439" lon="2.34569">
        <ele>342</ele>
        <time>2019-07-14T07:45:11.029Z</time>
      </trkpt>
      <trkpt lat="43.7944" lon="2.34582">
        <ele>342.6</ele>
        <time>2019-07-14T07:45:15.226Z</time>
      </trkpt>
      <trkpt lat="43.79441" lon="2.34611">
        <ele>340</ele>
        <time>2019-07-14T07:45:24.547Z</time>
      </trkpt>
      <trkpt lat="43.79443" lon="2.34632">
        <ele>344.9</ele>
        <time>2019-07-14T07:45:31.348Z</time>
      </trkpt>
      <trkpt lat="43.79446" lon="2.34651">
        <ele>341</ele>
        <time>2019-07-14T07:45:37.592Z</time>
      </trkpt>
      <trkpt lat="43.79456" lon="2.34677">
        <ele>331</ele>
        <time>2019-07-14T07:45:47.050Z</time>
      </trkpt>
      <trkpt lat="43.79461" lon="2.34692">
        <ele>346</ele>
        <time>2019-07-14T07:45:52.354Z</time>
      </trkpt>
      <trkpt lat="43.79462" lon="2.34703">
        <ele>328</ele>
        <time>2019-07-14T07:45:55.913Z</time>
      </trkpt>
      <trkpt lat="43.79462" lon="2.34727">
        <ele>346.9</ele>
        <time>2019-07-14T07:46:03.618Z</time>
      </trkpt>
      <trkpt lat="43.79464" lon="2.34739">
        <ele>333</ele>
        <time>2019-07-14T07:46:07.572Z</time>
      </trkpt>
      <trkpt lat="43.79474" lon="2.34777">
        <ele>339</ele>
        <time>2019-07-14T07:46:20.557Z</time>
      </trkpt>
      <trkpt lat="43.79482" lon="2.34835">
        <ele>340</ele>
        <time>2019-07-14T07:46:39.515Z</time>
      </trkpt>
      <trkpt lat="43.79485" lon="2.34845">
        <ele>351.9</ele>
        <time>2019-07-14T07:46:42.992Z</time>
      </trkpt>
      <trkpt lat="43.79502" lon="2.34885">
        <ele>342</ele>
        <time>2019-07-14T07:46:57.895Z</time>
      </trkpt>
      <trkpt lat="43.79505" lon="2.34895">
        <ele>340.8</ele>
        <time>2019-07-14T07:47:01.372Z</time>
      </trkpt>
      <trkpt lat="43.79508" lon="2.34913">
        <ele>335</ele>
        <time>2019-07-14T07:47:07.303Z</time>
      </trkpt>
      <trkpt lat="43.79514" lon="2.34928">
        <ele>347.7</ele>
        <time>2019-07-14T07:47:12.809Z</time>
      </trkpt>
      <trkpt lat="43.79522" lon="2.34944">
        <ele>333</ele>
        <time>2019-07-14T07:47:19.058Z</time>
      </trkpt>
      <trkpt lat="43.7954" lon="2.3497">
        <ele>331</ele>
        <time>2019-07-14T07:47:30.624Z</time>
      </trkpt>
      <trkpt lat="43.79548" lon="2.34987">
        <ele>346.2</ele>
        <time>2019-07-14T07:47:37.139Z</time>
      </trkpt>
      <trkpt lat="43.79555" lon="2.35">
        <ele>329</ele>
        <time>2019-07-14T07:47:42.346Z</time>
      </trkpt>
      <trkpt lat="43.79565" lon="2.3501">
        <ele>353</ele>
        <time>2019-07-14T07:47:47.831Z</time>
      </trkpt>
      <trkpt lat="43.7958" lon="2.35021">
        <ele>328</ele>
        <time>2019-07-14T07:47:55.380Z</time>
      </trkpt>
      <trkpt lat="43.79599" lon="2.35034">
        <ele>328</ele>
        <time>2019-07-14T07:48:04.805Z</time>
      </trkpt>
      <trkpt lat="43.79611" lon="2.35041">
        <ele>343</ele>
        <time>2019-07-14T07:48:10.596Z</time>
      </trkpt>
      <trkpt lat="43.79617" lon="2.35048">
        <ele>328</ele>
        <time>2019-07-14T07:48:14.085Z</time>
      </trkpt>
      <trkpt lat="43.79623" lon="2.35058">
        <ele>343.5</ele>
        <time>2019-07-14T07:48:18.260Z</time>
      </trkpt>
      <trkpt lat="43.79626" lon="2.3507">
        <ele>343.9</ele>
        <time>2019-07-14T07:48:22.337Z</time>
      </trkpt>
      <trkpt lat="43.79633" lon="2.35082">
        <ele>335</ele>
        <time>2019-07-14T07:48:27.290Z</time>
      </trkpt>
      <trkpt lat="43.79639" lon="2.35094">
        <ele>353.7</ele>
        <time>2019-07-14T07:48:31.977Z</time>
      </trkpt>
      <trkpt lat="43.79649" lon="2.35104">
        <ele>332</ele>
        <time>2019-07-14T07:48:37.462Z</time>
      </trkpt>
      <trkpt lat="43.79681" lon="2.35123">
        <ele>330</ele>
        <time>2019-07-14T07:48:52.947Z</time>
      </trkpt>
      <trkpt lat="43.79699" lon="2.35132">
        <ele>344.1</ele>
        <time>2019-07-14T07:49:01.458Z</time>
      </trkpt>
      <trkpt lat="43.79735" lon="2.35126">
        <ele>324</ele>
        <time>2019-07-14T07:49:17.586Z</time>
      </trkpt>
      <trkpt lat="43.79745" lon="2.35125">
        <ele>339.1</ele>
        <time>2019-07-14T07:49:22.045Z</time>
      </trkpt>
      <trkpt lat="43.79756" lon="2.35128">
        <ele>319</ele>
        <time>2019-07-14T07:49:27.031Z</time>
      </trkpt>
      <trkpt lat="43.79765" lon="2.35132">
        <ele>333.2</ele>
        <time>2019-07-14T07:49:31.235Z</time>
      </trkpt>
      <trkpt lat="43.7978" lon="2.35141">
        <ele>319</ele>
        <time>2019-07-14T07:49:38.505Z</time>
      </trkpt>
      <trkpt lat="43.79786" lon="2.35143">
        <ele>333.4</ele>
        <time>2019-07-14T07:49:41.250Z</time>
      </trkpt>
      <trkpt lat="43.79792" lon="2.35139">
        <ele>333</ele>
        <time>2019-07-14T07:49:44.212Z</time>
      </trkpt>
      <trkpt lat="43.79796" lon="2.35129">
        <ele>317</ele>
        <time>2019-07-14T07:49:47.882Z</time>
      </trkpt>
      <trkpt lat="43.79799" lon="2.35119">
        <ele>331.5</ele>
        <time>2019-07-14T07:49:51.359Z</time>
      </trkpt>
      <trkpt lat="43.79804" lon="2.35114">
        <ele>331</ele>
        <time>2019-07-14T07:49:54.102Z</time>
      </trkpt>
      <trkpt lat="43.79807" lon="2.35108">
        <ele>330.5</ele>
        <time>2019-07-14T07:49:56.445Z</time>
      </trkpt>
      <trkpt lat="43.7981" lon="2.35105">
        <ele>319</ele>
        <time>2019-07-14T07:49:58.091Z</time>
      </trkpt>
      <trkpt lat="43.79825" lon="2.35101">
        <ele>329.2</ele>
        <time>2019-07-14T07:50:04.885Z</time>
      </trkpt>
      <trkpt lat="43.79862" lon="2.35109">
        <ele>322</ele>
        <time>2019-07-14T07:50:21.541Z</time>
      </trkpt>
      <trkpt lat="43.79878" lon="2.35111">
        <ele>335.4</ele>
        <time>2019-07-14T07:50:28.686Z</time>
      </trkpt>
      <trkpt lat="43.79888" lon="2.35109">
        <ele>324</ele>
        <time>2019-07-14T07:50:33.180Z</time>
      </trkpt>
      <trkpt lat="43.79917" lon="2.35098">
        <ele>326</ele>
        <time>2019-07-14T07:50:46.553Z</time>
      </trkpt>
      <trkpt lat="43.79945" lon="2.35089">
        <ele>331</ele>
        <time>2019-07-14T07:50:59.338Z</time>
      </trkpt>
      <trkpt lat="43.79953" lon="2.35083">
        <ele>338.6</ele>
        <time>2019-07-14T07:51:03.384Z</time>
      </trkpt>
      <trkpt lat="43.79957" lon="2.35079">
        <ele>339.1</ele>
        <time>2019-07-14T07:51:05.578Z</time>
      </trkpt>
      <trkpt lat="43.79962" lon="2.35078">
        <ele>339.9</ele>
        <time>2019-07-14T07:51:07.825Z</time>
      </trkpt>
      <trkpt lat="43.79965" lon="2.35073">
        <ele>331</ele>
        <time>2019-07-14T07:51:09.912Z</time>
      </trkpt>
      <trkpt lat="43.79971" lon="2.35039">
        <ele>331</ele>
        <time>2019-07-14T07:51:21.148Z</time>
      </trkpt>
      <trkpt lat="43.79983" lon="2.34982">
        <ele>321</ele>
        <time>2019-07-14T07:51:40.209Z</time>
      </trkpt>
      <trkpt lat="43.79984" lon="2.34959">
        <ele>332.4</ele>
        <time>2019-07-14T07:51:47.606Z</time>
      </trkpt>
      <trkpt lat="43.79988" lon="2.34939">
        <ele>318</ele>
        <time>2019-07-14T07:51:54.268Z</time>
      </trkpt>
      <trkpt lat="43.79993" lon="2.34918">
        <ele>333.4</ele>
        <time>2019-07-14T07:52:01.367Z</time>
      </trkpt>
      <trkpt lat="43.79994" lon="2.34909">
        <ele>317</ele>
        <time>2019-07-14T07:52:04.290Z</time>
      </trkpt>
      <trkpt lat="43.79993" lon="2.34884">
        <ele>335.2</ele>
        <time>2019-07-14T07:52:12.328Z</time>
      </trkpt>
      <trkpt lat="43.79998" lon="2.34873">
        <ele>317</ele>
        <time>2019-07-14T07:52:16.501Z</time>
      </trkpt>
      <trkpt lat="43.80013" lon="2.34848">
        <ele>320</ele>
        <time>2019-07-14T07:52:26.938Z</time>
      </trkpt>
      <trkpt lat="43.80028" lon="2.3482">
        <ele>321</ele>
        <time>2019-07-14T07:52:38.132Z</time>
      </trkpt>
      <trkpt lat="43.80035" lon="2.34792">
        <ele>321</ele>
        <time>2019-07-14T07:52:47.645Z</time>
      </trkpt>
      <trkpt lat="43.80042" lon="2.34761">
        <ele>321</ele>
        <time>2019-07-14T07:52:58.072Z</time>
      </trkpt>
      <trkpt lat="43.80043" lon="2.34752">
        <ele>340.6</ele>
        <time>2019-07-14T07:53:00.995Z</time>
      </trkpt>
      <trkpt lat="43.80043" lon="2.34729">
        <ele>321</ele>
        <time>2019-07-14T07:53:08.379Z</time>
      </trkpt>
      <trkpt lat="43.80045" lon="2.34699">
        <ele>322</ele>
        <time>2019-07-14T07:53:18.051Z</time>
      </trkpt>
      <trkpt lat="43.80052" lon="2.34671">
        <ele>325</ele>
        <time>2019-07-14T07:53:27.564Z</time>
      </trkpt>
      <trkpt lat="43.80061" lon="2.34647">
        <ele>327</ele>
        <time>2019-07-14T07:53:36.246Z</time>
      </trkpt>
      <trkpt lat="43.8007" lon="2.34628">
        <ele>344.3</ele>
        <time>2019-07-14T07:53:43.542Z</time>
      </trkpt>
      <trkpt lat="43.80081" lon="2.34614">
        <ele>331</ele>
        <time>2019-07-14T07:53:50.185Z</time>
      </trkpt>
      <trkpt lat="43.80096" lon="2.34601">
        <ele>339</ele>
        <time>2019-07-14T07:53:58.054Z</time>
      </trkpt>
      <trkpt lat="43.80113" lon="2.3459">
        <ele>334</ele>
        <time>2019-07-14T07:54:06.399Z</time>
      </trkpt>
      <trkpt lat="43.80123" lon="2.34582">
        <ele>341</ele>
        <time>2019-07-14T07:54:11.535Z</time>
      </trkpt>
      <trkpt lat="43.80152" lon="2.34553">
        <ele>335</ele>
        <time>2019-07-14T07:54:27.442Z</time>
      </trkpt>
      <trkpt lat="43.80159" lon="2.34551">
        <ele>340.6</ele>
        <time>2019-07-14T07:54:30.621Z</time>
      </trkpt>
      <trkpt lat="43.8017" lon="2.34552">
        <ele>338</ele>
        <time>2019-07-14T07:54:35.524Z</time>
      </trkpt>
      <trkpt lat="43.80207" lon="2.34585">
        <ele>332</ele>
        <time>2019-07-14T07:54:55.096Z</time>
      </trkpt>
      <trkpt lat="43.80215" lon="2.34598">
        <ele>336.4</ele>
        <time>2019-07-14T07:55:00.580Z</time>
      </trkpt>
      <trkpt lat="43.80218" lon="2.34606">
        <ele>336.6</ele>
        <time>2019-07-14T07:55:03.474Z</time>
      </trkpt>
      <trkpt lat="43.80221" lon="2.34632">
        <ele>332</ele>
        <time>2019-07-14T07:55:11.926Z</time>
      </trkpt>
      <trkpt lat="43.80227" lon="2.34676">
        <ele>332</ele>
        <time>2019-07-14T07:55:26.300Z</time>
      </trkpt>
      <trkpt lat="43.80224" lon="2.34701">
        <ele>343.2</ele>
        <time>2019-07-14T07:55:34.435Z</time>
      </trkpt>
      <trkpt lat="43.80215" lon="2.34727">
        <ele>335</ele>
        <time>2019-07-14T07:55:43.692Z</time>
      </trkpt>
      <trkpt lat="43.80211" lon="2.34735">
        <ele>345.5</ele>
        <time>2019-07-14T07:55:46.816Z</time>
      </trkpt>
      <trkpt lat="43.80205" lon="2.34736">
        <ele>346.3</ele>
        <time>2019-07-14T07:55:49.504Z</time>
      </trkpt>
      <trkpt lat="43.80194" lon="2.34734">
        <ele>341</ele>
        <time>2019-07-14T07:55:54.439Z</time>
      </trkpt>
      <trkpt lat="43.80182" lon="2.34727">
        <ele>348.6</ele>
        <time>2019-07-14T07:56:00.230Z</time>
      </trkpt>
      <trkpt lat="43.80171" lon="2.34723">
        <ele>353</ele>
        <time>2019-07-14T07:56:05.288Z</time>
      </trkpt>
      <trkpt lat="43.80163" lon="2.34722">
        <ele>350.2</ele>
        <time>2019-07-14T07:56:08.861Z</time>
      </trkpt>
      <trkpt lat="43.80159" lon="2.34725">
        <ele>350.4</ele>
        <time>2019-07-14T07:56:10.884Z</time>
      </trkpt>
      <trkpt lat="43.80156" lon="2.34734">
        <ele>356</ele>
        <time>2019-07-14T07:56:14.066Z</time>
      </trkpt>
      <trkpt lat="43.80152" lon="2.34739">
        <ele>351.7</ele>
        <time>2019-07-14T07:56:16.462Z</time>
      </trkpt>
      <trkpt lat="43.80137" lon="2.3475">
        <ele>354</ele>
        <time>2019-07-14T07:56:24.011Z</time>
      </trkpt>
      <trkpt lat="43.80131" lon="2.3477">
        <ele>354.1</ele>
        <time>2019-07-14T07:56:30.964Z</time>
      </trkpt>
      <trkpt lat="43.80129" lon="2.34788">
        <ele>357</ele>
        <time>2019-07-14T07:56:36.810Z</time>
      </trkpt>
      <trkpt lat="43.80128" lon="2.34808">
        <ele>355</ele>
        <time>2019-07-14T07:56:43.246Z</time>
      </trkpt>
      <trkpt lat="43.80126" lon="2.34823">
        <ele>360</ele>
        <time>2019-07-14T07:56:48.143Z</time>
      </trkpt>
      <trkpt lat="43.80122" lon="2.34843">
        <ele>359.2</ele>
        <time>2019-07-14T07:56:54.805Z</time>
      </trkpt>
      <trkpt lat="43.80117" lon="2.34883">
        <ele>360</ele>
        <time>2019-07-14T07:57:07.837Z</time>
      </trkpt>
      <trkpt lat="43.80117" lon="2.34908">
        <ele>361.3</ele>
        <time>2019-07-14T07:57:15.862Z</time>
      </trkpt>
      <trkpt lat="43.80118" lon="2.34935">
        <ele>360</ele>
        <time>2019-07-14T07:57:24.541Z</time>
      </trkpt>
      <trkpt lat="43.80118" lon="2.34977">
        <ele>363</ele>
        <time>2019-07-14T07:57:38.024Z</time>
      </trkpt>
      <trkpt lat="43.8012" lon="2.34982">
        <ele>369.4</ele>
        <time>2019-07-14T07:57:39.859Z</time>
      </trkpt>
      <trkpt lat="43.80124" lon="2.34985">
        <ele>369.9</ele>
        <time>2019-07-14T07:57:41.882Z</time>
      </trkpt>
      <trkpt lat="43.80141" lon="2.34983">
        <ele>364</ele>
        <time>2019-07-14T07:57:49.470Z</time>
      </trkpt>
      <trkpt lat="43.80161" lon="2.34986">
        <ele>365</ele>
        <time>2019-07-14T07:57:58.418Z</time>
      </trkpt>
      <trkpt lat="43.80181" lon="2.34991">
        <ele>363</ele>
        <time>2019-07-14T07:58:07.457Z</time>
      </trkpt>
      <trkpt lat="43.80207" lon="2.34996">
        <ele>361</ele>
        <time>2019-07-14T07:58:19.132Z</time>
      </trkpt>
      <trkpt lat="43.80234" lon="2.35006">
        <ele>361</ele>
        <time>2019-07-14T07:58:31.563Z</time>
      </trkpt>
      <trkpt lat="43.80269" lon="2.35019">
        <ele>361</ele>
        <time>2019-07-14T07:58:47.680Z</time>
      </trkpt>
      <trkpt lat="43.80285" lon="2.35028">
        <ele>386.9</ele>
        <time>2019-07-14T07:58:55.361Z</time>
      </trkpt>
      <trkpt lat="43.80294" lon="2.35037">
        <ele>369</ele>
        <time>2019-07-14T07:59:00.298Z</time>
      </trkpt>
      <trkpt lat="43.80321" lon="2.35074">
        <ele>392</ele>
        <time>2019-07-14T07:59:17.188Z</time>
      </trkpt>
      <trkpt lat="43.80332" lon="2.35091">
        <ele>398.7</ele>
        <time>2019-07-14T07:59:24.517Z</time>
      </trkpt>
      <trkpt lat="43.8037" lon="2.35129">
        <ele>399</ele>
        <time>2019-07-14T07:59:45.361Z</time>
      </trkpt>
      <trkpt lat="43.80391" lon="2.35151">
        <ele>401</ele>
        <time>2019-07-14T07:59:57.071Z</time>
      </trkpt>
      <trkpt lat="43.80402" lon="2.35164">
        <ele>400.4</ele>
        <time>2019-07-14T08:00:03.502Z</time>
      </trkpt>
      <trkpt lat="43.8044" lon="2.35214">
        <ele>406</ele>
        <time>2019-07-14T08:00:26.810Z</time>
      </trkpt>
      <trkpt lat="43.80454" lon="2.3523">
        <ele>405.1</ele>
        <time>2019-07-14T08:00:34.882Z</time>
      </trkpt>
      <trkpt lat="43.80479" lon="2.35254">
        <ele>409</ele>
        <time>2019-07-14T08:00:48.410Z</time>
      </trkpt>
      <trkpt lat="43.8049" lon="2.35274">
        <ele>413.3</ele>
        <time>2019-07-14T08:00:56.482Z</time>
      </trkpt>
      <trkpt lat="43.80479" lon="2.35291">
        <ele>414</ele>
        <time>2019-07-14T08:01:03.811Z</time>
      </trkpt>
      <trkpt lat="43.80438" lon="2.3532">
        <ele>416</ele>
        <time>2019-07-14T08:01:24.286Z</time>
      </trkpt>
      <trkpt lat="43.80417" lon="2.35336">
        <ele>415</ele>
        <time>2019-07-14T08:01:34.945Z</time>
      </trkpt>
      <trkpt lat="43.80395" lon="2.35353">
        <ele>414</ele>
        <time>2019-07-14T08:01:46.149Z</time>
      </trkpt>
      <trkpt lat="43.80396" lon="2.35389">
        <ele>412</ele>
        <time>2019-07-14T08:01:57.714Z</time>
      </trkpt>
      <trkpt lat="43.80409" lon="2.3542">
        <ele>411</ele>
        <time>2019-07-14T08:02:09.223Z</time>
      </trkpt>
      <trkpt lat="43.80423" lon="2.35455">
        <ele>413</ele>
        <time>2019-07-14T08:02:22.068Z</time>
      </trkpt>
      <trkpt lat="43.80437" lon="2.35492">
        <ele>415</ele>
        <time>2019-07-14T08:02:35.478Z</time>
      </trkpt>
      <trkpt lat="43.80452" lon="2.35547">
        <ele>417</ele>
        <time>2019-07-14T08:02:54.352Z</time>
      </trkpt>
      <trkpt lat="43.80456" lon="2.356">
        <ele>419</ele>
        <time>2019-07-14T08:03:11.458Z</time>
      </trkpt>
      <trkpt lat="43.80463" lon="2.35664">
        <ele>422</ele>
        <time>2019-07-14T08:03:32.237Z</time>
      </trkpt>
      <trkpt lat="43.8047" lon="2.35702">
        <ele>426</ele>
        <time>2019-07-14T08:03:44.826Z</time>
      </trkpt>
      <trkpt lat="43.80476" lon="2.3574">
        <ele>427</ele>
        <time>2019-07-14T08:03:57.312Z</time>
      </trkpt>
      <trkpt lat="43.80484" lon="2.35793">
        <ele>430</ele>
        <time>2019-07-14T08:04:14.693Z</time>
      </trkpt>
      <trkpt lat="43.80485" lon="2.35815">
        <ele>444.7</ele>
        <time>2019-07-14T08:04:21.769Z</time>
      </trkpt>
      <trkpt lat="43.80479" lon="2.35826">
        <ele>438</ele>
        <time>2019-07-14T08:04:26.195Z</time>
      </trkpt>
      <trkpt lat="43.80462" lon="2.35832">
        <ele>444.6</ele>
        <time>2019-07-14T08:04:33.998Z</time>
      </trkpt>
      <trkpt lat="43.8046" lon="2.3587">
        <ele>439</ele>
        <time>2019-07-14T08:04:46.228Z</time>
      </trkpt>
      <trkpt lat="43.80473" lon="2.35899">
        <ele>441</ele>
        <time>2019-07-14T08:04:57.187Z</time>
      </trkpt>
      <trkpt lat="43.8049" lon="2.35932">
        <ele>446</ele>
        <time>2019-07-14T08:05:10.202Z</time>
      </trkpt>
      <trkpt lat="43.80516" lon="2.35982">
        <ele>449</ele>
        <time>2019-07-14T08:05:29.984Z</time>
      </trkpt>
      <trkpt lat="43.80544" lon="2.36024">
        <ele>453</ele>
        <time>2019-07-14T08:05:48.338Z</time>
      </trkpt>
      <trkpt lat="43.80568" lon="2.36071">
        <ele>453</ele>
        <time>2019-07-14T08:06:06.819Z</time>
      </trkpt>
      <trkpt lat="43.80588" lon="2.36119">
        <ele>453</ele>
        <time>2019-07-14T08:06:24.610Z</time>
      </trkpt>
      <trkpt lat="43.806" lon="2.36155">
        <ele>461</ele>
        <time>2019-07-14T08:06:37.339Z</time>
      </trkpt>
      <trkpt lat="43.80615" lon="2.36209">
        <ele>462</ele>
        <time>2019-07-14T08:06:55.912Z</time>
      </trkpt>
      <trkpt lat="43.80621" lon="2.36265">
        <ele>474</ele>
        <time>2019-07-14T08:07:14.085Z</time>
      </trkpt>
      <trkpt lat="43.80623" lon="2.36312">
        <ele>478</ele>
        <time>2019-07-14T08:07:29.198Z</time>
      </trkpt>
      <trkpt lat="43.80627" lon="2.36355">
        <ele>476</ele>
        <time>2019-07-14T08:07:43.115Z</time>
      </trkpt>
      <trkpt lat="43.80622" lon="2.36406">
        <ele>479</ele>
        <time>2019-07-14T08:07:59.636Z</time>
      </trkpt>
      <trkpt lat="43.806" lon="2.36428">
        <ele>483</ele>
        <time>2019-07-14T08:08:11.703Z</time>
      </trkpt>
      <trkpt lat="43.80576" lon="2.36446">
        <ele>483</ele>
        <time>2019-07-14T08:08:23.841Z</time>
      </trkpt>
      <trkpt lat="43.8055" lon="2.36455">
        <ele>490</ele>
        <time>2019-07-14T08:08:35.761Z</time>
      </trkpt>
      <trkpt lat="43.80519" lon="2.36466">
        <ele>504</ele>
        <time>2019-07-14T08:08:49.994Z</time>
      </trkpt>
      <trkpt lat="43.80498" lon="2.36487">
        <ele>504</ele>
        <time>2019-07-14T08:09:01.513Z</time>
      </trkpt>
      <trkpt lat="43.80476" lon="2.36533">
        <ele>505</ele>
        <time>2019-07-14T08:09:19.227Z</time>
      </trkpt>
      <trkpt lat="43.80469" lon="2.36568">
        <ele>507</ele>
        <time>2019-07-14T08:09:30.885Z</time>
      </trkpt>
      <trkpt lat="43.8046" lon="2.36607">
        <ele>510</ele>
        <time>2019-07-14T08:09:44.028Z</time>
      </trkpt>
      <trkpt lat="43.80453" lon="2.36647">
        <ele>512</ele>
        <time>2019-07-14T08:09:57.240Z</time>
      </trkpt>
      <trkpt lat="43.80443" lon="2.36709">
        <ele>520</ele>
        <time>2019-07-14T08:10:17.633Z</time>
      </trkpt>
      <trkpt lat="43.80429" lon="2.3677">
        <ele>536</ele>
        <time>2019-07-14T08:10:38.180Z</time>
      </trkpt>
      <trkpt lat="43.80403" lon="2.36798">
        <ele>539</ele>
        <time>2019-07-14T08:10:52.826Z</time>
      </trkpt>
      <trkpt lat="43.80384" lon="2.36815">
        <ele>541</ele>
        <time>2019-07-14T08:11:02.886Z</time>
      </trkpt>
      <trkpt lat="43.80352" lon="2.36828">
        <ele>548</ele>
        <time>2019-07-14T08:11:17.718Z</time>
      </trkpt>
      <trkpt lat="43.80332" lon="2.36837">
        <ele>551</ele>
        <time>2019-07-14T08:11:27.071Z</time>
      </trkpt>
      <trkpt lat="43.80303" lon="2.3684">
        <ele>552</ele>
        <time>2019-07-14T08:11:40.006Z</time>
      </trkpt>
      <trkpt lat="43.80275" lon="2.36845">
        <ele>551</ele>
        <time>2019-07-14T08:11:52.563Z</time>
      </trkpt>
      <trkpt lat="43.80249" lon="2.36853">
        <ele>551</ele>
        <time>2019-07-14T08:12:04.409Z</time>
      </trkpt>
      <trkpt lat="43.80225" lon="2.36867">
        <ele>551</ele>
        <time>2019-07-14T08:12:15.991Z</time>
      </trkpt>
      <trkpt lat="43.80197" lon="2.36888">
        <ele>550</ele>
        <time>2019-07-14T08:12:30.152Z</time>
      </trkpt>
      <trkpt lat="43.80204" lon="2.36936">
        <ele>551</ele>
        <time>2019-07-14T08:12:45.872Z</time>
      </trkpt>
      <trkpt lat="43.802" lon="2.36977">
        <ele>552</ele>
        <time>2019-07-14T08:12:59.153Z</time>
      </trkpt>
      <trkpt lat="43.802" lon="2.37035">
        <ele>554</ele>
        <time>2019-07-14T08:13:17.772Z</time>
      </trkpt>
      <trkpt lat="43.80195" lon="2.37077">
        <ele>555</ele>
        <time>2019-07-14T08:13:31.437Z</time>
      </trkpt>
      <trkpt lat="43.80191" lon="2.37111">
        <ele>558</ele>
        <time>2019-07-14T08:13:42.496Z</time>
      </trkpt>
      <trkpt lat="43.80186" lon="2.37149">
        <ele>564</ele>
        <time>2019-07-14T08:13:54.896Z</time>
      </trkpt>
      <trkpt lat="43.80182" lon="2.37185">
        <ele>567</ele>
        <time>2019-07-14T08:14:06.589Z</time>
      </trkpt>
      <trkpt lat="43.80177" lon="2.37229">
        <ele>568</ele>
        <time>2019-07-14T08:14:20.888Z</time>
      </trkpt>
      <trkpt lat="43.80171" lon="2.37275">
        <ele>574</ele>
        <time>2019-07-14T08:14:35.894Z</time>
      </trkpt>
      <trkpt lat="43.80153" lon="2.37308">
        <ele>578</ele>
        <time>2019-07-14T08:14:49.173Z</time>
      </trkpt>
      <trkpt lat="43.80123" lon="2.37347">
        <ele>584</ele>
        <time>2019-07-14T08:15:07.470Z</time>
      </trkpt>
      <trkpt lat="43.80111" lon="2.37373">
        <ele>584</ele>
        <time>2019-07-14T08:15:17.377Z</time>
      </trkpt>
      <trkpt lat="43.80102" lon="2.37396">
        <ele>579</ele>
        <time>2019-07-14T08:15:25.776Z</time>
      </trkpt>
      <trkpt lat="43.80096" lon="2.37426">
        <ele>584</ele>
        <time>2019-07-14T08:15:35.769Z</time>
      </trkpt>
      <trkpt lat="43.80092" lon="2.37457">
        <ele>578</ele>
        <time>2019-07-14T08:15:45.878Z</time>
      </trkpt>
      <trkpt lat="43.80091" lon="2.37502">
        <ele>577</ele>
        <time>2019-07-14T08:16:00.331Z</time>
      </trkpt>
      <trkpt lat="43.80092" lon="2.37539">
        <ele>577</ele>
        <time>2019-07-14T08:16:12.217Z</time>
      </trkpt>
      <trkpt lat="43.80095" lon="2.37587">
        <ele>578</ele>
        <time>2019-07-14T08:16:27.684Z</time>
      </trkpt>
      <trkpt lat="43.80101" lon="2.37642">
        <ele>578</ele>
        <time>2019-07-14T08:16:45.541Z</time>
      </trkpt>
      <trkpt lat="43.80102" lon="2.37696">
        <ele>576</ele>
        <time>2019-07-14T08:17:02.882Z</time>
      </trkpt>
      <trkpt lat="43.80097" lon="2.37755">
        <ele>575</ele>
        <time>2019-07-14T08:17:21.952Z</time>
      </trkpt>
      <trkpt lat="43.80097" lon="2.37803">
        <ele>573</ele>
        <time>2019-07-14T08:17:37.361Z</time>
      </trkpt>
      <trkpt lat="43.80102" lon="2.37865">
        <ele>572</ele>
        <time>2019-07-14T08:17:57.388Z</time>
      </trkpt>
      <trkpt lat="43.80109" lon="2.37904">
        <ele>569</ele>
        <time>2019-07-14T08:18:10.289Z</time>
      </trkpt>
      <trkpt lat="43.80121" lon="2.3794">
        <ele>568</ele>
        <time>2019-07-14T08:18:23.019Z</time>
      </trkpt>
      <trkpt lat="43.80137" lon="2.37991">
        <ele>568</ele>
        <time>2019-07-14T08:18:40.871Z</time>
      </trkpt>
      <trkpt lat="43.80142" lon="2.38025">
        <ele>570</ele>
        <time>2019-07-14T08:18:52.010Z</time>
      </trkpt>
      <trkpt lat="43.80147" lon="2.38062">
        <ele>570</ele>
        <time>2019-07-14T08:19:04.094Z</time>
      </trkpt>
      <trkpt lat="43.80149" lon="2.38109">
        <ele>563</ele>
        <time>2019-07-14T08:19:19.208Z</time>
      </trkpt>
      <trkpt lat="43.80149" lon="2.38159">
        <ele>559</ele>
        <time>2019-07-14T08:19:35.259Z</time>
      </trkpt>
      <trkpt lat="43.80147" lon="2.38198">
        <ele>555</ele>
        <time>2019-07-14T08:19:47.810Z</time>
      </trkpt>
      <trkpt lat="43.80143" lon="2.38255">
        <ele>555</ele>
        <time>2019-07-14T08:20:06.194Z</time>
      </trkpt>
      <trkpt lat="43.80175" lon="2.38233">
        <ele>556</ele>
        <time>2019-07-14T08:20:22.083Z</time>
      </trkpt>
      <trkpt lat="43.80214" lon="2.38195">
        <ele>556</ele>
        <time>2019-07-14T08:20:43.289Z</time>
      </trkpt>
      <trkpt lat="43.80246" lon="2.38165">
        <ele>555</ele>
        <time>2019-07-14T08:21:00.474Z</time>
      </trkpt>
      <trkpt lat="43.80268" lon="2.38143">
        <ele>554</ele>
        <time>2019-07-14T08:21:12.541Z</time>
      </trkpt>
      <trkpt lat="43.80295" lon="2.38116">
        <ele>554</ele>
        <time>2019-07-14T08:21:27.351Z</time>
      </trkpt>
      <trkpt lat="43.80316" lon="2.38094">
        <ele>552</ele>
        <time>2019-07-14T08:21:39.061Z</time>
      </trkpt>
      <trkpt lat="43.8033" lon="2.38081">
        <ele>557.4</ele>
        <time>2019-07-14T08:21:46.557Z</time>
      </trkpt>
      <trkpt lat="43.80325" lon="2.38122">
        <ele>552</ele>
        <time>2019-07-14T08:21:59.905Z</time>
      </trkpt>
      <trkpt lat="43.8032" lon="2.38173">
        <ele>552</ele>
        <time>2019-07-14T08:22:16.427Z</time>
      </trkpt>
      <trkpt lat="43.80318" lon="2.38222">
        <ele>551</ele>
        <time>2019-07-14T08:22:32.181Z</time>
      </trkpt>
      <trkpt lat="43.80317" lon="2.38272">
        <ele>551</ele>
        <time>2019-07-14T08:22:48.238Z</time>
      </trkpt>
      <trkpt lat="43.80316" lon="2.3831">
        <ele>551</ele>
        <time>2019-07-14T08:23:00.444Z</time>
      </trkpt>
      <trkpt lat="43.80314" lon="2.38359">
        <ele>553</ele>
        <time>2019-07-14T08:23:16.198Z</time>
      </trkpt>
      <trkpt lat="43.80311" lon="2.38415">
        <ele>554</ele>
        <time>2019-07-14T08:23:34.224Z</time>
      </trkpt>
      <trkpt lat="43.80309" lon="2.38473">
        <ele>555</ele>
        <time>2019-07-14T08:23:52.864Z</time>
      </trkpt>
      <trkpt lat="43.80308" lon="2.38534">
        <ele>558</ele>
        <time>2019-07-14T08:24:12.451Z</time>
      </trkpt>
      <trkpt lat="43.80304" lon="2.38585">
        <ele>564</ele>
        <time>2019-07-14T08:24:28.919Z</time>
      </trkpt>
      <trkpt lat="43.80302" lon="2.38633">
        <ele>571</ele>
        <time>2019-07-14T08:24:44.353Z</time>
      </trkpt>
      <trkpt lat="43.80301" lon="2.38685">
        <ele>570</ele>
        <time>2019-07-14T08:25:01.051Z</time>
      </trkpt>
      <trkpt lat="43.80299" lon="2.38726">
        <ele>570</ele>
        <time>2019-07-14T08:25:14.242Z</time>
      </trkpt>
      <trkpt lat="43.80297" lon="2.3879">
        <ele>573</ele>
        <time>2019-07-14T08:25:34.806Z</time>
      </trkpt>
      <trkpt lat="43.80296" lon="2.3883">
        <ele>573</ele>
        <time>2019-07-14T08:25:47.654Z</time>
      </trkpt>
      <trkpt lat="43.80297" lon="2.38892">
        <ele>574</ele>
        <time>2019-07-14T08:26:07.561Z</time>
      </trkpt>
      <trkpt lat="43.80308" lon="2.38909">
        <ele>578.8</ele>
        <time>2019-07-14T08:26:14.890Z</time>
      </trkpt>
      <trkpt lat="43.80328" lon="2.3892">
        <ele>576</ele>
        <time>2019-07-14T08:26:24.461Z</time>
      </trkpt>
      <trkpt lat="43.80337" lon="2.38928">
        <ele>581.3</ele>
        <time>2019-07-14T08:26:29.217Z</time>
      </trkpt>
      <trkpt lat="43.80343" lon="2.38939">
        <ele>576</ele>
        <time>2019-07-14T08:26:33.643Z</time>
      </trkpt>
      <trkpt lat="43.80353" lon="2.38988">
        <ele>578</ele>
        <time>2019-07-14T08:26:49.989Z</time>
      </trkpt>
      <trkpt lat="43.80362" lon="2.39027">
        <ele>580</ele>
        <time>2019-07-14T08:27:03.133Z</time>
      </trkpt>
      <trkpt lat="43.80377" lon="2.39086">
        <ele>581</ele>
        <time>2019-07-14T08:27:23.213Z</time>
      </trkpt>
      <trkpt lat="43.80399" lon="2.39081">
        <ele>576</ele>
        <time>2019-07-14T08:27:33.129Z</time>
      </trkpt>
      <trkpt lat="43.80445" lon="2.39081">
        <ele>572</ele>
        <time>2019-07-14T08:27:53.589Z</time>
      </trkpt>
      <trkpt lat="43.8047" lon="2.39083">
        <ele>567</ele>
        <time>2019-07-14T08:28:04.727Z</time>
      </trkpt>
      <trkpt lat="43.80487" lon="2.39086">
        <ele>578.6</ele>
        <time>2019-07-14T08:28:12.349Z</time>
      </trkpt>
      <trkpt lat="43.80552" lon="2.39128">
        <ele>563</ele>
        <time>2019-07-14T08:28:44.249Z</time>
      </trkpt>
      <trkpt lat="43.80581" lon="2.39141">
        <ele>562</ele>
        <time>2019-07-14T08:28:57.806Z</time>
      </trkpt>
      <trkpt lat="43.8061" lon="2.39149">
        <ele>562</ele>
        <time>2019-07-14T08:29:10.958Z</time>
      </trkpt>
      <trkpt lat="43.80643" lon="2.39161">
        <ele>558</ele>
        <time>2019-07-14T08:29:26.133Z</time>
      </trkpt>
      <trkpt lat="43.80667" lon="2.39166">
        <ele>558</ele>
        <time>2019-07-14T08:29:36.928Z</time>
      </trkpt>
      <trkpt lat="43.80693" lon="2.39166">
        <ele>562</ele>
        <time>2019-07-14T08:29:48.492Z</time>
      </trkpt>
      <trkpt lat="43.80722" lon="2.3917">
        <ele>568</ele>
        <time>2019-07-14T08:30:01.454Z</time>
      </trkpt>
      <trkpt lat="43.80755" lon="2.39163">
        <ele>572</ele>
        <time>2019-07-14T08:30:16.303Z</time>
      </trkpt>
      <trkpt lat="43.80782" lon="2.39156">
        <ele>570</ele>
        <time>2019-07-14T08:30:28.520Z</time>
      </trkpt>
      <trkpt lat="43.80817" lon="2.39147">
        <ele>568</ele>
        <time>2019-07-14T08:30:44.353Z</time>
      </trkpt>
      <trkpt lat="43.80846" lon="2.39143">
        <ele>566</ele>
        <time>2019-07-14T08:30:57.315Z</time>
      </trkpt>
      <trkpt lat="43.80862" lon="2.39137">
        <ele>567.2</ele>
        <time>2019-07-14T08:31:04.687Z</time>
      </trkpt>
      <trkpt lat="43.80887" lon="2.39123">
        <ele>566</ele>
        <time>2019-07-14T08:31:16.680Z</time>
      </trkpt>
      <trkpt lat="43.80913" lon="2.39097">
        <ele>563</ele>
        <time>2019-07-14T08:31:30.941Z</time>
      </trkpt>
      <trkpt lat="43.8094" lon="2.39068">
        <ele>559</ele>
        <time>2019-07-14T08:31:46.135Z</time>
      </trkpt>
      <trkpt lat="43.80957" lon="2.39044">
        <ele>559</ele>
        <time>2019-07-14T08:31:56.929Z</time>
      </trkpt>
      <trkpt lat="43.80985" lon="2.39013">
        <ele>559</ele>
        <time>2019-07-14T08:32:12.870Z</time>
      </trkpt>
      <trkpt lat="43.81007" lon="2.38995">
        <ele>562</ele>
        <time>2019-07-14T08:32:24.233Z</time>
      </trkpt>
      <trkpt lat="43.81048" lon="2.38979">
        <ele>562</ele>
        <time>2019-07-14T08:32:43.178Z</time>
      </trkpt>
      <trkpt lat="43.8108" lon="2.38968">
        <ele>562</ele>
        <time>2019-07-14T08:32:57.842Z</time>
      </trkpt>
      <trkpt lat="43.81113" lon="2.38962">
        <ele>561</ele>
        <time>2019-07-14T08:33:12.646Z</time>
      </trkpt>
      <trkpt lat="43.81145" lon="2.38945">
        <ele>561</ele>
        <time>2019-07-14T08:33:27.889Z</time>
      </trkpt>
      <trkpt lat="43.81169" lon="2.3893">
        <ele>556</ele>
        <time>2019-07-14T08:33:39.599Z</time>
      </trkpt>
      <trkpt lat="43.81196" lon="2.38908">
        <ele>552</ele>
        <time>2019-07-14T08:33:53.530Z</time>
      </trkpt>
      <trkpt lat="43.81218" lon="2.38882">
        <ele>550</ele>
        <time>2019-07-14T08:34:06.390Z</time>
      </trkpt>
      <trkpt lat="43.81238" lon="2.38856">
        <ele>544</ele>
        <time>2019-07-14T08:34:18.587Z</time>
      </trkpt>
      <trkpt lat="43.81261" lon="2.38833">
        <ele>541</ele>
        <time>2019-07-14T08:34:31.202Z</time>
      </trkpt>
      <trkpt lat="43.81293" lon="2.388">
        <ele>536</ele>
        <time>2019-07-14T08:34:48.943Z</time>
      </trkpt>
      <trkpt lat="43.81312" lon="2.38778">
        <ele>532</ele>
        <time>2019-07-14T08:34:59.955Z</time>
      </trkpt>
      <trkpt lat="43.81336" lon="2.38758">
        <ele>529</ele>
        <time>2019-07-14T08:35:12.411Z</time>
      </trkpt>
      <trkpt lat="43.81362" lon="2.38739">
        <ele>524</ele>
        <time>2019-07-14T08:35:25.485Z</time>
      </trkpt>
      <trkpt lat="43.81402" lon="2.38711">
        <ele>524</ele>
        <time>2019-07-14T08:35:45.417Z</time>
      </trkpt>
      <trkpt lat="43.81425" lon="2.38682">
        <ele>521</ele>
        <time>2019-07-14T08:35:59.247Z</time>
      </trkpt>
      <trkpt lat="43.81445" lon="2.38658">
        <ele>521</ele>
        <time>2019-07-14T08:36:11.014Z</time>
      </trkpt>
      <trkpt lat="43.81468" lon="2.38629">
        <ele>521</ele>
        <time>2019-07-14T08:36:24.844Z</time>
      </trkpt>
      <trkpt lat="43.81482" lon="2.38619">
        <ele>524.9</ele>
        <time>2019-07-14T08:36:31.849Z</time>
      </trkpt>
      <trkpt lat="43.81501" lon="2.38612">
        <ele>520</ele>
        <time>2019-07-14T08:36:40.593Z</time>
      </trkpt>
      <trkpt lat="43.81518" lon="2.38621">
        <ele>518</ele>
        <time>2019-07-14T08:36:48.687Z</time>
      </trkpt>
      <trkpt lat="43.81532" lon="2.38609">
        <ele>516</ele>
        <time>2019-07-14T08:36:56.009Z</time>
      </trkpt>
      <trkpt lat="43.81543" lon="2.38596">
        <ele>516</ele>
        <time>2019-07-14T08:37:02.439Z</time>
      </trkpt>
      <trkpt lat="43.81554" lon="2.38577">
        <ele>508</ele>
        <time>2019-07-14T08:37:10.257Z</time>
      </trkpt>
      <trkpt lat="43.81558" lon="2.38553">
        <ele>511.1</ele>
        <time>2019-07-14T08:37:18.162Z</time>
      </trkpt>
      <trkpt lat="43.81562" lon="2.38539">
        <ele>504</ele>
        <time>2019-07-14T08:37:22.995Z</time>
      </trkpt>
      <trkpt lat="43.81568" lon="2.38539">
        <ele>509.6</ele>
        <time>2019-07-14T08:37:25.664Z</time>
      </trkpt>
      <trkpt lat="43.81584" lon="2.38558">
        <ele>501</ele>
        <time>2019-07-14T08:37:35.036Z</time>
      </trkpt>
      <trkpt lat="43.81595" lon="2.38589">
        <ele>500</ele>
        <time>2019-07-14T08:37:46.123Z</time>
      </trkpt>
      <trkpt lat="43.81608" lon="2.38624">
        <ele>499</ele>
        <time>2019-07-14T08:37:58.757Z</time>
      </trkpt>
      <trkpt lat="43.81612" lon="2.38661">
        <ele>498</ele>
        <time>2019-07-14T08:38:10.764Z</time>
      </trkpt>
      <trkpt lat="43.81611" lon="2.38681">
        <ele>490.5</ele>
        <time>2019-07-14T08:38:17.198Z</time>
      </trkpt>
      <trkpt lat="43.81615" lon="2.38685">
        <ele>488.8</ele>
        <time>2019-07-14T08:38:19.392Z</time>
      </trkpt>
      <trkpt lat="43.81624" lon="2.38681">
        <ele>498</ele>
        <time>2019-07-14T08:38:23.596Z</time>
      </trkpt>
      <trkpt lat="43.8164" lon="2.38664">
        <ele>485</ele>
        <time>2019-07-14T08:38:32.563Z</time>
      </trkpt>
      <trkpt lat="43.81671" lon="2.38653">
        <ele>467</ele>
        <time>2019-07-14T08:38:46.796Z</time>
      </trkpt>
      <trkpt lat="43.8169" lon="2.38633">
        <ele>467</ele>
        <time>2019-07-14T08:38:57.408Z</time>
      </trkpt>
      <trkpt lat="43.81696" lon="2.38628">
        <ele>463.3</ele>
        <time>2019-07-14T08:39:00.522Z</time>
      </trkpt>
      <trkpt lat="43.81701" lon="2.38635">
        <ele>462.3</ele>
        <time>2019-07-14T08:39:03.683Z</time>
      </trkpt>
      <trkpt lat="43.81704" lon="2.38653">
        <ele>460</ele>
        <time>2019-07-14T08:39:09.612Z</time>
      </trkpt>
      <trkpt lat="43.81713" lon="2.38663">
        <ele>459.4</ele>
        <time>2019-07-14T08:39:14.743Z</time>
      </trkpt>
      <trkpt lat="43.81697" lon="2.38688">
        <ele>453</ele>
        <time>2019-07-14T08:39:25.468Z</time>
      </trkpt>
      <trkpt lat="43.81684" lon="2.38705">
        <ele>458.4</ele>
        <time>2019-07-14T08:39:33.418Z</time>
      </trkpt>
      <trkpt lat="43.81666" lon="2.38735">
        <ele>455</ele>
        <time>2019-07-14T08:39:45.940Z</time>
      </trkpt>
      <trkpt lat="43.81645" lon="2.38763">
        <ele>458</ele>
        <time>2019-07-14T08:39:58.901Z</time>
      </trkpt>
      <trkpt lat="43.81629" lon="2.38788">
        <ele>458</ele>
        <time>2019-07-14T08:40:09.626Z</time>
      </trkpt>
      <trkpt lat="43.81614" lon="2.38817">
        <ele>458</ele>
        <time>2019-07-14T08:40:21.077Z</time>
      </trkpt>
      <trkpt lat="43.81615" lon="2.38841">
        <ele>471.1</ele>
        <time>2019-07-14T08:40:28.792Z</time>
      </trkpt>
      <trkpt lat="43.81633" lon="2.38858">
        <ele>446</ele>
        <time>2019-07-14T08:40:38.480Z</time>
      </trkpt>
      <trkpt lat="43.81645" lon="2.38858">
        <ele>464.7</ele>
        <time>2019-07-14T08:40:43.817Z</time>
      </trkpt>
      <trkpt lat="43.81666" lon="2.38837">
        <ele>445</ele>
        <time>2019-07-14T08:40:55.335Z</time>
      </trkpt>
      <trkpt lat="43.81673" lon="2.38841">
        <ele>448.7</ele>
        <time>2019-07-14T08:40:58.703Z</time>
      </trkpt>
      <trkpt lat="43.81673" lon="2.38865">
        <ele>445</ele>
        <time>2019-07-14T08:41:06.405Z</time>
      </trkpt>
      <trkpt lat="43.81672" lon="2.38891">
        <ele>450.2</ele>
        <time>2019-07-14T08:41:14.761Z</time>
      </trkpt>
      <trkpt lat="43.81682" lon="2.38901">
        <ele>445</ele>
        <time>2019-07-14T08:41:20.246Z</time>
      </trkpt>
      <trkpt lat="43.81698" lon="2.38907">
        <ele>448</ele>
        <time>2019-07-14T08:41:27.618Z</time>
      </trkpt>
      <trkpt lat="43.81707" lon="2.38904">
        <ele>440</ele>
        <time>2019-07-14T08:41:31.735Z</time>
      </trkpt>
      <trkpt lat="43.81723" lon="2.38867">
        <ele>437</ele>
        <time>2019-07-14T08:41:45.579Z</time>
      </trkpt>
      <trkpt lat="43.81731" lon="2.38832">
        <ele>435</ele>
        <time>2019-07-14T08:41:57.362Z</time>
      </trkpt>
      <trkpt lat="43.81748" lon="2.38786">
        <ele>435</ele>
        <time>2019-07-14T08:42:13.949Z</time>
      </trkpt>
      <trkpt lat="43.81761" lon="2.38754">
        <ele>434</ele>
        <time>2019-07-14T08:42:25.735Z</time>
      </trkpt>
      <trkpt lat="43.81782" lon="2.38715">
        <ele>433</ele>
        <time>2019-07-14T08:42:41.352Z</time>
      </trkpt>
      <trkpt lat="43.81801" lon="2.38687">
        <ele>433</ele>
        <time>2019-07-14T08:42:53.687Z</time>
      </trkpt>
      <trkpt lat="43.81823" lon="2.3866">
        <ele>434</ele>
        <time>2019-07-14T08:43:06.757Z</time>
      </trkpt>
      <trkpt lat="43.81855" lon="2.38621">
        <ele>435</ele>
        <time>2019-07-14T08:43:25.710Z</time>
      </trkpt>
      <trkpt lat="43.81876" lon="2.38598">
        <ele>435</ele>
        <time>2019-07-14T08:43:37.615Z</time>
      </trkpt>
      <trkpt lat="43.81912" lon="2.3857">
        <ele>432</ele>
        <time>2019-07-14T08:43:55.976Z</time>
      </trkpt>
      <trkpt lat="43.81923" lon="2.38576">
        <ele>436.6</ele>
        <time>2019-07-14T08:44:01.234Z</time>
      </trkpt>
      <trkpt lat="43.81973" lon="2.38646">
        <ele>430</ele>
        <time>2019-07-14T08:44:32.844Z</time>
      </trkpt>
      <trkpt lat="43.81998" lon="2.38662">
        <ele>430</ele>
        <time>2019-07-14T08:44:45.092Z</time>
      </trkpt>
      <trkpt lat="43.82028" lon="2.38673">
        <ele>429</ele>
        <time>2019-07-14T08:44:58.894Z</time>
      </trkpt>
      <trkpt lat="43.82073" lon="2.38661">
        <ele>429</ele>
        <time>2019-07-14T08:45:19.276Z</time>
      </trkpt>
      <trkpt lat="43.82081" lon="2.38654">
        <ele>442.6</ele>
        <time>2019-07-14T08:45:23.484Z</time>
      </trkpt>
      <trkpt lat="43.82095" lon="2.38652">
        <ele>429</ele>
        <time>2019-07-14T08:45:29.744Z</time>
      </trkpt>
      <trkpt lat="43.821" lon="2.38655">
        <ele>443.3</ele>
        <time>2019-07-14T08:45:32.167Z</time>
      </trkpt>
      <trkpt lat="43.82095" lon="2.38697">
        <ele>429</ele>
        <time>2019-07-14T08:45:45.828Z</time>
      </trkpt>
      <trkpt lat="43.82095" lon="2.38714">
        <ele>443.5</ele>
        <time>2019-07-14T08:45:51.283Z</time>
      </trkpt>
      <trkpt lat="43.82102" lon="2.38733">
        <ele>437</ele>
        <time>2019-07-14T08:45:58.129Z</time>
      </trkpt>
      <trkpt lat="43.82108" lon="2.3874">
        <ele>443.5</ele>
        <time>2019-07-14T08:46:01.617Z</time>
      </trkpt>
      <trkpt lat="43.82118" lon="2.38739">
        <ele>444.2</ele>
        <time>2019-07-14T08:46:06.076Z</time>
      </trkpt>
      <trkpt lat="43.82131" lon="2.38721">
        <ele>438</ele>
        <time>2019-07-14T08:46:14.249Z</time>
      </trkpt>
      <trkpt lat="43.82156" lon="2.38692">
        <ele>437</ele>
        <time>2019-07-14T08:46:28.749Z</time>
      </trkpt>
      <trkpt lat="43.82172" lon="2.38679">
        <ele>444.9</ele>
        <time>2019-07-14T08:46:36.998Z</time>
      </trkpt>
      <trkpt lat="43.82191" lon="2.38672">
        <ele>437</ele>
        <time>2019-07-14T08:46:45.742Z</time>
      </trkpt>
      <trkpt lat="43.82207" lon="2.3867">
        <ele>446</ele>
        <time>2019-07-14T08:46:52.887Z</time>
      </trkpt>
      <trkpt lat="43.82228" lon="2.38677">
        <ele>435</ele>
        <time>2019-07-14T08:47:02.494Z</time>
      </trkpt>
      <trkpt lat="43.82239" lon="2.38683">
        <ele>446</ele>
        <time>2019-07-14T08:47:07.752Z</time>
      </trkpt>
      <trkpt lat="43.82246" lon="2.38694">
        <ele>440</ele>
        <time>2019-07-14T08:47:12.459Z</time>
      </trkpt>
      <trkpt lat="43.82243" lon="2.38706">
        <ele>447.7</ele>
        <time>2019-07-14T08:47:16.534Z</time>
      </trkpt>
      <trkpt lat="43.8223" lon="2.38741">
        <ele>445</ele>
        <time>2019-07-14T08:47:29.167Z</time>
      </trkpt>
      <trkpt lat="43.82225" lon="2.38766">
        <ele>453.1</ele>
        <time>2019-07-14T08:47:37.492Z</time>
      </trkpt>
      <trkpt lat="43.82225" lon="2.38788">
        <ele>448</ele>
        <time>2019-07-14T08:47:44.552Z</time>
      </trkpt>
      <trkpt lat="43.82213" lon="2.3882">
        <ele>450</ele>
        <time>2019-07-14T08:47:56.125Z</time>
      </trkpt>
      <trkpt lat="43.82196" lon="2.38861">
        <ele>449</ele>
        <time>2019-07-14T08:48:11.300Z</time>
      </trkpt>
      <trkpt lat="43.82189" lon="2.38893">
        <ele>449</ele>
        <time>2019-07-14T08:48:22.031Z</time>
      </trkpt>
      <trkpt lat="43.82184" lon="2.38935">
        <ele>452</ele>
        <time>2019-07-14T08:48:35.691Z</time>
      </trkpt>
      <trkpt lat="43.82173" lon="2.38957">
        <ele>473</ele>
        <time>2019-07-14T08:48:44.281Z</time>
      </trkpt>
      <trkpt lat="43.82157" lon="2.38993">
        <ele>462</ele>
        <time>2019-07-14T08:48:57.850Z</time>
      </trkpt>
      <trkpt lat="43.82141" lon="2.39019">
        <ele>462</ele>
        <time>2019-07-14T08:49:08.816Z</time>
      </trkpt>
      <trkpt lat="43.82124" lon="2.39047">
        <ele>470</ele>
        <time>2019-07-14T08:49:20.560Z</time>
      </trkpt>
      <trkpt lat="43.82105" lon="2.39077">
        <ele>482</ele>
        <time>2019-07-14T08:49:33.370Z</time>
      </trkpt>
      <trkpt lat="43.82088" lon="2.39109">
        <ele>490</ele>
        <time>2019-07-14T08:49:46.123Z</time>
      </trkpt>
      <trkpt lat="43.82063" lon="2.39155">
        <ele>500</ele>
        <time>2019-07-14T08:50:04.604Z</time>
      </trkpt>
      <trkpt lat="43.8206" lon="2.39171">
        <ele>507.6</ele>
        <time>2019-07-14T08:50:09.909Z</time>
      </trkpt>
      <trkpt lat="43.82055" lon="2.39211">
        <ele>504</ele>
        <time>2019-07-14T08:50:22.937Z</time>
      </trkpt>
      <trkpt lat="43.82056" lon="2.39258">
        <ele>508</ele>
        <time>2019-07-14T08:50:38.027Z</time>
      </trkpt>
      <trkpt lat="43.82058" lon="2.39295">
        <ele>510</ele>
        <time>2019-07-14T08:50:49.934Z</time>
      </trkpt>
      <trkpt lat="43.82061" lon="2.39327">
        <ele>518</ele>
        <time>2019-07-14T08:51:00.290Z</time>
      </trkpt>
      <trkpt lat="43.82068" lon="2.39355">
        <ele>523</ele>
        <time>2019-07-14T08:51:09.800Z</time>
      </trkpt>
      <trkpt lat="43.82078" lon="2.3937">
        <ele>530.3</ele>
        <time>2019-07-14T08:51:16.354Z</time>
      </trkpt>
      <trkpt lat="43.82085" lon="2.39379">
        <ele>524</ele>
        <time>2019-07-14T08:51:20.601Z</time>
      </trkpt>
      <trkpt lat="43.82086" lon="2.39391">
        <ele>538.4</ele>
        <time>2019-07-14T08:51:24.478Z</time>
      </trkpt>
      <trkpt lat="43.82078" lon="2.39459">
        <ele>541</ele>
        <time>2019-07-14T08:51:46.588Z</time>
      </trkpt>
      <trkpt lat="43.82078" lon="2.39494">
        <ele>545</ele>
        <time>2019-07-14T08:51:57.820Z</time>
      </trkpt>
      <trkpt lat="43.82084" lon="2.39536">
        <ele>546</ele>
        <time>2019-07-14T08:52:11.560Z</time>
      </trkpt>
      <trkpt lat="43.82095" lon="2.3957">
        <ele>543</ele>
        <time>2019-07-14T08:52:23.518Z</time>
      </trkpt>
      <trkpt lat="43.82101" lon="2.39602">
        <ele>541</ele>
        <time>2019-07-14T08:52:34.128Z</time>
      </trkpt>
      <trkpt lat="43.82102" lon="2.39629">
        <ele>541</ele>
        <time>2019-07-14T08:52:42.804Z</time>
      </trkpt>
      <trkpt lat="43.82105" lon="2.39651">
        <ele>543.6</ele>
        <time>2019-07-14T08:52:49.989Z</time>
      </trkpt>
      <trkpt lat="43.82122" lon="2.39719">
        <ele>533</ele>
        <time>2019-07-14T08:53:13.084Z</time>
      </trkpt>
      <trkpt lat="43.82121" lon="2.39755">
        <ele>532</ele>
        <time>2019-07-14T08:53:24.645Z</time>
      </trkpt>
      <trkpt lat="43.82122" lon="2.39775">
        <ele>537.2</ele>
        <time>2019-07-14T08:53:31.079Z</time>
      </trkpt>
      <trkpt lat="43.82127" lon="2.39798">
        <ele>531</ele>
        <time>2019-07-14T08:53:38.788Z</time>
      </trkpt>
      <trkpt lat="43.82148" lon="2.39828">
        <ele>523</ele>
        <time>2019-07-14T08:53:52.202Z</time>
      </trkpt>
      <trkpt lat="43.82181" lon="2.39866">
        <ele>521</ele>
        <time>2019-07-14T08:54:11.284Z</time>
      </trkpt>
      <trkpt lat="43.8219" lon="2.39882">
        <ele>536.8</ele>
        <time>2019-07-14T08:54:17.795Z</time>
      </trkpt>
      <trkpt lat="43.82194" lon="2.39902">
        <ele>521</ele>
        <time>2019-07-14T08:54:24.455Z</time>
      </trkpt>
      <trkpt lat="43.82197" lon="2.39924">
        <ele>546</ele>
        <time>2019-07-14T08:54:31.640Z</time>
      </trkpt>
      <trkpt lat="43.82202" lon="2.39944">
        <ele>530</ele>
        <time>2019-07-14T08:54:38.432Z</time>
      </trkpt>
      <trkpt lat="43.82206" lon="2.39956">
        <ele>547.7</ele>
        <time>2019-07-14T08:54:42.674Z</time>
      </trkpt>
      <trkpt lat="43.82216" lon="2.39963">
        <ele>529</ele>
        <time>2019-07-14T08:54:47.657Z</time>
      </trkpt>
      <trkpt lat="43.8223" lon="2.39962">
        <ele>547.3</ele>
        <time>2019-07-14T08:54:53.892Z</time>
      </trkpt>
      <trkpt lat="43.82247" lon="2.39964">
        <ele>530</ele>
        <time>2019-07-14T08:55:01.480Z</time>
      </trkpt>
      <trkpt lat="43.82273" lon="2.39974">
        <ele>532</ele>
        <time>2019-07-14T08:55:13.481Z</time>
      </trkpt>
      <trkpt lat="43.82292" lon="2.39983">
        <ele>532</ele>
        <time>2019-07-14T08:55:22.412Z</time>
      </trkpt>
      <trkpt lat="43.82304" lon="2.39993">
        <ele>545.3</ele>
        <time>2019-07-14T08:55:28.640Z</time>
      </trkpt>
      <trkpt lat="43.82311" lon="2.40006">
        <ele>540</ele>
        <time>2019-07-14T08:55:33.845Z</time>
      </trkpt>
      <trkpt lat="43.82316" lon="2.40018">
        <ele>554.3</ele>
        <time>2019-07-14T08:55:38.292Z</time>
      </trkpt>
      <trkpt lat="43.82317" lon="2.40027">
        <ele>555.1</ele>
        <time>2019-07-14T08:55:41.214Z</time>
      </trkpt>
      <trkpt lat="43.82301" lon="2.40031">
        <ele>549</ele>
        <time>2019-07-14T08:55:48.445Z</time>
      </trkpt>
      <trkpt lat="43.82293" lon="2.40041">
        <ele>556.7</ele>
        <time>2019-07-14T08:55:53.237Z</time>
      </trkpt>
      <trkpt lat="43.82286" lon="2.40054">
        <ele>554</ele>
        <time>2019-07-14T08:55:58.442Z</time>
      </trkpt>
      <trkpt lat="43.82284" lon="2.40074">
        <ele>558.8</ele>
        <time>2019-07-14T08:56:04.921Z</time>
      </trkpt>
      <trkpt lat="43.82279" lon="2.40083">
        <ele>555</ele>
        <time>2019-07-14T08:56:08.566Z</time>
      </trkpt>
      <trkpt lat="43.82272" lon="2.40093">
        <ele>566.6</ele>
        <time>2019-07-14T08:56:13.037Z</time>
      </trkpt>
      <trkpt lat="43.82263" lon="2.40096">
        <ele>566.2</ele>
        <time>2019-07-14T08:56:17.154Z</time>
      </trkpt>
      <trkpt lat="43.82255" lon="2.40102">
        <ele>556</ele>
        <time>2019-07-14T08:56:21.200Z</time>
      </trkpt>
      <trkpt lat="43.82254" lon="2.4011">
        <ele>567.6</ele>
        <time>2019-07-14T08:56:23.805Z</time>
      </trkpt>
      <trkpt lat="43.82273" lon="2.4011">
        <ele>558</ele>
        <time>2019-07-14T08:56:32.256Z</time>
      </trkpt>
      <trkpt lat="43.82308" lon="2.40114">
        <ele>559</ele>
        <time>2019-07-14T08:56:47.876Z</time>
      </trkpt>
      <trkpt lat="43.82328" lon="2.40112">
        <ele>560</ele>
        <time>2019-07-14T08:56:56.795Z</time>
      </trkpt>
      <trkpt lat="43.8236" lon="2.40107">
        <ele>561</ele>
        <time>2019-07-14T08:57:11.118Z</time>
      </trkpt>
      <trkpt lat="43.82387" lon="2.40096">
        <ele>559</ele>
        <time>2019-07-14T08:57:23.635Z</time>
      </trkpt>
      <trkpt lat="43.82411" lon="2.40084">
        <ele>558</ele>
        <time>2019-07-14T08:57:34.983Z</time>
      </trkpt>
      <trkpt lat="43.82428" lon="2.40072">
        <ele>558.9</ele>
        <time>2019-07-14T08:57:43.468Z</time>
      </trkpt>
      <trkpt lat="43.82485" lon="2.40057">
        <ele>545</ele>
        <time>2019-07-14T08:58:09.273Z</time>
      </trkpt>
      <trkpt lat="43.82498" lon="2.40046">
        <ele>557.8</ele>
        <time>2019-07-14T08:58:16.047Z</time>
      </trkpt>
      <trkpt lat="43.82514" lon="2.4002">
        <ele>544</ele>
        <time>2019-07-14T08:58:27.013Z</time>
      </trkpt>
      <trkpt lat="43.82533" lon="2.39987">
        <ele>543</ele>
        <time>2019-07-14T08:58:40.561Z</time>
      </trkpt>
      <trkpt lat="43.82542" lon="2.39974">
        <ele>552</ele>
        <time>2019-07-14T08:58:46.343Z</time>
      </trkpt>
      <trkpt lat="43.82548" lon="2.39955">
        <ele>543</ele>
        <time>2019-07-14T08:58:52.998Z</time>
      </trkpt>
      <trkpt lat="43.82553" lon="2.39953">
        <ele>551.5</ele>
        <time>2019-07-14T08:58:55.313Z</time>
      </trkpt>
      <trkpt lat="43.82569" lon="2.39967">
        <ele>543</ele>
        <time>2019-07-14T08:59:03.729Z</time>
      </trkpt>
      <trkpt lat="43.82589" lon="2.39978">
        <ele>543</ele>
        <time>2019-07-14T08:59:13.299Z</time>
      </trkpt>
      <trkpt lat="43.82602" lon="2.39984">
        <ele>549</ele>
        <time>2019-07-14T08:59:19.393Z</time>
      </trkpt>
      <trkpt lat="43.82628" lon="2.39988">
        <ele>543</ele>
        <time>2019-07-14T08:59:31.028Z</time>
      </trkpt>
      <trkpt lat="43.82636" lon="2.39993">
        <ele>545.8</ele>
        <time>2019-07-14T08:59:34.931Z</time>
      </trkpt>
      <trkpt lat="43.82652" lon="2.4001">
        <ele>542</ele>
        <time>2019-07-14T08:59:43.898Z</time>
      </trkpt>
      <trkpt lat="43.82665" lon="2.40025">
        <ele>548.3</ele>
        <time>2019-07-14T08:59:51.421Z</time>
      </trkpt>
      <trkpt lat="43.8268" lon="2.4005">
        <ele>541</ele>
        <time>2019-07-14T09:00:01.855Z</time>
      </trkpt>
      <trkpt lat="43.82693" lon="2.40081">
        <ele>537</ele>
        <time>2019-07-14T09:00:13.361Z</time>
      </trkpt>
      <trkpt lat="43.82703" lon="2.40114">
        <ele>534</ele>
        <time>2019-07-14T09:00:24.846Z</time>
      </trkpt>
      <trkpt lat="43.82709" lon="2.40139">
        <ele>532.9</ele>
        <time>2019-07-14T09:00:33.300Z</time>
      </trkpt>
      <trkpt lat="43.82711" lon="2.40158">
        <ele>537</ele>
        <time>2019-07-14T09:00:39.461Z</time>
      </trkpt>
      <trkpt lat="43.8271" lon="2.40172">
        <ele>533.9</ele>
        <time>2019-07-14T09:00:43.975Z</time>
      </trkpt>
      <trkpt lat="43.82705" lon="2.40206">
        <ele>536</ele>
        <time>2019-07-14T09:00:55.109Z</time>
      </trkpt>
      <trkpt lat="43.82705" lon="2.40225">
        <ele>536</ele>
        <time>2019-07-14T09:01:01.206Z</time>
      </trkpt>
      <trkpt lat="43.82706" lon="2.40238">
        <ele>536</ele>
        <time>2019-07-14T09:01:05.401Z</time>
      </trkpt>
      <trkpt lat="43.82709" lon="2.40247">
        <ele>535.6</ele>
        <time>2019-07-14T09:01:08.582Z</time>
      </trkpt>
      <trkpt lat="43.82717" lon="2.40252">
        <ele>536.2</ele>
        <time>2019-07-14T09:01:12.485Z</time>
      </trkpt>
      <trkpt lat="43.82729" lon="2.40255">
        <ele>533</ele>
        <time>2019-07-14T09:01:17.908Z</time>
      </trkpt>
      <trkpt lat="43.82741" lon="2.4026">
        <ele>530.8</ele>
        <time>2019-07-14T09:01:23.481Z</time>
      </trkpt>
      <trkpt lat="43.82754" lon="2.4027">
        <ele>522</ele>
        <time>2019-07-14T09:01:30.094Z</time>
      </trkpt>
      <trkpt lat="43.82764" lon="2.40281">
        <ele>518.2</ele>
        <time>2019-07-14T09:01:35.772Z</time>
      </trkpt>
      <trkpt lat="43.82771" lon="2.40293">
        <ele>520</ele>
        <time>2019-07-14T09:01:40.724Z</time>
      </trkpt>
      <trkpt lat="43.82776" lon="2.40312">
        <ele>518.3</ele>
        <time>2019-07-14T09:01:47.214Z</time>
      </trkpt>
      <trkpt lat="43.82782" lon="2.40368">
        <ele>520</ele>
        <time>2019-07-14T09:02:05.380Z</time>
      </trkpt>
      <trkpt lat="43.82783" lon="2.40395">
        <ele>520</ele>
        <time>2019-07-14T09:02:14.055Z</time>
      </trkpt>
      <trkpt lat="43.82782" lon="2.4042">
        <ele>520.4</ele>
        <time>2019-07-14T09:02:22.089Z</time>
      </trkpt>
      <trkpt lat="43.82777" lon="2.40443">
        <ele>525</ele>
        <time>2019-07-14T09:02:29.797Z</time>
      </trkpt>
      <trkpt lat="43.82767" lon="2.40476">
        <ele>520</ele>
        <time>2019-07-14T09:02:41.282Z</time>
      </trkpt>
      <trkpt lat="43.82747" lon="2.40535">
        <ele>519</ele>
        <time>2019-07-14T09:03:02.199Z</time>
      </trkpt>
      <trkpt lat="43.8275" lon="2.40541">
        <ele>515.6</ele>
        <time>2019-07-14T09:03:04.541Z</time>
      </trkpt>
      <trkpt lat="43.82763" lon="2.4054">
        <ele>515.3</ele>
        <time>2019-07-14T09:03:10.332Z</time>
      </trkpt>
      <trkpt lat="43.8278" lon="2.4053">
        <ele>519</ele>
        <time>2019-07-14T09:03:18.546Z</time>
      </trkpt>
      <trkpt lat="43.82799" lon="2.40514">
        <ele>515</ele>
        <time>2019-07-14T09:03:28.434Z</time>
      </trkpt>
      <trkpt lat="43.82819" lon="2.40493">
        <ele>512</ele>
        <time>2019-07-14T09:03:39.594Z</time>
      </trkpt>
      <trkpt lat="43.82834" lon="2.40473">
        <ele>507</ele>
        <time>2019-07-14T09:03:48.851Z</time>
      </trkpt>
      <trkpt lat="43.82849" lon="2.40441">
        <ele>502</ele>
        <time>2019-07-14T09:04:01.096Z</time>
      </trkpt>
      <trkpt lat="43.82853" lon="2.40434">
        <ele>509.3</ele>
        <time>2019-07-14T09:04:03.961Z</time>
      </trkpt>
      <trkpt lat="43.82857" lon="2.40436">
        <ele>509.4</ele>
        <time>2019-07-14T09:04:05.852Z</time>
      </trkpt>
      <trkpt lat="43.82859" lon="2.40452">
        <ele>500</ele>
        <time>2019-07-14T09:04:11.062Z</time>
      </trkpt>
      <trkpt lat="43.82861" lon="2.40475">
        <ele>510.2</ele>
        <time>2019-07-14T09:04:18.495Z</time>
      </trkpt>
      <trkpt lat="43.82862" lon="2.40499">
        <ele>498</ele>
        <time>2019-07-14T09:04:26.209Z</time>
      </trkpt>
      <trkpt lat="43.82866" lon="2.40513">
        <ele>513.9</ele>
        <time>2019-07-14T09:04:31.041Z</time>
      </trkpt>
      <trkpt lat="43.8287" lon="2.40516">
        <ele>514.3</ele>
        <time>2019-07-14T09:04:33.064Z</time>
      </trkpt>
      <trkpt lat="43.82879" lon="2.40506">
        <ele>498</ele>
        <time>2019-07-14T09:04:38.194Z</time>
      </trkpt>
      <trkpt lat="43.82902" lon="2.40473">
        <ele>503</ele>
        <time>2019-07-14T09:04:52.917Z</time>
      </trkpt>
      <trkpt lat="43.82918" lon="2.40449">
        <ele>506</ele>
        <time>2019-07-14T09:05:03.403Z</time>
      </trkpt>
      <trkpt lat="43.82936" lon="2.40418">
        <ele>509</ele>
        <time>2019-07-14T09:05:16.172Z</time>
      </trkpt>
      <trkpt lat="43.82951" lon="2.40398">
        <ele>524</ele>
        <time>2019-07-14T09:05:25.429Z</time>
      </trkpt>
      <trkpt lat="43.8297" lon="2.40353">
        <ele>520</ele>
        <time>2019-07-14T09:05:42.159Z</time>
      </trkpt>
      <trkpt lat="43.82987" lon="2.4032">
        <ele>516</ele>
        <time>2019-07-14T09:05:55.170Z</time>
      </trkpt>
      <trkpt lat="43.82997" lon="2.40302">
        <ele>515.5</ele>
        <time>2019-07-14T09:06:02.460Z</time>
      </trkpt>
      <trkpt lat="43.83009" lon="2.40278">
        <ele>516</ele>
        <time>2019-07-14T09:06:11.830Z</time>
      </trkpt>
      <trkpt lat="43.83014" lon="2.40263">
        <ele>528.8</ele>
        <time>2019-07-14T09:06:17.132Z</time>
      </trkpt>
      <trkpt lat="43.83023" lon="2.4022">
        <ele>522</ele>
        <time>2019-07-14T09:06:31.498Z</time>
      </trkpt>
      <trkpt lat="43.83022" lon="2.40206">
        <ele>532.4</ele>
        <time>2019-07-14T09:06:36.012Z</time>
      </trkpt>
      <trkpt lat="43.83018" lon="2.40195">
        <ele>531.9</ele>
        <time>2019-07-14T09:06:39.965Z</time>
      </trkpt>
      <trkpt lat="43.83011" lon="2.40172">
        <ele>523</ele>
        <time>2019-07-14T09:06:47.975Z</time>
      </trkpt>
      <trkpt lat="43.8301" lon="2.40157">
        <ele>530.1</ele>
        <time>2019-07-14T09:06:52.808Z</time>
      </trkpt>
      <trkpt lat="43.8302" lon="2.40084">
        <ele>524</ele>
        <time>2019-07-14T09:07:16.650Z</time>
      </trkpt>
      <trkpt lat="43.83027" lon="2.40042">
        <ele>530</ele>
        <time>2019-07-14T09:07:30.481Z</time>
      </trkpt>
      <trkpt lat="43.83036" lon="2.40002">
        <ele>530</ele>
        <time>2019-07-14T09:07:43.925Z</time>
      </trkpt>
      <trkpt lat="43.83052" lon="2.39961">
        <ele>533</ele>
        <time>2019-07-14T09:07:58.882Z</time>
      </trkpt>
      <trkpt lat="43.83072" lon="2.39913">
        <ele>536</ele>
        <time>2019-07-14T09:08:16.668Z</time>
      </trkpt>
      <trkpt lat="43.83082" lon="2.39891">
        <ele>534.8</ele>
        <time>2019-07-14T09:08:25.011Z</time>
      </trkpt>
      <trkpt lat="43.83094" lon="2.39876">
        <ele>536</ele>
        <time>2019-07-14T09:08:32.198Z</time>
      </trkpt>
      <trkpt lat="43.83109" lon="2.39865">
        <ele>540.4</ele>
        <time>2019-07-14T09:08:39.746Z</time>
      </trkpt>
      <trkpt lat="43.83117" lon="2.39862">
        <ele>533</ele>
        <time>2019-07-14T09:08:43.432Z</time>
      </trkpt>
      <trkpt lat="43.83126" lon="2.39869">
        <ele>540.7</ele>
        <time>2019-07-14T09:08:48.022Z</time>
      </trkpt>
      <trkpt lat="43.83173" lon="2.39909">
        <ele>533</ele>
        <time>2019-07-14T09:09:12.552Z</time>
      </trkpt>
      <trkpt lat="43.83179" lon="2.39919">
        <ele>542.9</ele>
        <time>2019-07-14T09:09:16.725Z</time>
      </trkpt>
      <trkpt lat="43.83184" lon="2.39934">
        <ele>531</ele>
        <time>2019-07-14T09:09:22.027Z</time>
      </trkpt>
      <trkpt lat="43.83198" lon="2.39886">
        <ele>530</ele>
        <time>2019-07-14T09:09:38.639Z</time>
      </trkpt>
      <trkpt lat="43.83208" lon="2.39854">
        <ele>527</ele>
        <time>2019-07-14T09:09:49.828Z</time>
      </trkpt>
      <trkpt lat="43.83216" lon="2.39819">
        <ele>521</ele>
        <time>2019-07-14T09:10:01.608Z</time>
      </trkpt>
      <trkpt lat="43.83222" lon="2.39785">
        <ele>519</ele>
        <time>2019-07-14T09:10:12.839Z</time>
      </trkpt>
      <trkpt lat="43.83229" lon="2.39748">
        <ele>516</ele>
        <time>2019-07-14T09:10:25.112Z</time>
      </trkpt>
      <trkpt lat="43.8323" lon="2.39713">
        <ele>513</ele>
        <time>2019-07-14T09:10:36.351Z</time>
      </trkpt>
      <trkpt lat="43.83241" lon="2.3967">
        <ele>510</ele>
        <time>2019-07-14T09:10:50.989Z</time>
      </trkpt>
      <trkpt lat="43.8325" lon="2.39632">
        <ele>509</ele>
        <time>2019-07-14T09:11:03.822Z</time>
      </trkpt>
      <trkpt lat="43.83261" lon="2.39606">
        <ele>505</ele>
        <time>2019-07-14T09:11:13.493Z</time>
      </trkpt>
      <trkpt lat="43.83271" lon="2.39576">
        <ele>503</ele>
        <time>2019-07-14T09:11:24.096Z</time>
      </trkpt>
      <trkpt lat="43.83275" lon="2.39561">
        <ele>510.7</ele>
        <time>2019-07-14T09:11:29.227Z</time>
      </trkpt>
      <trkpt lat="43.83276" lon="2.39536">
        <ele>503</ele>
        <time>2019-07-14T09:11:37.261Z</time>
      </trkpt>
      <trkpt lat="43.83275" lon="2.39501">
        <ele>503</ele>
        <time>2019-07-14T09:11:48.499Z</time>
      </trkpt>
      <trkpt lat="43.83276" lon="2.39474">
        <ele>506</ele>
        <time>2019-07-14T09:11:57.173Z</time>
      </trkpt>
      <trkpt lat="43.83286" lon="2.39416">
        <ele>509</ele>
        <time>2019-07-14T09:12:16.306Z</time>
      </trkpt>
      <trkpt lat="43.83286" lon="2.3935">
        <ele>510</ele>
        <time>2019-07-14T09:12:37.482Z</time>
      </trkpt>
      <trkpt lat="43.83285" lon="2.39313">
        <ele>507</ele>
        <time>2019-07-14T09:12:49.362Z</time>
      </trkpt>
      <trkpt lat="43.8328" lon="2.39291">
        <ele>511</ele>
        <time>2019-07-14T09:12:56.763Z</time>
      </trkpt>
      <trkpt lat="43.8327" lon="2.39275">
        <ele>504</ele>
        <time>2019-07-14T09:13:03.555Z</time>
      </trkpt>
      <trkpt lat="43.8326" lon="2.39265">
        <ele>509.8</ele>
        <time>2019-07-14T09:13:09.039Z</time>
      </trkpt>
      <trkpt lat="43.83233" lon="2.3923">
        <ele>496</ele>
        <time>2019-07-14T09:13:25.481Z</time>
      </trkpt>
      <trkpt lat="43.8322" lon="2.39199">
        <ele>495</ele>
        <time>2019-07-14T09:13:36.986Z</time>
      </trkpt>
      <trkpt lat="43.83206" lon="2.39162">
        <ele>490</ele>
        <time>2019-07-14T09:13:50.391Z</time>
      </trkpt>
      <trkpt lat="43.83204" lon="2.39129">
        <ele>488</ele>
        <time>2019-07-14T09:14:01.016Z</time>
      </trkpt>
      <trkpt lat="43.83207" lon="2.39101">
        <ele>488</ele>
        <time>2019-07-14T09:14:10.098Z</time>
      </trkpt>
      <trkpt lat="43.8322" lon="2.39063">
        <ele>493</ele>
        <time>2019-07-14T09:14:23.592Z</time>
      </trkpt>
      <trkpt lat="43.83237" lon="2.39023">
        <ele>492</ele>
        <time>2019-07-14T09:14:38.488Z</time>
      </trkpt>
      <trkpt lat="43.8325" lon="2.3899">
        <ele>492</ele>
        <time>2019-07-14T09:14:50.552Z</time>
      </trkpt>
      <trkpt lat="43.83267" lon="2.38949">
        <ele>489</ele>
        <time>2019-07-14T09:15:05.725Z</time>
      </trkpt>
      <trkpt lat="43.83269" lon="2.38914">
        <ele>480</ele>
        <time>2019-07-14T09:15:16.990Z</time>
      </trkpt>
      <trkpt lat="43.8327" lon="2.38876">
        <ele>474</ele>
        <time>2019-07-14T09:15:29.190Z</time>
      </trkpt>
      <trkpt lat="43.83279" lon="2.38832">
        <ele>469</ele>
        <time>2019-07-14T09:15:43.864Z</time>
      </trkpt>
      <trkpt lat="43.83287" lon="2.38788">
        <ele>453</ele>
        <time>2019-07-14T09:15:58.423Z</time>
      </trkpt>
      <trkpt lat="43.83294" lon="2.3875">
        <ele>448</ele>
        <time>2019-07-14T09:16:11.006Z</time>
      </trkpt>
      <trkpt lat="43.83305" lon="2.38697">
        <ele>443</ele>
        <time>2019-07-14T09:16:28.701Z</time>
      </trkpt>
      <trkpt lat="43.83315" lon="2.38651">
        <ele>442</ele>
        <time>2019-07-14T09:16:44.116Z</time>
      </trkpt>
      <trkpt lat="43.83321" lon="2.38617">
        <ele>441</ele>
        <time>2019-07-14T09:16:55.346Z</time>
      </trkpt>
      <trkpt lat="43.83328" lon="2.38583">
        <ele>439</ele>
        <time>2019-07-14T09:17:06.690Z</time>
      </trkpt>
      <trkpt lat="43.83332" lon="2.38547">
        <ele>431</ele>
        <time>2019-07-14T09:17:18.377Z</time>
      </trkpt>
      <trkpt lat="43.83337" lon="2.38504">
        <ele>428</ele>
        <time>2019-07-14T09:17:32.351Z</time>
      </trkpt>
      <trkpt lat="43.83341" lon="2.38461">
        <ele>426</ele>
        <time>2019-07-14T09:17:46.262Z</time>
      </trkpt>
      <trkpt lat="43.83347" lon="2.38422">
        <ele>417</ele>
        <time>2019-07-14T09:17:59.056Z</time>
      </trkpt>
      <trkpt lat="43.83356" lon="2.38368">
        <ele>403</ele>
        <time>2019-07-14T09:18:16.838Z</time>
      </trkpt>
      <trkpt lat="43.83346" lon="2.38334">
        <ele>398</ele>
        <time>2019-07-14T09:18:28.619Z</time>
      </trkpt>
      <trkpt lat="43.83334" lon="2.38295">
        <ele>386</ele>
        <time>2019-07-14T09:18:42.223Z</time>
      </trkpt>
      <trkpt lat="43.83321" lon="2.38259">
        <ele>381</ele>
        <time>2019-07-14T09:18:55.140Z</time>
      </trkpt>
      <trkpt lat="43.83301" lon="2.38203">
        <ele>379</ele>
        <time>2019-07-14T09:19:15.189Z</time>
      </trkpt>
      <trkpt lat="43.83286" lon="2.38165">
        <ele>377</ele>
        <time>2019-07-14T09:19:29.087Z</time>
      </trkpt>
      <trkpt lat="43.83273" lon="2.38134">
        <ele>375</ele>
        <time>2019-07-14T09:19:40.592Z</time>
      </trkpt>
      <trkpt lat="43.83258" lon="2.38093">
        <ele>364</ele>
        <time>2019-07-14T09:19:55.342Z</time>
      </trkpt>
      <trkpt lat="43.83272" lon="2.38091">
        <ele>383.4</ele>
        <time>2019-07-14T09:20:01.602Z</time>
      </trkpt>
      <trkpt lat="43.83279" lon="2.38095">
        <ele>366</ele>
        <time>2019-07-14T09:20:04.970Z</time>
      </trkpt>
      <trkpt lat="43.83294" lon="2.38116">
        <ele>368</ele>
        <time>2019-07-14T09:20:14.452Z</time>
      </trkpt>
      <trkpt lat="43.83309" lon="2.38127">
        <ele>382.8</ele>
        <time>2019-07-14T09:20:22.000Z</time>
      </trkpt>
      <trkpt lat="43.83321" lon="2.38127">
        <ele>368</ele>
        <time>2019-07-14T09:20:27.337Z</time>
      </trkpt>
      <trkpt lat="43.83321" lon="2.38089">
        <ele>367</ele>
        <time>2019-07-14T09:20:39.529Z</time>
      </trkpt>
      <trkpt lat="43.83317" lon="2.38052">
        <ele>367</ele>
        <time>2019-07-14T09:20:51.533Z</time>
      </trkpt>
      <trkpt lat="43.8332" lon="2.38006">
        <ele>368</ele>
        <time>2019-07-14T09:21:06.352Z</time>
      </trkpt>
      <trkpt lat="43.83327" lon="2.37985">
        <ele>372.9</ele>
        <time>2019-07-14T09:21:13.774Z</time>
      </trkpt>
      <trkpt lat="43.83341" lon="2.3796">
        <ele>370</ele>
        <time>2019-07-14T09:21:23.928Z</time>
      </trkpt>
      <trkpt lat="43.83356" lon="2.37939">
        <ele>373</ele>
        <time>2019-07-14T09:21:33.410Z</time>
      </trkpt>
      <trkpt lat="43.83369" lon="2.37918">
        <ele>373</ele>
        <time>2019-07-14T09:21:42.289Z</time>
      </trkpt>
      <trkpt lat="43.83372" lon="2.37905">
        <ele>378.6</ele>
        <time>2019-07-14T09:21:46.668Z</time>
      </trkpt>
      <trkpt lat="43.83372" lon="2.37869">
        <ele>375</ele>
        <time>2019-07-14T09:21:58.218Z</time>
      </trkpt>
      <trkpt lat="43.83369" lon="2.37834">
        <ele>378</ele>
        <time>2019-07-14T09:22:09.527Z</time>
      </trkpt>
      <trkpt lat="43.83363" lon="2.37797">
        <ele>388</ele>
        <time>2019-07-14T09:22:21.694Z</time>
      </trkpt>
      <trkpt lat="43.83351" lon="2.3776">
        <ele>385</ele>
        <time>2019-07-14T09:22:34.710Z</time>
      </trkpt>
      <trkpt lat="43.83338" lon="2.37731">
        <ele>384</ele>
        <time>2019-07-14T09:22:45.665Z</time>
      </trkpt>
      <trkpt lat="43.83316" lon="2.37698">
        <ele>384</ele>
        <time>2019-07-14T09:23:00.082Z</time>
      </trkpt>
      <trkpt lat="43.83293" lon="2.37671">
        <ele>384</ele>
        <time>2019-07-14T09:23:13.487Z</time>
      </trkpt>
      <trkpt lat="43.83272" lon="2.37647">
        <ele>385</ele>
        <time>2019-07-14T09:23:25.592Z</time>
      </trkpt>
      <trkpt lat="43.83246" lon="2.37618">
        <ele>388</ele>
        <time>2019-07-14T09:23:40.435Z</time>
      </trkpt>
      <trkpt lat="43.83238" lon="2.37604">
        <ele>392.1</ele>
        <time>2019-07-14T09:23:46.165Z</time>
      </trkpt>
      <trkpt lat="43.83237" lon="2.37592">
        <ele>395</ele>
        <time>2019-07-14T09:23:50.041Z</time>
      </trkpt>
      <trkpt lat="43.83244" lon="2.37575">
        <ele>395.6</ele>
        <time>2019-07-14T09:23:56.321Z</time>
      </trkpt>
      <trkpt lat="43.83254" lon="2.37563">
        <ele>395</ele>
        <time>2019-07-14T09:24:02.204Z</time>
      </trkpt>
      <trkpt lat="43.83275" lon="2.37527">
        <ele>397</ele>
        <time>2019-07-14T09:24:17.059Z</time>
      </trkpt>
      <trkpt lat="43.83295" lon="2.37495">
        <ele>397</ele>
        <time>2019-07-14T09:24:30.644Z</time>
      </trkpt>
      <trkpt lat="43.83312" lon="2.3747">
        <ele>396</ele>
        <time>2019-07-14T09:24:41.667Z</time>
      </trkpt>
      <trkpt lat="43.8333" lon="2.37442">
        <ele>396</ele>
        <time>2019-07-14T09:24:53.700Z</time>
      </trkpt>
      <trkpt lat="43.83336" lon="2.37423">
        <ele>404.1</ele>
        <time>2019-07-14T09:25:00.355Z</time>
      </trkpt>
      <trkpt lat="43.83333" lon="2.37402">
        <ele>394</ele>
        <time>2019-07-14T09:25:07.224Z</time>
      </trkpt>
      <trkpt lat="43.83322" lon="2.37377">
        <ele>393</ele>
        <time>2019-07-14T09:25:16.620Z</time>
      </trkpt>
      <trkpt lat="43.83312" lon="2.37356">
        <ele>402.8</ele>
        <time>2019-07-14T09:25:24.693Z</time>
      </trkpt>
      <trkpt lat="43.83309" lon="2.37334">
        <ele>397</ele>
        <time>2019-07-14T09:25:31.877Z</time>
      </trkpt>
      <trkpt lat="43.83311" lon="2.37318">
        <ele>405.1</ele>
        <time>2019-07-14T09:25:37.087Z</time>
      </trkpt>
      <trkpt lat="43.83322" lon="2.37304">
        <ele>402</ele>
        <time>2019-07-14T09:25:43.729Z</time>
      </trkpt>
      <trkpt lat="43.8334" lon="2.37296">
        <ele>414.1</ele>
        <time>2019-07-14T09:25:52.136Z</time>
      </trkpt>
      <trkpt lat="43.83351" lon="2.37296">
        <ele>404</ele>
        <time>2019-07-14T09:25:57.029Z</time>
      </trkpt>
      <trkpt lat="43.83364" lon="2.37302">
        <ele>415.4</ele>
        <time>2019-07-14T09:26:03.123Z</time>
      </trkpt>
      <trkpt lat="43.83378" lon="2.3732">
        <ele>406</ele>
        <time>2019-07-14T09:26:11.616Z</time>
      </trkpt>
      <trkpt lat="43.83399" lon="2.3734">
        <ele>406</ele>
        <time>2019-07-14T09:26:22.948Z</time>
      </trkpt>
      <trkpt lat="43.83398" lon="2.37319">
        <ele>417.8</ele>
        <time>2019-07-14T09:26:29.700Z</time>
      </trkpt>
      <trkpt lat="43.83395" lon="2.37295">
        <ele>416</ele>
        <time>2019-07-14T09:26:37.515Z</time>
      </trkpt>
      <trkpt lat="43.8339" lon="2.37277">
        <ele>419.9</ele>
        <time>2019-07-14T09:26:43.704Z</time>
      </trkpt>
      <trkpt lat="43.83368" lon="2.37234">
        <ele>419</ele>
        <time>2019-07-14T09:27:00.618Z</time>
      </trkpt>
      <trkpt lat="43.83353" lon="2.37184">
        <ele>433</ele>
        <time>2019-07-14T09:27:17.992Z</time>
      </trkpt>
      <trkpt lat="43.83341" lon="2.37172">
        <ele>433.3</ele>
        <time>2019-07-14T09:27:24.573Z</time>
      </trkpt>
      <trkpt lat="43.83327" lon="2.37164">
        <ele>434</ele>
        <time>2019-07-14T09:27:31.308Z</time>
      </trkpt>
      <trkpt lat="43.83315" lon="2.37159">
        <ele>432.5</ele>
        <time>2019-07-14T09:27:36.881Z</time>
      </trkpt>
      <trkpt lat="43.833" lon="2.37151">
        <ele>437</ele>
        <time>2019-07-14T09:27:44.029Z</time>
      </trkpt>
      <trkpt lat="43.8329" lon="2.3714">
        <ele>430.8</ele>
        <time>2019-07-14T09:27:49.707Z</time>
      </trkpt>
      <trkpt lat="43.83287" lon="2.37126">
        <ele>437</ele>
        <time>2019-07-14T09:27:54.393Z</time>
      </trkpt>
      <trkpt lat="43.83289" lon="2.37105">
        <ele>432.5</ele>
        <time>2019-07-14T09:28:01.189Z</time>
      </trkpt>
      <trkpt lat="43.83298" lon="2.3709">
        <ele>438</ele>
        <time>2019-07-14T09:28:07.449Z</time>
      </trkpt>
      <trkpt lat="43.83324" lon="2.37068">
        <ele>443</ele>
        <time>2019-07-14T09:28:20.997Z</time>
      </trkpt>
      <trkpt lat="43.83345" lon="2.37051">
        <ele>443</ele>
        <time>2019-07-14T09:28:31.813Z</time>
      </trkpt>
      <trkpt lat="43.83366" lon="2.37034">
        <ele>443</ele>
        <time>2019-07-14T09:28:42.629Z</time>
      </trkpt>
      <trkpt lat="43.83392" lon="2.37008">
        <ele>444</ele>
        <time>2019-07-14T09:28:56.888Z</time>
      </trkpt>
      <trkpt lat="43.83414" lon="2.36987">
        <ele>445</ele>
        <time>2019-07-14T09:29:08.768Z</time>
      </trkpt>
      <trkpt lat="43.83441" lon="2.36961">
        <ele>447</ele>
        <time>2019-07-14T09:29:23.390Z</time>
      </trkpt>
      <trkpt lat="43.83458" lon="2.36937">
        <ele>447</ele>
        <time>2019-07-14T09:29:34.182Z</time>
      </trkpt>
      <trkpt lat="43.83476" lon="2.36913">
        <ele>447</ele>
        <time>2019-07-14T09:29:45.290Z</time>
      </trkpt>
      <trkpt lat="43.83487" lon="2.36863">
        <ele>445</ele>
        <time>2019-07-14T09:30:02.061Z</time>
      </trkpt>
      <trkpt lat="43.83469" lon="2.3685">
        <ele>445</ele>
        <time>2019-07-14T09:30:11.088Z</time>
      </trkpt>
      <trkpt lat="43.83453" lon="2.36855">
        <ele>457.2</ele>
        <time>2019-07-14T09:30:18.383Z</time>
      </trkpt>
      <trkpt lat="43.83433" lon="2.36893">
        <ele>448</ele>
        <time>2019-07-14T09:30:33.475Z</time>
      </trkpt>
      <trkpt lat="43.83403" lon="2.36907">
        <ele>450</ele>
        <time>2019-07-14T09:30:47.554Z</time>
      </trkpt>
      <trkpt lat="43.83377" lon="2.36919">
        <ele>455</ele>
        <time>2019-07-14T09:30:59.742Z</time>
      </trkpt>
      <trkpt lat="43.83346" lon="2.36933">
        <ele>458</ele>
        <time>2019-07-14T09:31:14.243Z</time>
      </trkpt>
      <trkpt lat="43.83321" lon="2.36939">
        <ele>458</ele>
        <time>2019-07-14T09:31:25.528Z</time>
      </trkpt>
      <trkpt lat="43.83292" lon="2.36946">
        <ele>456</ele>
        <time>2019-07-14T09:31:38.621Z</time>
      </trkpt>
      <trkpt lat="43.83257" lon="2.36918">
        <ele>458</ele>
        <time>2019-07-14T09:31:56.595Z</time>
      </trkpt>
      <trkpt lat="43.83231" lon="2.36931">
        <ele>461</ele>
        <time>2019-07-14T09:32:08.888Z</time>
      </trkpt>
      <trkpt lat="43.83197" lon="2.3695">
        <ele>461</ele>
        <time>2019-07-14T09:32:25.193Z</time>
      </trkpt>
      <trkpt lat="43.83169" lon="2.36968">
        <ele>459</ele>
        <time>2019-07-14T09:32:38.921Z</time>
      </trkpt>
      <trkpt lat="43.83145" lon="2.36947">
        <ele>460</ele>
        <time>2019-07-14T09:32:51.544Z</time>
      </trkpt>
      <trkpt lat="43.83112" lon="2.36917">
        <ele>461</ele>
        <time>2019-07-14T09:33:09.096Z</time>
      </trkpt>
      <trkpt lat="43.83098" lon="2.36862">
        <ele>464</ele>
        <time>2019-07-14T09:33:27.810Z</time>
      </trkpt>
      <trkpt lat="43.83098" lon="2.36815">
        <ele>469</ele>
        <time>2019-07-14T09:33:42.890Z</time>
      </trkpt>
      <trkpt lat="43.83098" lon="2.36769">
        <ele>472</ele>
        <time>2019-07-14T09:33:57.649Z</time>
      </trkpt>
      <trkpt lat="43.83098" lon="2.3671">
        <ele>475</ele>
        <time>2019-07-14T09:34:16.580Z</time>
      </trkpt>
      <trkpt lat="43.8309" lon="2.36673">
        <ele>478</ele>
        <time>2019-07-14T09:34:28.974Z</time>
      </trkpt>
      <trkpt lat="43.83081" lon="2.3665">
        <ele>481.9</ele>
        <time>2019-07-14T09:34:37.370Z</time>
      </trkpt>
      <trkpt lat="43.83072" lon="2.36617">
        <ele>478</ele>
        <time>2019-07-14T09:34:48.690Z</time>
      </trkpt>
      <trkpt lat="43.83067" lon="2.3659">
        <ele>478</ele>
        <time>2019-07-14T09:34:57.634Z</time>
      </trkpt>
      <trkpt lat="43.83064" lon="2.36564">
        <ele>483.4</ele>
        <time>2019-07-14T09:35:06.082Z</time>
      </trkpt>
      <trkpt lat="43.83066" lon="2.36549">
        <ele>476</ele>
        <time>2019-07-14T09:35:10.976Z</time>
      </trkpt>
      <trkpt lat="43.83071" lon="2.36532">
        <ele>481.8</ele>
        <time>2019-07-14T09:35:16.867Z</time>
      </trkpt>
      <trkpt lat="43.8308" lon="2.36521">
        <ele>474</ele>
        <time>2019-07-14T09:35:22.204Z</time>
      </trkpt>
      <trkpt lat="43.83092" lon="2.36515">
        <ele>486.8</ele>
        <time>2019-07-14T09:35:27.878Z</time>
      </trkpt>
      <trkpt lat="43.83114" lon="2.36517">
        <ele>473</ele>
        <time>2019-07-14T09:35:37.684Z</time>
      </trkpt>
      <trkpt lat="43.83135" lon="2.36517">
        <ele>472</ele>
        <time>2019-07-14T09:35:47.024Z</time>
      </trkpt>
      <trkpt lat="43.83149" lon="2.36511">
        <ele>492.6</ele>
        <time>2019-07-14T09:35:53.542Z</time>
      </trkpt>
      <trkpt lat="43.8316" lon="2.36493">
        <ele>472</ele>
        <time>2019-07-14T09:36:01.111Z</time>
      </trkpt>
      <trkpt lat="43.83167" lon="2.36466">
        <ele>481</ele>
        <time>2019-07-14T09:36:10.317Z</time>
      </trkpt>
      <trkpt lat="43.83172" lon="2.36443">
        <ele>494.1</ele>
        <time>2019-07-14T09:36:18.024Z</time>
      </trkpt>
      <trkpt lat="43.83181" lon="2.36428">
        <ele>482</ele>
        <time>2019-07-14T09:36:24.284Z</time>
      </trkpt>
      <trkpt lat="43.83192" lon="2.3642">
        <ele>494.2</ele>
        <time>2019-07-14T09:36:29.809Z</time>
      </trkpt>
      <trkpt lat="43.832" lon="2.36406">
        <ele>484</ele>
        <time>2019-07-14T09:36:35.539Z</time>
      </trkpt>
      <trkpt lat="43.83201" lon="2.36387">
        <ele>491.9</ele>
        <time>2019-07-14T09:36:41.651Z</time>
      </trkpt>
      <trkpt lat="43.83186" lon="2.36342">
        <ele>486</ele>
        <time>2019-07-14T09:36:57.556Z</time>
      </trkpt>
      <trkpt lat="43.83182" lon="2.36314">
        <ele>486</ele>
        <time>2019-07-14T09:37:06.714Z</time>
      </trkpt>
      <trkpt lat="43.83178" lon="2.36297">
        <ele>489</ele>
        <time>2019-07-14T09:37:12.451Z</time>
      </trkpt>
      <trkpt lat="43.8317" lon="2.36272">
        <ele>484</ele>
        <time>2019-07-14T09:37:21.226Z</time>
      </trkpt>
      <trkpt lat="43.83159" lon="2.36252">
        <ele>490.1</ele>
        <time>2019-07-14T09:37:29.295Z</time>
      </trkpt>
      <trkpt lat="43.8315" lon="2.36241">
        <ele>482</ele>
        <time>2019-07-14T09:37:34.632Z</time>
      </trkpt>
      <trkpt lat="43.83139" lon="2.36232">
        <ele>485.6</ele>
        <time>2019-07-14T09:37:40.313Z</time>
      </trkpt>
      <trkpt lat="43.83092" lon="2.36217">
        <ele>480</ele>
        <time>2019-07-14T09:38:01.765Z</time>
      </trkpt>
      <trkpt lat="43.83078" lon="2.36218">
        <ele>474</ele>
        <time>2019-07-14T09:38:08.000Z</time>
      </trkpt>
      <trkpt lat="43.83064" lon="2.36214">
        <ele>477</ele>
        <time>2019-07-14T09:38:14.358Z</time>
      </trkpt>
      <trkpt lat="43.83051" lon="2.36203">
        <ele>471.4</ele>
        <time>2019-07-14T09:38:21.132Z</time>
      </trkpt>
      <trkpt lat="43.83035" lon="2.3618">
        <ele>474</ele>
        <time>2019-07-14T09:38:31.384Z</time>
      </trkpt>
      <trkpt lat="43.83011" lon="2.36131">
        <ele>468</ele>
        <time>2019-07-14T09:38:50.388Z</time>
      </trkpt>
      <trkpt lat="43.83" lon="2.36116">
        <ele>462.1</ele>
        <time>2019-07-14T09:38:57.251Z</time>
      </trkpt>
      <trkpt lat="43.82987" lon="2.361">
        <ele>464</ele>
        <time>2019-07-14T09:39:04.983Z</time>
      </trkpt>
      <trkpt lat="43.82971" lon="2.36092">
        <ele>460.9</ele>
        <time>2019-07-14T09:39:12.548Z</time>
      </trkpt>
      <trkpt lat="43.82946" lon="2.36076">
        <ele>462</ele>
        <time>2019-07-14T09:39:24.795Z</time>
      </trkpt>
      <trkpt lat="43.82936" lon="2.36062">
        <ele>461.7</ele>
        <time>2019-07-14T09:39:31.117Z</time>
      </trkpt>
      <trkpt lat="43.82925" lon="2.36039">
        <ele>460</ele>
        <time>2019-07-14T09:39:39.971Z</time>
      </trkpt>
      <trkpt lat="43.82916" lon="2.36022">
        <ele>454.8</ele>
        <time>2019-07-14T09:39:46.737Z</time>
      </trkpt>
      <trkpt lat="43.82905" lon="2.3601">
        <ele>458</ele>
        <time>2019-07-14T09:39:52.963Z</time>
      </trkpt>
      <trkpt lat="43.82892" lon="2.36003">
        <ele>453.4</ele>
        <time>2019-07-14T09:39:59.166Z</time>
      </trkpt>
      <trkpt lat="43.82865" lon="2.35994">
        <ele>456</ele>
        <time>2019-07-14T09:40:11.517Z</time>
      </trkpt>
      <trkpt lat="43.82853" lon="2.35992">
        <ele>451.8</ele>
        <time>2019-07-14T09:40:16.893Z</time>
      </trkpt>
      <trkpt lat="43.82841" lon="2.35985">
        <ele>449</ele>
        <time>2019-07-14T09:40:22.684Z</time>
      </trkpt>
      <trkpt lat="43.82833" lon="2.35973">
        <ele>438.6</ele>
        <time>2019-07-14T09:40:27.927Z</time>
      </trkpt>
      <trkpt lat="43.82825" lon="2.35943">
        <ele>449</ele>
        <time>2019-07-14T09:40:38.190Z</time>
      </trkpt>
      <trkpt lat="43.82823" lon="2.35928">
        <ele>443.2</ele>
        <time>2019-07-14T09:40:43.085Z</time>
      </trkpt>
      <trkpt lat="43.82815" lon="2.35884">
        <ele>435</ele>
        <time>2019-07-14T09:40:57.645Z</time>
      </trkpt>
      <trkpt lat="43.82811" lon="2.35868">
        <ele>439</ele>
        <time>2019-07-14T09:41:03.078Z</time>
      </trkpt>
      <trkpt lat="43.8281" lon="2.35856">
        <ele>431</ele>
        <time>2019-07-14T09:41:06.954Z</time>
      </trkpt>
      <trkpt lat="43.82813" lon="2.35827">
        <ele>430</ele>
        <time>2019-07-14T09:41:16.355Z</time>
      </trkpt>
      <trkpt lat="43.82821" lon="2.35808">
        <ele>433</ele>
        <time>2019-07-14T09:41:23.414Z</time>
      </trkpt>
      <trkpt lat="43.82827" lon="2.35792">
        <ele>430</ele>
        <time>2019-07-14T09:41:29.200Z</time>
      </trkpt>
      <trkpt lat="43.82838" lon="2.35772">
        <ele>439.3</ele>
        <time>2019-07-14T09:41:37.270Z</time>
      </trkpt>
      <trkpt lat="43.82861" lon="2.35737">
        <ele>420</ele>
        <time>2019-07-14T09:41:52.461Z</time>
      </trkpt>
      <trkpt lat="43.82878" lon="2.35716">
        <ele>420</ele>
        <time>2019-07-14T09:42:02.589Z</time>
      </trkpt>
      <trkpt lat="43.82883" lon="2.35711">
        <ele>425</ele>
        <time>2019-07-14T09:42:05.331Z</time>
      </trkpt>
      <trkpt lat="43.82918" lon="2.35681">
        <ele>420</ele>
        <time>2019-07-14T09:42:23.634Z</time>
      </trkpt>
      <trkpt lat="43.82942" lon="2.35663">
        <ele>420</ele>
        <time>2019-07-14T09:42:35.771Z</time>
      </trkpt>
      <trkpt lat="43.8296" lon="2.35654">
        <ele>418</ele>
        <time>2019-07-14T09:42:44.282Z</time>
      </trkpt>
      <trkpt lat="43.82975" lon="2.35645">
        <ele>415</ele>
        <time>2019-07-14T09:42:51.552Z</time>
      </trkpt>
      <trkpt lat="43.82994" lon="2.35636">
        <ele>414</ele>
        <time>2019-07-14T09:43:00.483Z</time>
      </trkpt>
      <trkpt lat="43.83004" lon="2.35634">
        <ele>418.9</ele>
        <time>2019-07-14T09:43:04.977Z</time>
      </trkpt>
      <trkpt lat="43.83027" lon="2.35635">
        <ele>412</ele>
        <time>2019-07-14T09:43:15.212Z</time>
      </trkpt>
      <trkpt lat="43.83048" lon="2.35639">
        <ele>412</ele>
        <time>2019-07-14T09:43:24.640Z</time>
      </trkpt>
      <trkpt lat="43.83088" lon="2.35639">
        <ele>410</ele>
        <time>2019-07-14T09:43:42.431Z</time>
      </trkpt>
      <trkpt lat="43.83116" lon="2.35636">
        <ele>409</ele>
        <time>2019-07-14T09:43:54.922Z</time>
      </trkpt>
      <trkpt lat="43.83125" lon="2.35633">
        <ele>409</ele>
        <time>2019-07-14T09:43:59.039Z</time>
      </trkpt>
      <trkpt lat="43.83134" lon="2.35624">
        <ele>397</ele>
        <time>2019-07-14T09:44:03.975Z</time>
      </trkpt>
      <trkpt lat="43.83146" lon="2.35606">
        <ele>403.8</ele>
        <time>2019-07-14T09:44:11.839Z</time>
      </trkpt>
      <trkpt lat="43.83151" lon="2.35606">
        <ele>397</ele>
        <time>2019-07-14T09:44:14.063Z</time>
      </trkpt>
      <trkpt lat="43.83156" lon="2.35609">
        <ele>403.6</ele>
        <time>2019-07-14T09:44:16.486Z</time>
      </trkpt>
      <trkpt lat="43.83162" lon="2.35615">
        <ele>404.5</ele>
        <time>2019-07-14T09:44:19.777Z</time>
      </trkpt>
      <trkpt lat="43.83164" lon="2.35623">
        <ele>406</ele>
        <time>2019-07-14T09:44:22.494Z</time>
      </trkpt>
      <trkpt lat="43.83168" lon="2.35632">
        <ele>400</ele>
        <time>2019-07-14T09:44:25.886Z</time>
      </trkpt>
      <trkpt lat="43.83176" lon="2.3566">
        <ele>400</ele>
        <time>2019-07-14T09:44:35.549Z</time>
      </trkpt>
      <trkpt lat="43.83178" lon="2.35678">
        <ele>416.7</ele>
        <time>2019-07-14T09:44:41.392Z</time>
      </trkpt>
      <trkpt lat="43.83181" lon="2.35694">
        <ele>402</ele>
        <time>2019-07-14T09:44:46.696Z</time>
      </trkpt>
      <trkpt lat="43.83184" lon="2.35703">
        <ele>419.8</ele>
        <time>2019-07-14T09:44:49.877Z</time>
      </trkpt>
      <trkpt lat="43.83188" lon="2.35708">
        <ele>420.4</ele>
        <time>2019-07-14T09:44:52.273Z</time>
      </trkpt>
      <trkpt lat="43.83195" lon="2.35706">
        <ele>401</ele>
        <time>2019-07-14T09:44:55.452Z</time>
      </trkpt>
      <trkpt lat="43.83202" lon="2.35699">
        <ele>420.1</ele>
        <time>2019-07-14T09:44:59.291Z</time>
      </trkpt>
      <trkpt lat="43.83221" lon="2.35677">
        <ele>401</ele>
        <time>2019-07-14T09:45:10.302Z</time>
      </trkpt>
      <trkpt lat="43.83231" lon="2.35663">
        <ele>411.3</ele>
        <time>2019-07-14T09:45:16.623Z</time>
      </trkpt>
      <trkpt lat="43.83233" lon="2.35651">
        <ele>400</ele>
        <time>2019-07-14T09:45:20.575Z</time>
      </trkpt>
      <trkpt lat="43.83236" lon="2.35641">
        <ele>409.3</ele>
        <time>2019-07-14T09:45:24.050Z</time>
      </trkpt>
      <trkpt lat="43.83245" lon="2.35622">
        <ele>400</ele>
        <time>2019-07-14T09:45:31.343Z</time>
      </trkpt>
      <trkpt lat="43.83247" lon="2.35614">
        <ele>406.1</ele>
        <time>2019-07-14T09:45:34.060Z</time>
      </trkpt>
      <trkpt lat="43.83246" lon="2.35603">
        <ele>404.8</ele>
        <time>2019-07-14T09:45:37.617Z</time>
      </trkpt>
      <trkpt lat="43.83241" lon="2.35578">
        <ele>393</ele>
        <time>2019-07-14T09:45:45.941Z</time>
      </trkpt>
      <trkpt lat="43.83242" lon="2.35568">
        <ele>396.8</ele>
        <time>2019-07-14T09:45:49.180Z</time>
      </trkpt>
      <trkpt lat="43.83248" lon="2.35539">
        <ele>384</ele>
        <time>2019-07-14T09:45:58.860Z</time>
      </trkpt>
      <trkpt lat="43.83258" lon="2.35516">
        <ele>394.7</ele>
        <time>2019-07-14T09:46:07.476Z</time>
      </trkpt>
      <trkpt lat="43.83265" lon="2.35505">
        <ele>385</ele>
        <time>2019-07-14T09:46:12.182Z</time>
      </trkpt>
      <trkpt lat="43.83271" lon="2.35493">
        <ele>392.1</ele>
        <time>2019-07-14T09:46:16.867Z</time>
      </trkpt>
      <trkpt lat="43.83276" lon="2.35485">
        <ele>392.9</ele>
        <time>2019-07-14T09:46:20.263Z</time>
      </trkpt>
      <trkpt lat="43.83281" lon="2.35473">
        <ele>386</ele>
        <time>2019-07-14T09:46:24.709Z</time>
      </trkpt>
      <trkpt lat="43.83282" lon="2.35465">
        <ele>394.2</ele>
        <time>2019-07-14T09:46:27.314Z</time>
      </trkpt>
      <trkpt lat="43.8328" lon="2.35461">
        <ele>394.4</ele>
        <time>2019-07-14T09:46:28.876Z</time>
      </trkpt>
      <trkpt lat="43.83278" lon="2.35453">
        <ele>394.8</ele>
        <time>2019-07-14T09:46:31.593Z</time>
      </trkpt>
      <trkpt lat="43.8328" lon="2.35444">
        <ele>391</ele>
        <time>2019-07-14T09:46:34.615Z</time>
      </trkpt>
      <trkpt lat="43.83287" lon="2.35428">
        <ele>395.5</ele>
        <time>2019-07-14T09:46:40.619Z</time>
      </trkpt>
      <trkpt lat="43.83295" lon="2.35407">
        <ele>397</ele>
        <time>2019-07-14T09:46:48.239Z</time>
      </trkpt>
      <trkpt lat="43.83299" lon="2.35401">
        <ele>409.3</ele>
        <time>2019-07-14T09:46:50.860Z</time>
      </trkpt>
      <trkpt lat="43.83303" lon="2.35392">
        <ele>410.5</ele>
        <time>2019-07-14T09:46:54.252Z</time>
      </trkpt>
      <trkpt lat="43.8331" lon="2.35385">
        <ele>404</ele>
        <time>2019-07-14T09:46:58.091Z</time>
      </trkpt>
      <trkpt lat="43.83324" lon="2.35377">
        <ele>412.9</ele>
        <time>2019-07-14T09:47:04.826Z</time>
      </trkpt>
      <trkpt lat="43.83342" lon="2.35369">
        <ele>408</ele>
        <time>2019-07-14T09:47:13.233Z</time>
      </trkpt>
      <trkpt lat="43.8335" lon="2.35367">
        <ele>415.5</ele>
        <time>2019-07-14T09:47:16.849Z</time>
      </trkpt>
      <trkpt lat="43.83367" lon="2.3537">
        <ele>412</ele>
        <time>2019-07-14T09:47:24.471Z</time>
      </trkpt>
      <trkpt lat="43.83382" lon="2.35376">
        <ele>414.7</ele>
        <time>2019-07-14T09:47:31.415Z</time>
      </trkpt>
      <trkpt lat="43.83398" lon="2.3538">
        <ele>422</ele>
        <time>2019-07-14T09:47:38.646Z</time>
      </trkpt>
      <trkpt lat="43.83408" lon="2.35378">
        <ele>415.2</ele>
        <time>2019-07-14T09:47:43.140Z</time>
      </trkpt>
      <trkpt lat="43.83413" lon="2.35378">
        <ele>415.3</ele>
        <time>2019-07-14T09:47:45.364Z</time>
      </trkpt>
      <trkpt lat="43.83421" lon="2.35375">
        <ele>428</ele>
        <time>2019-07-14T09:47:49.050Z</time>
      </trkpt>
      <trkpt lat="43.83432" lon="2.35374">
        <ele>419.4</ele>
        <time>2019-07-14T09:47:53.953Z</time>
      </trkpt>
      <trkpt lat="43.83442" lon="2.35372">
        <ele>429</ele>
        <time>2019-07-14T09:47:58.447Z</time>
      </trkpt>
      <trkpt lat="43.83451" lon="2.35368">
        <ele>420.5</ele>
        <time>2019-07-14T09:48:02.651Z</time>
      </trkpt>
      <trkpt lat="43.83458" lon="2.35363">
        <ele>421.2</ele>
        <time>2019-07-14T09:48:06.153Z</time>
      </trkpt>
      <trkpt lat="43.83467" lon="2.35355">
        <ele>429</ele>
        <time>2019-07-14T09:48:10.908Z</time>
      </trkpt>
      <trkpt lat="43.83473" lon="2.35347">
        <ele>423.8</ele>
        <time>2019-07-14T09:48:14.611Z</time>
      </trkpt>
      <trkpt lat="43.83478" lon="2.35337">
        <ele>425.3</ele>
        <time>2019-07-14T09:48:18.515Z</time>
      </trkpt>
      <trkpt lat="43.83483" lon="2.35334">
        <ele>432</ele>
        <time>2019-07-14T09:48:20.938Z</time>
      </trkpt>
      <trkpt lat="43.83489" lon="2.35332">
        <ele>434.6</ele>
        <time>2019-07-14T09:48:23.683Z</time>
      </trkpt>
      <trkpt lat="43.83515" lon="2.35332">
        <ele>436</ele>
        <time>2019-07-14T09:48:35.247Z</time>
      </trkpt>
      <trkpt lat="43.83525" lon="2.35327">
        <ele>432.4</ele>
        <time>2019-07-14T09:48:39.975Z</time>
      </trkpt>
      <trkpt lat="43.83536" lon="2.3532">
        <ele>438</ele>
        <time>2019-07-14T09:48:45.358Z</time>
      </trkpt>
      <trkpt lat="43.83548" lon="2.35307">
        <ele>432.1</ele>
        <time>2019-07-14T09:48:52.132Z</time>
      </trkpt>
      <trkpt lat="43.83556" lon="2.35295">
        <ele>434</ele>
        <time>2019-07-14T09:48:57.374Z</time>
      </trkpt>
      <trkpt lat="43.83561" lon="2.35285">
        <ele>433.2</ele>
        <time>2019-07-14T09:49:01.278Z</time>
      </trkpt>
      <trkpt lat="43.83566" lon="2.35272">
        <ele>434</ele>
        <time>2019-07-14T09:49:06.005Z</time>
      </trkpt>
      <trkpt lat="43.83571" lon="2.35254">
        <ele>434</ele>
        <time>2019-07-14T09:49:12.193Z</time>
      </trkpt>
      <trkpt lat="43.83573" lon="2.35244">
        <ele>439.1</ele>
        <time>2019-07-14T09:49:15.522Z</time>
      </trkpt>
      <trkpt lat="43.83575" lon="2.35225">
        <ele>434</ele>
        <time>2019-07-14T09:49:21.682Z</time>
      </trkpt>
      <trkpt lat="43.83577" lon="2.3519">
        <ele>440</ele>
        <time>2019-07-14T09:49:32.946Z</time>
      </trkpt>
      <trkpt lat="43.83576" lon="2.35145">
        <ele>442</ele>
        <time>2019-07-14T09:49:47.390Z</time>
      </trkpt>
      <trkpt lat="43.83578" lon="2.35097">
        <ele>448</ele>
        <time>2019-07-14T09:50:02.816Z</time>
      </trkpt>
      <trkpt lat="43.83581" lon="2.35066">
        <ele>450</ele>
        <time>2019-07-14T09:50:12.851Z</time>
      </trkpt>
      <trkpt lat="43.83589" lon="2.3503">
        <ele>452</ele>
        <time>2019-07-14T09:50:24.937Z</time>
      </trkpt>
      <trkpt lat="43.83601" lon="2.34994">
        <ele>455</ele>
        <time>2019-07-14T09:50:37.661Z</time>
      </trkpt>
      <trkpt lat="43.8361" lon="2.34964">
        <ele>456</ele>
        <time>2019-07-14T09:50:48.085Z</time>
      </trkpt>
      <trkpt lat="43.8362" lon="2.34941">
        <ele>469.5</ele>
        <time>2019-07-14T09:50:56.701Z</time>
      </trkpt>
      <trkpt lat="43.83626" lon="2.3493">
        <ele>461</ele>
        <time>2019-07-14T09:51:01.126Z</time>
      </trkpt>
      <trkpt lat="43.83635" lon="2.34922">
        <ele>470.5</ele>
        <time>2019-07-14T09:51:05.881Z</time>
      </trkpt>
      <trkpt lat="43.83638" lon="2.34918">
        <ele>470.7</ele>
        <time>2019-07-14T09:51:07.732Z</time>
      </trkpt>
      <trkpt lat="43.83642" lon="2.34915">
        <ele>477</ele>
        <time>2019-07-14T09:51:09.755Z</time>
      </trkpt>
      <trkpt lat="43.83646" lon="2.34914">
        <ele>461</ele>
        <time>2019-07-14T09:51:11.563Z</time>
      </trkpt>
      <trkpt lat="43.8365" lon="2.34916">
        <ele>476.4</ele>
        <time>2019-07-14T09:51:13.454Z</time>
      </trkpt>
      <trkpt lat="43.83654" lon="2.3492">
        <ele>471.9</ele>
        <time>2019-07-14T09:51:15.648Z</time>
      </trkpt>
      <trkpt lat="43.83657" lon="2.34922">
        <ele>472.1</ele>
        <time>2019-07-14T09:51:17.129Z</time>
      </trkpt>
      <trkpt lat="43.83667" lon="2.34937">
        <ele>464</ele>
        <time>2019-07-14T09:51:23.682Z</time>
      </trkpt>
      <trkpt lat="43.83683" lon="2.34957">
        <ele>467</ele>
        <time>2019-07-14T09:51:33.264Z</time>
      </trkpt>
      <trkpt lat="43.83686" lon="2.3496">
        <ele>471.1</ele>
        <time>2019-07-14T09:51:34.909Z</time>
      </trkpt>
      <trkpt lat="43.83692" lon="2.34964">
        <ele>471</ele>
        <time>2019-07-14T09:51:37.870Z</time>
      </trkpt>
      <trkpt lat="43.83699" lon="2.34965">
        <ele>471.1</ele>
        <time>2019-07-14T09:51:41.000Z</time>
      </trkpt>
      <trkpt lat="43.83714" lon="2.34963">
        <ele>476</ele>
        <time>2019-07-14T09:51:47.702Z</time>
      </trkpt>
      <trkpt lat="43.83722" lon="2.34959">
        <ele>472.1</ele>
        <time>2019-07-14T09:51:51.485Z</time>
      </trkpt>
      <trkpt lat="43.83728" lon="2.34955">
        <ele>472.5</ele>
        <time>2019-07-14T09:51:54.446Z</time>
      </trkpt>
      <trkpt lat="43.83732" lon="2.34949">
        <ele>475</ele>
        <time>2019-07-14T09:51:57.067Z</time>
      </trkpt>
      <trkpt lat="43.83737" lon="2.34934">
        <ele>474.7</ele>
        <time>2019-07-14T09:52:02.368Z</time>
      </trkpt>
      <trkpt lat="43.83741" lon="2.34888">
        <ele>475</ele>
        <time>2019-07-14T09:52:17.233Z</time>
      </trkpt>
      <trkpt lat="43.83742" lon="2.34845">
        <ele>480</ele>
        <time>2019-07-14T09:52:31.036Z</time>
      </trkpt>
      <trkpt lat="43.83744" lon="2.34806">
        <ele>482</ele>
        <time>2019-07-14T09:52:43.580Z</time>
      </trkpt>
      <trkpt lat="43.83743" lon="2.34792">
        <ele>487.6</ele>
        <time>2019-07-14T09:52:48.093Z</time>
      </trkpt>
      <trkpt lat="43.83746" lon="2.34759">
        <ele>485</ele>
        <time>2019-07-14T09:52:58.764Z</time>
      </trkpt>
      <trkpt lat="43.83746" lon="2.34732">
        <ele>488</ele>
        <time>2019-07-14T09:53:07.426Z</time>
      </trkpt>
      <trkpt lat="43.83743" lon="2.34704">
        <ele>491</ele>
        <time>2019-07-14T09:53:16.508Z</time>
      </trkpt>
      <trkpt lat="43.83732" lon="2.34645">
        <ele>493</ele>
        <time>2019-07-14T09:53:36.059Z</time>
      </trkpt>
      <trkpt lat="43.83728" lon="2.34621">
        <ele>499.9</ele>
        <time>2019-07-14T09:53:43.962Z</time>
      </trkpt>
      <trkpt lat="43.83723" lon="2.34598">
        <ele>495</ele>
        <time>2019-07-14T09:53:51.669Z</time>
      </trkpt>
      <trkpt lat="43.83714" lon="2.34563">
        <ele>495</ele>
        <time>2019-07-14T09:54:03.590Z</time>
      </trkpt>
      <trkpt lat="43.83707" lon="2.34533">
        <ele>491</ele>
        <time>2019-07-14T09:54:13.706Z</time>
      </trkpt>
      <trkpt lat="43.83701" lon="2.34495">
        <ele>489</ele>
        <time>2019-07-14T09:54:26.186Z</time>
      </trkpt>
      <trkpt lat="43.837" lon="2.34475">
        <ele>498</ele>
        <time>2019-07-14T09:54:32.618Z</time>
      </trkpt>
      <trkpt lat="43.83698" lon="2.34456">
        <ele>487</ele>
        <time>2019-07-14T09:54:38.778Z</time>
      </trkpt>
      <trkpt lat="43.83697" lon="2.34438">
        <ele>497</ele>
        <time>2019-07-14T09:54:44.570Z</time>
      </trkpt>
      <trkpt lat="43.83696" lon="2.34417">
        <ele>485</ele>
        <time>2019-07-14T09:54:51.322Z</time>
      </trkpt>
      <trkpt lat="43.83696" lon="2.34404">
        <ele>495.1</ele>
        <time>2019-07-14T09:54:55.493Z</time>
      </trkpt>
      <trkpt lat="43.83697" lon="2.3439">
        <ele>483</ele>
        <time>2019-07-14T09:55:00.007Z</time>
      </trkpt>
      <trkpt lat="43.83708" lon="2.34347">
        <ele>483</ele>
        <time>2019-07-14T09:55:14.644Z</time>
      </trkpt>
      <trkpt lat="43.8371" lon="2.34333">
        <ele>494.7</ele>
        <time>2019-07-14T09:55:19.223Z</time>
      </trkpt>
      <trkpt lat="43.83711" lon="2.34321">
        <ele>494.8</ele>
        <time>2019-07-14T09:55:23.099Z</time>
      </trkpt>
      <trkpt lat="43.83711" lon="2.34307">
        <ele>481</ele>
        <time>2019-07-14T09:55:27.591Z</time>
      </trkpt>
      <trkpt lat="43.8371" lon="2.34296">
        <ele>494.8</ele>
        <time>2019-07-14T09:55:31.148Z</time>
      </trkpt>
      <trkpt lat="43.83706" lon="2.34279">
        <ele>481</ele>
        <time>2019-07-14T09:55:36.885Z</time>
      </trkpt>
      <trkpt lat="43.83687" lon="2.34262">
        <ele>482</ele>
        <time>2019-07-14T09:55:46.943Z</time>
      </trkpt>
      <trkpt lat="43.83679" lon="2.34259">
        <ele>494.3</ele>
        <time>2019-07-14T09:55:50.629Z</time>
      </trkpt>
      <trkpt lat="43.83674" lon="2.34258">
        <ele>494.2</ele>
        <time>2019-07-14T09:55:52.876Z</time>
      </trkpt>
      <trkpt lat="43.83664" lon="2.34259">
        <ele>482</ele>
        <time>2019-07-14T09:55:57.335Z</time>
      </trkpt>
      <trkpt lat="43.83625" lon="2.34259">
        <ele>483</ele>
        <time>2019-07-14T09:56:14.681Z</time>
      </trkpt>
      <trkpt lat="43.83598" lon="2.34262">
        <ele>483</ele>
        <time>2019-07-14T09:56:26.729Z</time>
      </trkpt>
      <trkpt lat="43.83566" lon="2.34265">
        <ele>483</ele>
        <time>2019-07-14T09:56:40.994Z</time>
      </trkpt>
      <trkpt lat="43.83553" lon="2.34265">
        <ele>488.9</ele>
        <time>2019-07-14T09:56:46.776Z</time>
      </trkpt>
      <trkpt lat="43.83537" lon="2.3426">
        <ele>483</ele>
        <time>2019-07-14T09:56:54.071Z</time>
      </trkpt>
      <trkpt lat="43.83531" lon="2.34257">
        <ele>489.2</ele>
        <time>2019-07-14T09:56:56.908Z</time>
      </trkpt>
      <trkpt lat="43.83478" lon="2.34224">
        <ele>483</ele>
        <time>2019-07-14T09:57:22.750Z</time>
      </trkpt>
      <trkpt lat="43.83476" lon="2.34221">
        <ele>491</ele>
        <time>2019-07-14T09:57:24.061Z</time>
      </trkpt>
      <trkpt lat="43.83475" lon="2.34212">
        <ele>491</ele>
        <time>2019-07-14T09:57:26.983Z</time>
      </trkpt>
      <trkpt lat="43.83494" lon="2.34154">
        <ele>483</ele>
        <time>2019-07-14T09:57:47.421Z</time>
      </trkpt>
      <trkpt lat="43.83493" lon="2.34154">
        <ele>483</ele>
        <time>2019-07-14T09:57:47.866Z</time>
      </trkpt>
    </trkseg>
  </trk>
</gpx>